PWSweather.com
Personal Weather Stations
Station Observations
BOOMEPH
Weather On The Hill Or Not, Ephrata, PA 17522

Weather On The Hill Or NotEphrata, PA 17522

Lat: 40.17243, Lon: -76.180815

Elevation: 597

Station Type: Ambient WS 1080

High Low Average
Temperature 72.4°F22.4°F 48.1°F8.9°F 60.0°F15.6°F
Dew Point 45.0°F7.2°F -0.3°F-17.9°F 32.6°F0.3°F
Winds 27.4 mph N44.1 mph N 2.2 mph 3.5 mph 9.1 mph 14.6 mph
Wind Gusts 32.0 mph51.5 mph 3.8 mph6.1 mph 13.8 mph22.2 mph
Humidity 85% 7% 43%
Pressure 29.94 in1013.90 in 29.94 in1013.90 in -
Precipitation 0.00 in0.00 in - -
Hour Temp Dew Point Humidity Winds Wind Gusts Pressure Precip Precip Rate Daily Precip Total
12:00 AM 52.1°F11.2°C 43.7°F6.5°C 73% 4.6 mph NE7.4 kmh NE 7.6 mph12.2 kmh 29.94 in1013.9 mb 0.00 in0.0 mm 0.00 in0.0 mm 0.00 in0.0 mm
12:01 AM 52.1°F11.2°C 43.7°F6.5°C 73% 4.7 mph NE7.6 kmh NE 7.6 mph12.2 kmh 29.94 in1013.9 mb 0.00 in0.0 mm 0.00 in0.0 mm 0.00 in0.0 mm
12:02 AM 52.1°F11.2°C 43.7°F6.5°C 73% 5.0 mph NE8.0 kmh NE 7.6 mph12.2 kmh 29.94 in1013.9 mb 0.00 in0.0 mm 0.00 in0.0 mm 0.00 in0.0 mm
12:03 AM 52.1°F11.2°C 43.7°F6.5°C 73% 5.3 mph NE8.5 kmh NE 7.6 mph12.2 kmh 29.94 in1013.9 mb 0.00 in0.0 mm 0.00 in0.0 mm 0.00 in0.0 mm
12:04 AM 52.1°F11.2°C 43.7°F6.5°C 73% 5.3 mph ENE8.5 kmh ENE 7.6 mph12.2 kmh 29.94 in1013.9 mb 0.00 in0.0 mm 0.00 in0.0 mm 0.00 in0.0 mm
12:05 AM 52.1°F11.2°C 43.7°F6.5°C 73% 5.3 mph ENE8.5 kmh ENE 7.6 mph12.2 kmh 29.94 in1013.9 mb 0.00 in0.0 mm 0.00 in0.0 mm 0.00 in0.0 mm
12:06 AM 52.1°F11.2°C 43.7°F6.5°C 73% 5.3 mph ENE8.5 kmh ENE 7.6 mph12.2 kmh 29.94 in1013.9 mb 0.00 in0.0 mm 0.00 in0.0 mm 0.00 in0.0 mm
12:07 AM 52.1°F11.2°C 43.7°F6.5°C 73% 5.5 mph ENE8.9 kmh ENE 7.6 mph12.2 kmh 29.94 in1013.9 mb 0.00 in0.0 mm 0.00 in0.0 mm 0.00 in0.0 mm
12:08 AM 51.9°F11.1°C 43.5°F6.4°C 73% 5.4 mph ENE8.7 kmh ENE 7.6 mph12.2 kmh 29.94 in1013.9 mb 0.00 in0.0 mm 0.00 in0.0 mm 0.00 in0.0 mm
12:09 AM 51.9°F11.1°C 43.5°F6.4°C 73% 5.2 mph ENE8.4 kmh ENE 6.0 mph9.7 kmh 29.94 in1013.9 mb 0.00 in0.0 mm 0.00 in0.0 mm 0.00 in0.0 mm
12:10 AM 51.9°F11.1°C 43.5°F6.4°C 73% 5.0 mph ENE8.0 kmh ENE 5.4 mph8.7 kmh 29.94 in1013.9 mb 0.00 in0.0 mm 0.00 in0.0 mm 0.00 in0.0 mm
12:11 AM 51.7°F10.9°C 43.3°F6.3°C 73% 4.5 mph ENE7.2 kmh ENE 5.4 mph8.7 kmh 29.94 in1013.9 mb 0.00 in0.0 mm 0.00 in0.0 mm 0.00 in0.0 mm
12:12 AM 51.7°F10.9°C 43.3°F6.3°C 73% 4.2 mph ENE6.8 kmh ENE 6.0 mph9.7 kmh 29.94 in1013.9 mb 0.00 in0.0 mm 0.00 in0.0 mm 0.00 in0.0 mm
12:13 AM 51.7°F10.9°C 43.7°F6.5°C 74% 4.2 mph NE6.8 kmh NE 6.0 mph9.7 kmh 29.94 in1013.9 mb 0.00 in0.0 mm 0.00 in0.0 mm 0.00 in0.0 mm
12:14 AM 51.7°F10.9°C 43.7°F6.5°C 74% 4.0 mph NE6.4 kmh NE 6.0 mph9.7 kmh 29.94 in1013.9 mb 0.00 in0.0 mm 0.00 in0.0 mm 0.00 in0.0 mm
12:15 AM 51.7°F10.9°C 43.7°F6.5°C 74% 3.9 mph NE6.3 kmh NE 6.0 mph9.7 kmh 29.94 in1013.9 mb 0.00 in0.0 mm 0.00 in0.0 mm 0.00 in0.0 mm
12:16 AM 51.7°F10.9°C 43.7°F6.5°C 74% 3.8 mph NE6.1 kmh NE 6.0 mph9.7 kmh 29.94 in1013.9 mb 0.00 in0.0 mm 0.00 in0.0 mm 0.00 in0.0 mm
12:17 AM 51.7°F10.9°C 43.7°F6.5°C 74% 3.6 mph NNE5.8 kmh NNE 6.0 mph9.7 kmh 29.94 in1013.9 mb 0.00 in0.0 mm 0.00 in0.0 mm 0.00 in0.0 mm
12:18 AM 51.7°F10.9°C 43.7°F6.5°C 74% 3.6 mph NNE5.8 kmh NNE 6.0 mph9.7 kmh 29.94 in1013.9 mb 0.00 in0.0 mm 0.00 in0.0 mm 0.00 in0.0 mm
12:19 AM 51.7°F10.9°C 43.7°F6.5°C 74% 3.7 mph NNE6.0 kmh NNE 6.0 mph9.7 kmh 29.94 in1013.9 mb 0.00 in0.0 mm 0.00 in0.0 mm 0.00 in0.0 mm
12:20 AM 51.7°F10.9°C 43.7°F6.5°C 74% 4.0 mph N6.4 kmh N 7.6 mph12.2 kmh 29.94 in1013.9 mb 0.00 in0.0 mm 0.00 in0.0 mm 0.00 in0.0 mm
12:21 AM 51.7°F10.9°C 43.7°F6.5°C 74% 4.6 mph N7.4 kmh N 7.6 mph12.2 kmh 29.94 in1013.9 mb 0.00 in0.0 mm 0.00 in0.0 mm 0.00 in0.0 mm
12:22 AM 51.7°F10.9°C 43.7°F6.5°C 74% 4.8 mph N7.7 kmh N 7.6 mph12.2 kmh 29.94 in1013.9 mb 0.00 in0.0 mm 0.00 in0.0 mm 0.00 in0.0 mm
12:23 AM 51.7°F10.9°C 43.7°F6.5°C 74% 4.8 mph N7.7 kmh N 7.6 mph12.2 kmh 29.94 in1013.9 mb 0.00 in0.0 mm 0.00 in0.0 mm 0.00 in0.0 mm
12:24 AM 51.7°F10.9°C 43.7°F6.5°C 74% 4.9 mph N7.9 kmh N 7.6 mph12.2 kmh 29.94 in1013.9 mb 0.00 in0.0 mm 0.00 in0.0 mm 0.00 in0.0 mm
12:25 AM 51.7°F10.9°C 43.7°F6.5°C 74% 4.8 mph N7.7 kmh N 7.6 mph12.2 kmh 29.94 in1013.9 mb 0.00 in0.0 mm 0.00 in0.0 mm 0.00 in0.0 mm
12:26 AM 51.7°F10.9°C 44.0°F6.7°C 75% 4.8 mph N7.7 kmh N 7.6 mph12.2 kmh 29.94 in1013.9 mb 0.00 in0.0 mm 0.00 in0.0 mm 0.00 in0.0 mm
12:27 AM 51.7°F10.9°C 44.0°F6.7°C 75% 5.0 mph N8.0 kmh N 7.6 mph12.2 kmh 29.94 in1013.9 mb 0.00 in0.0 mm 0.00 in0.0 mm 0.00 in0.0 mm
12:28 AM 51.7°F10.9°C 44.0°F6.7°C 75% 5.5 mph N8.9 kmh N 8.3 mph13.4 kmh 29.94 in1013.9 mb 0.00 in0.0 mm 0.00 in0.0 mm 0.00 in0.0 mm
12:29 AM 51.9°F11.1°C 44.2°F6.8°C 75% 5.5 mph N8.9 kmh N 8.3 mph13.4 kmh 29.94 in1013.9 mb 0.00 in0.0 mm 0.00 in0.0 mm 0.00 in0.0 mm
12:30 AM 51.9°F11.1°C 44.2°F6.8°C 75% 5.1 mph N8.2 kmh N 8.3 mph13.4 kmh 29.94 in1013.9 mb 0.00 in0.0 mm 0.00 in0.0 mm 0.00 in0.0 mm
12:31 AM 51.9°F11.1°C 44.2°F6.8°C 75% 5.2 mph N8.4 kmh N 8.3 mph13.4 kmh 29.94 in1013.9 mb 0.00 in0.0 mm 0.00 in0.0 mm 0.00 in0.0 mm
12:32 AM 51.7°F10.9°C 44.0°F6.7°C 75% 5.4 mph N8.7 kmh N 8.3 mph13.4 kmh 29.94 in1013.9 mb 0.00 in0.0 mm 0.00 in0.0 mm 0.00 in0.0 mm
12:33 AM 51.7°F10.9°C 44.0°F6.7°C 75% 5.3 mph N8.5 kmh N 8.3 mph13.4 kmh 29.94 in1013.9 mb 0.00 in0.0 mm 0.00 in0.0 mm 0.00 in0.0 mm
12:34 AM 51.7°F10.9°C 44.0°F6.7°C 75% 5.7 mph NNE9.2 kmh NNE 8.3 mph13.4 kmh 29.94 in1013.9 mb 0.00 in0.0 mm 0.00 in0.0 mm 0.00 in0.0 mm
12:35 AM 51.7°F10.9°C 44.0°F6.7°C 75% 6.2 mph N10.0 kmh N 8.3 mph13.4 kmh 29.94 in1013.9 mb 0.00 in0.0 mm 0.00 in0.0 mm 0.00 in0.0 mm
12:36 AM 51.7°F10.9°C 44.0°F6.7°C 75% 6.3 mph N10.1 kmh N 8.3 mph13.4 kmh 29.94 in1013.9 mb 0.00 in0.0 mm 0.00 in0.0 mm 0.00 in0.0 mm
12:37 AM 51.7°F10.9°C 44.0°F6.7°C 75% 6.2 mph N10.0 kmh N 8.3 mph13.4 kmh 29.94 in1013.9 mb 0.00 in0.0 mm 0.00 in0.0 mm 0.00 in0.0 mm
12:38 AM 51.7°F10.9°C 44.0°F6.7°C 75% 6.1 mph N9.8 kmh N 8.3 mph13.4 kmh 29.94 in1013.9 mb 0.00 in0.0 mm 0.00 in0.0 mm 0.00 in0.0 mm
12:39 AM 51.7°F10.9°C 44.0°F6.7°C 75% 6.1 mph N9.8 kmh N 8.3 mph13.4 kmh 29.94 in1013.9 mb 0.00 in0.0 mm 0.00 in0.0 mm 0.00 in0.0 mm
12:40 AM 51.7°F10.9°C 44.4°F6.9°C 76% 6.6 mph N10.6 kmh N 12.1 mph19.5 kmh 29.94 in1013.9 mb 0.00 in0.0 mm 0.00 in0.0 mm 0.00 in0.0 mm
12:41 AM 51.7°F10.9°C 44.4°F6.9°C 76% 6.8 mph N10.9 kmh N 12.1 mph19.5 kmh 29.94 in1013.9 mb 0.00 in0.0 mm 0.00 in0.0 mm 0.00 in0.0 mm
12:42 AM 51.7°F10.9°C 44.4°F6.9°C 76% 6.7 mph N10.8 kmh N 12.1 mph19.5 kmh 29.94 in1013.9 mb 0.00 in0.0 mm 0.00 in0.0 mm 0.00 in0.0 mm
12:43 AM 51.7°F10.9°C 44.4°F6.9°C 76% 6.8 mph N10.9 kmh N 12.1 mph19.5 kmh 29.94 in1013.9 mb 0.00 in0.0 mm 0.00 in0.0 mm 0.00 in0.0 mm
12:44 AM 51.7°F10.9°C 44.4°F6.9°C 76% 6.6 mph N10.6 kmh N 12.1 mph19.5 kmh 29.94 in1013.9 mb 0.00 in0.0 mm 0.00 in0.0 mm 0.00 in0.0 mm
12:45 AM 51.7°F10.9°C 44.4°F6.9°C 76% 6.5 mph N10.5 kmh N 12.1 mph19.5 kmh 29.94 in1013.9 mb 0.00 in0.0 mm 0.00 in0.0 mm 0.00 in0.0 mm
12:46 AM 51.7°F10.9°C 44.4°F6.9°C 76% 6.4 mph N10.3 kmh N 12.1 mph19.5 kmh 29.94 in1013.9 mb 0.00 in0.0 mm 0.00 in0.0 mm 0.00 in0.0 mm
12:47 AM 51.7°F10.9°C 44.4°F6.9°C 76% 6.6 mph N10.6 kmh N 12.1 mph19.5 kmh 29.94 in1013.9 mb 0.00 in0.0 mm 0.00 in0.0 mm 0.00 in0.0 mm
12:48 AM 51.5°F10.8°C 44.2°F6.8°C 76% 6.4 mph N10.3 kmh N 12.1 mph19.5 kmh 29.94 in1013.9 mb 0.00 in0.0 mm 0.00 in0.0 mm 0.00 in0.0 mm
12:49 AM 51.5°F10.8°C 44.2°F6.8°C 76% 6.4 mph N10.3 kmh N 12.1 mph19.5 kmh 29.94 in1013.9 mb 0.00 in0.0 mm 0.00 in0.0 mm 0.00 in0.0 mm
12:50 AM 51.5°F10.8°C 44.2°F6.8°C 76% 6.1 mph N9.8 kmh N 12.1 mph19.5 kmh 29.94 in1013.9 mb 0.00 in0.0 mm 0.00 in0.0 mm 0.00 in0.0 mm
12:51 AM 51.5°F10.8°C 44.2°F6.8°C 76% 5.7 mph NNE9.2 kmh NNE 9.2 mph14.8 kmh 29.94 in1013.9 mb 0.00 in0.0 mm 0.00 in0.0 mm 0.00 in0.0 mm
12:52 AM 51.5°F10.8°C 44.2°F6.8°C 76% 5.8 mph NNE9.3 kmh NNE 9.2 mph14.8 kmh 29.94 in1013.9 mb 0.00 in0.0 mm 0.00 in0.0 mm 0.00 in0.0 mm
12:53 AM 51.3°F10.7°C 44.0°F6.7°C 76% 5.7 mph NNE9.2 kmh NNE 9.2 mph14.8 kmh 29.94 in1013.9 mb 0.00 in0.0 mm 0.00 in0.0 mm 0.00 in0.0 mm
12:54 AM 51.3°F10.7°C 44.4°F6.9°C 77% 5.5 mph NNE8.9 kmh NNE 9.2 mph14.8 kmh 29.94 in1013.9 mb 0.00 in0.0 mm 0.00 in0.0 mm 0.00 in0.0 mm
12:55 AM 51.3°F10.7°C 44.4°F6.9°C 77% 5.4 mph N8.7 kmh N 9.2 mph14.8 kmh 29.94 in1013.9 mb 0.00 in0.0 mm 0.00 in0.0 mm 0.00 in0.0 mm
12:56 AM 51.3°F10.7°C 44.4°F6.9°C 77% 5.4 mph N8.7 kmh N 9.2 mph14.8 kmh 29.94 in1013.9 mb 0.00 in0.0 mm 0.00 in0.0 mm 0.00 in0.0 mm
12:57 AM 51.3°F10.7°C 44.4°F6.9°C 77% 5.1 mph N8.2 kmh N 8.3 mph13.4 kmh 29.94 in1013.9 mb 0.00 in0.0 mm 0.00 in0.0 mm 0.00 in0.0 mm
12:58 AM 51.2°F10.7°C 44.2°F6.8°C 77% 5.0 mph N8.0 kmh N 8.3 mph13.4 kmh 29.94 in1013.9 mb 0.00 in0.0 mm 0.00 in0.0 mm 0.00 in0.0 mm
12:59 AM 51.3°F10.7°C 44.4°F6.9°C 77% 5.2 mph NNE8.4 kmh NNE 8.3 mph13.4 kmh 29.94 in1013.9 mb 0.00 in0.0 mm 0.00 in0.0 mm 0.00 in0.0 mm
01:00 AM 51.2°F10.7°C 44.2°F6.8°C 77% 5.1 mph N8.2 kmh N 8.3 mph13.4 kmh 29.94 in1013.9 mb 0.00 in0.0 mm 0.00 in0.0 mm 0.00 in0.0 mm
01:01 AM 51.3°F10.7°C 44.4°F6.9°C 77% 5.4 mph N8.7 kmh N 9.2 mph14.8 kmh 29.94 in1013.9 mb 0.00 in0.0 mm 0.00 in0.0 mm 0.00 in0.0 mm
01:02 AM 51.3°F10.7°C 44.4°F6.9°C 77% 5.5 mph N8.9 kmh N 9.2 mph14.8 kmh 29.94 in1013.9 mb 0.00 in0.0 mm 0.00 in0.0 mm 0.00 in0.0 mm
01:03 AM 51.3°F10.7°C 44.4°F6.9°C 77% 5.5 mph N8.9 kmh N 9.2 mph14.8 kmh 29.94 in1013.9 mb 0.00 in0.0 mm 0.00 in0.0 mm 0.00 in0.0 mm
01:04 AM 51.2°F10.7°C 44.2°F6.8°C 77% 5.6 mph N9.0 kmh N 9.2 mph14.8 kmh 29.94 in1013.9 mb 0.00 in0.0 mm 0.00 in0.0 mm 0.00 in0.0 mm
01:05 AM 51.2°F10.7°C 44.2°F6.8°C 77% 5.7 mph N9.2 kmh N 9.2 mph14.8 kmh 29.94 in1013.9 mb 0.00 in0.0 mm 0.00 in0.0 mm 0.00 in0.0 mm
01:06 AM 51.2°F10.7°C 44.5°F6.9°C 78% 5.8 mph NNW9.3 kmh NNW 9.2 mph14.8 kmh 29.94 in1013.9 mb 0.00 in0.0 mm 0.00 in0.0 mm 0.00 in0.0 mm
01:07 AM 51.3°F10.7°C 44.7°F7.1°C 78% 5.8 mph NNW9.3 kmh NNW 9.2 mph14.8 kmh 29.94 in1013.9 mb 0.00 in0.0 mm 0.00 in0.0 mm 0.00 in0.0 mm
01:08 AM 51.2°F10.7°C 44.5°F6.9°C 78% 5.7 mph NNW9.2 kmh NNW 9.2 mph14.8 kmh 29.94 in1013.9 mb 0.00 in0.0 mm 0.00 in0.0 mm 0.00 in0.0 mm
01:09 AM 51.2°F10.7°C 44.5°F6.9°C 78% 5.4 mph NNW8.7 kmh NNW 9.2 mph14.8 kmh 29.94 in1013.9 mb 0.00 in0.0 mm 0.00 in0.0 mm 0.00 in0.0 mm
01:10 AM 51.2°F10.7°C 44.5°F6.9°C 78% 5.3 mph NNW8.5 kmh NNW 9.2 mph14.8 kmh 29.94 in1013.9 mb 0.00 in0.0 mm 0.00 in0.0 mm 0.00 in0.0 mm
01:11 AM 51.2°F10.7°C 44.5°F6.9°C 78% 4.8 mph N7.7 kmh N 9.2 mph14.8 kmh 29.94 in1013.9 mb 0.00 in0.0 mm 0.00 in0.0 mm 0.00 in0.0 mm
01:12 AM 51.0°F10.6°C 44.4°F6.9°C 78% 4.2 mph N6.8 kmh N 6.9 mph11.1 kmh 29.94 in1013.9 mb 0.00 in0.0 mm 0.00 in0.0 mm 0.00 in0.0 mm
01:13 AM 51.2°F10.7°C 44.5°F6.9°C 78% 4.0 mph N6.4 kmh N 6.9 mph11.1 kmh 29.94 in1013.9 mb 0.00 in0.0 mm 0.00 in0.0 mm 0.00 in0.0 mm
01:14 AM 51.0°F10.6°C 44.4°F6.9°C 78% 3.8 mph N6.1 kmh N 6.9 mph11.1 kmh 29.94 in1013.9 mb 0.00 in0.0 mm 0.00 in0.0 mm 0.00 in0.0 mm
01:15 AM 51.0°F10.6°C 44.4°F6.9°C 78% 3.4 mph N5.5 kmh N 6.0 mph9.7 kmh 29.94 in1013.9 mb 0.00 in0.0 mm 0.00 in0.0 mm 0.00 in0.0 mm
01:16 AM 51.0°F10.6°C 44.4°F6.9°C 78% 3.2 mph N5.1 kmh N 5.4 mph8.7 kmh 29.94 in1013.9 mb 0.00 in0.0 mm 0.00 in0.0 mm 0.00 in0.0 mm
01:17 AM 51.0°F10.6°C 44.4°F6.9°C 78% 3.1 mph N5.0 kmh N 5.4 mph8.7 kmh 29.94 in1013.9 mb 0.00 in0.0 mm 0.00 in0.0 mm 0.00 in0.0 mm
01:18 AM 51.0°F10.6°C 44.4°F6.9°C 78% 3.5 mph NE5.6 kmh NE 9.2 mph14.8 kmh 29.94 in1013.9 mb 0.00 in0.0 mm 0.00 in0.0 mm 0.00 in0.0 mm
01:19 AM 51.0°F10.6°C 44.7°F7.1°C 79% 3.6 mph NE5.8 kmh NE 9.2 mph14.8 kmh 29.94 in1013.9 mb 0.00 in0.0 mm 0.00 in0.0 mm 0.00 in0.0 mm
01:20 AM 51.0°F10.6°C 44.7°F7.1°C 79% 3.6 mph NNE5.8 kmh NNE 9.2 mph14.8 kmh 29.94 in1013.9 mb 0.00 in0.0 mm 0.00 in0.0 mm 0.00 in0.0 mm
01:21 AM 51.0°F10.6°C 44.7°F7.1°C 79% 3.7 mph NNE6.0 kmh NNE 9.2 mph14.8 kmh 29.94 in1013.9 mb 0.00 in0.0 mm 0.00 in0.0 mm 0.00 in0.0 mm
01:22 AM 51.0°F10.6°C 44.7°F7.1°C 79% 4.0 mph NE6.4 kmh NE 9.2 mph14.8 kmh 29.94 in1013.9 mb 0.00 in0.0 mm 0.00 in0.0 mm 0.00 in0.0 mm
01:23 AM 51.0°F10.6°C 44.7°F7.1°C 79% 4.2 mph NE6.8 kmh NE 9.2 mph14.8 kmh 29.94 in1013.9 mb 0.00 in0.0 mm 0.00 in0.0 mm 0.00 in0.0 mm
01:24 AM 51.0°F10.6°C 44.7°F7.1°C 79% 4.4 mph NE7.1 kmh NE 9.2 mph14.8 kmh 29.94 in1013.9 mb 0.00 in0.0 mm 0.00 in0.0 mm 0.00 in0.0 mm
01:25 AM 51.0°F10.6°C 44.7°F7.1°C 79% 4.7 mph NE7.6 kmh NE 9.2 mph14.8 kmh 29.94 in1013.9 mb 0.00 in0.0 mm 0.00 in0.0 mm 0.00 in0.0 mm
01:26 AM 51.0°F10.6°C 44.7°F7.1°C 79% 4.8 mph NE7.7 kmh NE 9.2 mph14.8 kmh 29.94 in1013.9 mb 0.00 in0.0 mm 0.00 in0.0 mm 0.00 in0.0 mm
01:27 AM 51.0°F10.6°C 44.7°F7.1°C 79% 4.9 mph NE7.9 kmh NE 9.2 mph14.8 kmh 29.94 in1013.9 mb 0.00 in0.0 mm 0.00 in0.0 mm 0.00 in0.0 mm
01:28 AM 51.0°F10.6°C 44.4°F6.9°C 78% 4.7 mph NE7.6 kmh NE 9.2 mph14.8 kmh 29.94 in1013.9 mb 0.00 in0.0 mm 0.00 in0.0 mm 0.00 in0.0 mm
01:29 AM 51.2°F10.7°C 44.5°F6.9°C 78% 4.6 mph NE7.4 kmh NE 6.0 mph9.7 kmh 29.94 in1013.9 mb 0.00 in0.0 mm 0.00 in0.0 mm 0.00 in0.0 mm
01:30 AM 51.0°F10.6°C 44.4°F6.9°C 78% 4.5 mph NE7.2 kmh NE 6.0 mph9.7 kmh 29.94 in1013.9 mb 0.00 in0.0 mm 0.00 in0.0 mm 0.00 in0.0 mm
01:31 AM 51.0°F10.6°C 44.4°F6.9°C 78% 4.5 mph NE7.2 kmh NE 6.0 mph9.7 kmh 29.94 in1013.9 mb 0.00 in0.0 mm 0.00 in0.0 mm 0.00 in0.0 mm
01:33 AM 51.0°F10.6°C 44.7°F7.1°C 79% 4.5 mph N7.2 kmh N 6.0 mph9.7 kmh 29.94 in1013.9 mb 0.00 in0.0 mm 0.00 in0.0 mm 0.00 in0.0 mm
01:34 AM 51.0°F10.6°C 44.7°F7.1°C 79% 4.6 mph N7.4 kmh N 8.3 mph13.4 kmh 29.94 in1013.9 mb 0.00 in0.0 mm 0.00 in0.0 mm 0.00 in0.0 mm
01:35 AM 51.0°F10.6°C 44.7°F7.1°C 79% 4.8 mph NNE7.7 kmh NNE 8.3 mph13.4 kmh 29.94 in1013.9 mb 0.00 in0.0 mm 0.00 in0.0 mm 0.00 in0.0 mm
01:36 AM 51.0°F10.6°C 44.7°F7.1°C 79% 4.7 mph NNE7.6 kmh NNE 8.3 mph13.4 kmh 29.94 in1013.9 mb 0.00 in0.0 mm 0.00 in0.0 mm 0.00 in0.0 mm
01:37 AM 51.0°F10.6°C 44.7°F7.1°C 79% 4.8 mph N7.7 kmh N 8.3 mph13.4 kmh 29.94 in1013.9 mb 0.00 in0.0 mm 0.00 in0.0 mm 0.00 in0.0 mm
01:38 AM 51.0°F10.6°C 44.7°F7.1°C 79% 4.8 mph N7.7 kmh N 8.3 mph13.4 kmh 29.94 in1013.9 mb 0.00 in0.0 mm 0.00 in0.0 mm 0.00 in0.0 mm
01:39 AM 51.0°F10.6°C 44.7°F7.1°C 79% 4.6 mph N7.4 kmh N 8.3 mph13.4 kmh 29.94 in1013.9 mb 0.00 in0.0 mm 0.00 in0.0 mm 0.00 in0.0 mm
01:40 AM 51.0°F10.6°C 44.7°F7.1°C 79% 4.8 mph N7.7 kmh N 8.3 mph13.4 kmh 29.94 in1013.9 mb 0.00 in0.0 mm 0.00 in0.0 mm 0.00 in0.0 mm
01:41 AM 51.0°F10.6°C 44.7°F7.1°C 79% 4.7 mph N7.6 kmh N 8.3 mph13.4 kmh 29.94 in1013.9 mb 0.00 in0.0 mm 0.00 in0.0 mm 0.00 in0.0 mm
01:42 AM 51.0°F10.6°C 44.7°F7.1°C 79% 4.7 mph N7.6 kmh N 8.3 mph13.4 kmh 29.94 in1013.9 mb 0.00 in0.0 mm 0.00 in0.0 mm 0.00 in0.0 mm
01:43 AM 51.0°F10.6°C 44.7°F7.1°C 79% 4.5 mph N7.2 kmh N 8.3 mph13.4 kmh 29.94 in1013.9 mb 0.00 in0.0 mm 0.00 in0.0 mm 0.00 in0.0 mm
01:44 AM 51.0°F10.6°C 44.7°F7.1°C 79% 4.3 mph N6.9 kmh N 8.3 mph13.4 kmh 29.94 in1013.9 mb 0.00 in0.0 mm 0.00 in0.0 mm 0.00 in0.0 mm
01:45 AM 50.8°F10.4°C 44.5°F6.9°C 79% 4.0 mph N6.4 kmh N 6.0 mph9.7 kmh 29.94 in1013.9 mb 0.00 in0.0 mm 0.00 in0.0 mm 0.00 in0.0 mm
01:46 AM 50.8°F10.4°C 44.5°F6.9°C 79% 3.9 mph N6.3 kmh N 6.0 mph9.7 kmh 29.94 in1013.9 mb 0.00 in0.0 mm 0.00 in0.0 mm 0.00 in0.0 mm
01:47 AM 50.8°F10.4°C 44.5°F6.9°C 79% 3.6 mph NNE5.8 kmh NNE 5.4 mph8.7 kmh 29.94 in1013.9 mb 0.00 in0.0 mm 0.00 in0.0 mm 0.00 in0.0 mm
01:48 AM 50.8°F10.4°C 44.5°F6.9°C 79% 3.7 mph N6.0 kmh N 5.4 mph8.7 kmh 29.94 in1013.9 mb 0.00 in0.0 mm 0.00 in0.0 mm 0.00 in0.0 mm
01:49 AM 50.8°F10.4°C 44.5°F6.9°C 79% 3.8 mph N6.1 kmh N 5.4 mph8.7 kmh 29.94 in1013.9 mb 0.00 in0.0 mm 0.00 in0.0 mm 0.00 in0.0 mm
01:50 AM 50.8°F10.4°C 44.5°F6.9°C 79% 3.5 mph N5.6 kmh N 5.4 mph8.7 kmh 29.94 in1013.9 mb 0.00 in0.0 mm 0.00 in0.0 mm 0.00 in0.0 mm
01:51 AM 50.8°F10.4°C 44.5°F6.9°C 79% 3.7 mph N6.0 kmh N 5.4 mph8.7 kmh 29.94 in1013.9 mb 0.00 in0.0 mm 0.00 in0.0 mm 0.00 in0.0 mm
01:52 AM 50.8°F10.4°C 44.5°F6.9°C 79% 3.7 mph N6.0 kmh N 5.4 mph8.7 kmh 29.94 in1013.9 mb 0.00 in0.0 mm 0.00 in0.0 mm 0.00 in0.0 mm
01:53 AM 50.8°F10.4°C 44.5°F6.9°C 79% 3.6 mph N5.8 kmh N 5.4 mph8.7 kmh 29.94 in1013.9 mb 0.00 in0.0 mm 0.00 in0.0 mm 0.00 in0.0 mm
01:54 AM 50.8°F10.4°C 44.5°F6.9°C 79% 3.4 mph N5.5 kmh N 5.4 mph8.7 kmh 29.94 in1013.9 mb 0.00 in0.0 mm 0.00 in0.0 mm 0.00 in0.0 mm
01:55 AM 50.8°F10.4°C 44.5°F6.9°C 79% 3.3 mph N5.3 kmh N 5.4 mph8.7 kmh 29.94 in1013.9 mb 0.00 in0.0 mm 0.00 in0.0 mm 0.00 in0.0 mm
01:56 AM 50.8°F10.4°C 44.5°F6.9°C 79% 3.2 mph N5.1 kmh N 5.4 mph8.7 kmh 29.94 in1013.9 mb 0.00 in0.0 mm 0.00 in0.0 mm 0.00 in0.0 mm
01:57 AM 50.8°F10.4°C 44.5°F6.9°C 79% 3.2 mph N5.1 kmh N 5.4 mph8.7 kmh 29.94 in1013.9 mb 0.00 in0.0 mm 0.00 in0.0 mm 0.00 in0.0 mm
01:58 AM 50.8°F10.4°C 44.5°F6.9°C 79% 3.0 mph N4.8 kmh N 5.4 mph8.7 kmh 29.94 in1013.9 mb 0.00 in0.0 mm 0.00 in0.0 mm 0.00 in0.0 mm
01:59 AM 50.8°F10.4°C 44.9°F7.2°C 80% 2.8 mph N4.5 kmh N 5.4 mph8.7 kmh 29.94 in1013.9 mb 0.00 in0.0 mm 0.00 in0.0 mm 0.00 in0.0 mm
02:00 AM 50.8°F10.4°C 44.9°F7.2°C 80% 2.8 mph N4.5 kmh N 5.4 mph8.7 kmh 29.94 in1013.9 mb 0.00 in0.0 mm 0.00 in0.0 mm 0.00 in0.0 mm
02:02 AM 50.8°F10.4°C 44.9°F7.2°C 80% 2.4 mph N3.9 kmh N 4.5 mph7.2 kmh 29.94 in1013.9 mb 0.00 in0.0 mm 0.00 in0.0 mm 0.00 in0.0 mm
02:03 AM 50.8°F10.4°C 44.9°F7.2°C 80% 2.2 mph N3.5 kmh N 3.8 mph6.1 kmh 29.94 in1013.9 mb 0.00 in0.0 mm 0.00 in0.0 mm 0.00 in0.0 mm
02:04 AM 50.8°F10.4°C 44.9°F7.2°C 80% 2.3 mph N3.7 kmh N 3.8 mph6.1 kmh 29.94 in1013.9 mb 0.00 in0.0 mm 0.00 in0.0 mm 0.00 in0.0 mm
02:05 AM 50.8°F10.4°C 44.9°F7.2°C 80% 2.3 mph N3.7 kmh N 3.8 mph6.1 kmh 29.94 in1013.9 mb 0.00 in0.0 mm 0.00 in0.0 mm 0.00 in0.0 mm
02:06 AM 50.8°F10.4°C 44.9°F7.2°C 80% 2.4 mph NNE3.9 kmh NNE 3.8 mph6.1 kmh 29.94 in1013.9 mb 0.00 in0.0 mm 0.00 in0.0 mm 0.00 in0.0 mm
02:07 AM 50.8°F10.4°C 44.9°F7.2°C 80% 2.3 mph NNE3.7 kmh NNE 3.8 mph6.1 kmh 29.94 in1013.9 mb 0.00 in0.0 mm 0.00 in0.0 mm 0.00 in0.0 mm
02:08 AM 50.6°F10.3°C 45.0°F7.2°C 81% 2.5 mph NE4.0 kmh NE 5.4 mph8.7 kmh 29.94 in1013.9 mb 0.00 in0.0 mm 0.00 in0.0 mm 0.00 in0.0 mm
02:09 AM 50.6°F10.3°C 45.0°F7.2°C 81% 2.8 mph NNE4.5 kmh NNE 5.4 mph8.7 kmh 29.94 in1013.9 mb 0.00 in0.0 mm 0.00 in0.0 mm 0.00 in0.0 mm
02:10 AM 50.6°F10.3°C 45.0°F7.2°C 81% 2.8 mph NNE4.5 kmh NNE 5.4 mph8.7 kmh 29.94 in1013.9 mb 0.00 in0.0 mm 0.00 in0.0 mm 0.00 in0.0 mm
02:11 AM 50.6°F10.3°C 45.0°F7.2°C 81% 2.9 mph NNE4.7 kmh NNE 5.4 mph8.7 kmh 29.94 in1013.9 mb 0.00 in0.0 mm 0.00 in0.0 mm 0.00 in0.0 mm
02:12 AM 50.6°F10.3°C 45.0°F7.2°C 81% 3.0 mph NNE4.8 kmh NNE 5.4 mph8.7 kmh 29.94 in1013.9 mb 0.00 in0.0 mm 0.00 in0.0 mm 0.00 in0.0 mm
02:13 AM 50.6°F10.3°C 45.0°F7.2°C 81% 3.1 mph N5.0 kmh N 5.4 mph8.7 kmh 29.94 in1013.9 mb 0.00 in0.0 mm 0.00 in0.0 mm 0.00 in0.0 mm
02:14 AM 50.6°F10.3°C 45.0°F7.2°C 81% 3.2 mph N5.1 kmh N 5.4 mph8.7 kmh 29.94 in1013.9 mb 0.00 in0.0 mm 0.00 in0.0 mm 0.00 in0.0 mm
02:15 AM 50.6°F10.3°C 45.0°F7.2°C 81% 3.3 mph N5.3 kmh N 5.4 mph8.7 kmh 29.94 in1013.9 mb 0.00 in0.0 mm 0.00 in0.0 mm 0.00 in0.0 mm
02:16 AM 50.6°F10.3°C 45.0°F7.2°C 81% 3.4 mph N5.5 kmh N 5.4 mph8.7 kmh 29.94 in1013.9 mb 0.00 in0.0 mm 0.00 in0.0 mm 0.00 in0.0 mm
02:17 AM 50.6°F10.3°C 45.0°F7.2°C 81% 3.4 mph N5.5 kmh N 5.4 mph8.7 kmh 29.94 in1013.9 mb 0.00 in0.0 mm 0.00 in0.0 mm 0.00 in0.0 mm
02:18 AM 50.4°F10.2°C 44.8°F7.1°C 81% 3.1 mph N5.0 kmh N 4.5 mph7.2 kmh 29.94 in1013.9 mb 0.00 in0.0 mm 0.00 in0.0 mm 0.00 in0.0 mm
02:19 AM 50.4°F10.2°C 44.8°F7.1°C 81% 3.1 mph N5.0 kmh N 4.5 mph7.2 kmh 29.94 in1013.9 mb 0.00 in0.0 mm 0.00 in0.0 mm 0.00 in0.0 mm
02:20 AM 50.4°F10.2°C 44.8°F7.1°C 81% 3.0 mph N4.8 kmh N 4.5 mph7.2 kmh 29.94 in1013.9 mb 0.00 in0.0 mm 0.00 in0.0 mm 0.00 in0.0 mm
02:21 AM 50.4°F10.2°C 44.8°F7.1°C 81% 2.8 mph N4.5 kmh N 4.5 mph7.2 kmh 29.94 in1013.9 mb 0.00 in0.0 mm 0.00 in0.0 mm 0.00 in0.0 mm
02:22 AM 50.4°F10.2°C 44.8°F7.1°C 81% 2.7 mph N4.3 kmh N 4.5 mph7.2 kmh 29.94 in1013.9 mb 0.00 in0.0 mm 0.00 in0.0 mm 0.00 in0.0 mm
02:23 AM 50.4°F10.2°C 44.8°F7.1°C 81% 2.6 mph N4.2 kmh N 4.5 mph7.2 kmh 29.94 in1013.9 mb 0.00 in0.0 mm 0.00 in0.0 mm 0.00 in0.0 mm
02:24 AM 50.3°F10.2°C 44.7°F7.1°C 81% 2.5 mph N4.0 kmh N 4.5 mph7.2 kmh 29.94 in1013.9 mb 0.00 in0.0 mm 0.00 in0.0 mm 0.00 in0.0 mm
02:25 AM 50.3°F10.2°C 44.7°F7.1°C 81% 2.4 mph N3.9 kmh N 4.5 mph7.2 kmh 29.94 in1013.9 mb 0.00 in0.0 mm 0.00 in0.0 mm 0.00 in0.0 mm
02:26 AM 50.3°F10.2°C 44.7°F7.1°C 81% 2.3 mph NNW3.7 kmh NNW 4.5 mph7.2 kmh 29.94 in1013.9 mb 0.00 in0.0 mm 0.00 in0.0 mm 0.00 in0.0 mm
02:27 AM 50.3°F10.2°C 44.7°F7.1°C 81% 2.3 mph N3.7 kmh N 4.5 mph7.2 kmh 29.94 in1013.9 mb 0.00 in0.0 mm 0.00 in0.0 mm 0.00 in0.0 mm
02:28 AM 50.3°F10.2°C 45.0°F7.2°C 82% 2.4 mph N3.9 kmh N 4.5 mph7.2 kmh 29.94 in1013.9 mb 0.00 in0.0 mm 0.00 in0.0 mm 0.00 in0.0 mm
02:29 AM 50.3°F10.2°C 45.0°F7.2°C 82% 2.2 mph N3.5 kmh N 3.8 mph6.1 kmh 29.94 in1013.9 mb 0.00 in0.0 mm 0.00 in0.0 mm 0.00 in0.0 mm
02:30 AM 50.3°F10.2°C 45.0°F7.2°C 82% 2.3 mph N3.7 kmh N 3.8 mph6.1 kmh 29.94 in1013.9 mb 0.00 in0.0 mm 0.00 in0.0 mm 0.00 in0.0 mm
02:31 AM 50.1°F10.1°C 44.8°F7.1°C 82% 2.5 mph N4.0 kmh N 3.8 mph6.1 kmh 29.94 in1013.9 mb 0.00 in0.0 mm 0.00 in0.0 mm 0.00 in0.0 mm
02:32 AM 50.1°F10.1°C 44.8°F7.1°C 82% 2.5 mph N4.0 kmh N 3.8 mph6.1 kmh 29.94 in1013.9 mb 0.00 in0.0 mm 0.00 in0.0 mm 0.00 in0.0 mm
02:33 AM 50.1°F10.1°C 44.8°F7.1°C 82% 2.5 mph N4.0 kmh N 3.8 mph6.1 kmh 29.94 in1013.9 mb 0.00 in0.0 mm 0.00 in0.0 mm 0.00 in0.0 mm
02:34 AM 49.9°F9.9°C 44.6°F7.0°C 82% 2.5 mph N4.0 kmh N 3.8 mph6.1 kmh 29.94 in1013.9 mb 0.00 in0.0 mm 0.00 in0.0 mm 0.00 in0.0 mm
02:35 AM 49.9°F9.9°C 44.6°F7.0°C 82% 2.7 mph N4.3 kmh N 3.8 mph6.1 kmh 29.94 in1013.9 mb 0.00 in0.0 mm 0.00 in0.0 mm 0.00 in0.0 mm
02:36 AM 49.9°F9.9°C 44.6°F7.0°C 82% 3.0 mph NNE4.8 kmh NNE 5.4 mph8.7 kmh 29.94 in1013.9 mb 0.00 in0.0 mm 0.00 in0.0 mm 0.00 in0.0 mm
02:37 AM 49.7°F9.8°C 44.5°F6.9°C 82% 2.9 mph NNE4.7 kmh NNE 5.4 mph8.7 kmh 29.94 in1013.9 mb 0.00 in0.0 mm 0.00 in0.0 mm 0.00 in0.0 mm
02:38 AM 49.7°F9.8°C 44.5°F6.9°C 82% 2.9 mph NNE4.7 kmh NNE 5.4 mph8.7 kmh 29.94 in1013.9 mb 0.00 in0.0 mm 0.00 in0.0 mm 0.00 in0.0 mm
02:39 AM 49.7°F9.8°C 44.8°F7.1°C 83% 2.9 mph N4.7 kmh N 5.4 mph8.7 kmh 29.94 in1013.9 mb 0.00 in0.0 mm 0.00 in0.0 mm 0.00 in0.0 mm
02:40 AM 49.7°F9.8°C 44.8°F7.1°C 83% 3.3 mph N5.3 kmh N 7.6 mph12.2 kmh 29.94 in1013.9 mb 0.00 in0.0 mm 0.00 in0.0 mm 0.00 in0.0 mm
02:41 AM 49.7°F9.8°C 44.8°F7.1°C 83% 3.3 mph N5.3 kmh N 7.6 mph12.2 kmh 29.94 in1013.9 mb 0.00 in0.0 mm 0.00 in0.0 mm 0.00 in0.0 mm
02:42 AM 49.7°F9.8°C 44.8°F7.1°C 83% 3.4 mph N5.5 kmh N 7.6 mph12.2 kmh 29.94 in1013.9 mb 0.00 in0.0 mm 0.00 in0.0 mm 0.00 in0.0 mm
02:43 AM 49.7°F9.8°C 44.8°F7.1°C 83% 3.5 mph N5.6 kmh N 7.6 mph12.2 kmh 29.94 in1013.9 mb 0.00 in0.0 mm 0.00 in0.0 mm 0.00 in0.0 mm
02:44 AM 49.5°F9.7°C 44.6°F7.0°C 83% 3.7 mph N6.0 kmh N 7.6 mph12.2 kmh 29.94 in1013.9 mb 0.00 in0.0 mm 0.00 in0.0 mm 0.00 in0.0 mm
02:46 AM 49.5°F9.7°C 44.6°F7.0°C 83% 3.9 mph N6.3 kmh N 7.6 mph12.2 kmh 29.94 in1013.9 mb 0.00 in0.0 mm 0.00 in0.0 mm 0.00 in0.0 mm
02:47 AM 49.5°F9.7°C 44.6°F7.0°C 83% 3.9 mph N6.3 kmh N 7.6 mph12.2 kmh 29.94 in1013.9 mb 0.00 in0.0 mm 0.00 in0.0 mm 0.00 in0.0 mm
02:48 AM 49.5°F9.7°C 44.6°F7.0°C 83% 4.0 mph NNE6.4 kmh NNE 7.6 mph12.2 kmh 29.94 in1013.9 mb 0.00 in0.0 mm 0.00 in0.0 mm 0.00 in0.0 mm
02:49 AM 49.4°F9.7°C 44.4°F6.9°C 83% 4.2 mph NNE6.8 kmh NNE 7.6 mph12.2 kmh 29.94 in1013.9 mb 0.00 in0.0 mm 0.00 in0.0 mm 0.00 in0.0 mm
02:50 AM 49.5°F9.7°C 44.6°F7.0°C 83% 3.9 mph NNE6.3 kmh NNE 6.9 mph11.1 kmh 29.94 in1013.9 mb 0.00 in0.0 mm 0.00 in0.0 mm 0.00 in0.0 mm
02:51 AM 49.4°F9.7°C 44.4°F6.9°C 83% 3.9 mph NNE6.3 kmh NNE 6.9 mph11.1 kmh 29.94 in1013.9 mb 0.00 in0.0 mm 0.00 in0.0 mm 0.00 in0.0 mm
02:52 AM 49.4°F9.7°C 44.4°F6.9°C 83% 4.1 mph NNE6.6 kmh NNE 6.9 mph11.1 kmh 29.94 in1013.9 mb 0.00 in0.0 mm 0.00 in0.0 mm 0.00 in0.0 mm
02:53 AM 49.4°F9.7°C 44.4°F6.9°C 83% 4.3 mph NNE6.9 kmh NNE 6.9 mph11.1 kmh 29.94 in1013.9 mb 0.00 in0.0 mm 0.00 in0.0 mm 0.00 in0.0 mm
02:54 AM 49.4°F9.7°C 44.4°F6.9°C 83% 4.2 mph NNE6.8 kmh NNE 6.9 mph11.1 kmh 29.94 in1013.9 mb 0.00 in0.0 mm 0.00 in0.0 mm 0.00 in0.0 mm
02:55 AM 49.4°F9.7°C 44.4°F6.9°C 83% 4.2 mph NNE6.8 kmh NNE 6.9 mph11.1 kmh 29.94 in1013.9 mb 0.00 in0.0 mm 0.00 in0.0 mm 0.00 in0.0 mm
02:56 AM 49.4°F9.7°C 44.4°F6.9°C 83% 4.1 mph NNE6.6 kmh NNE 6.0 mph9.7 kmh 29.94 in1013.9 mb 0.00 in0.0 mm 0.00 in0.0 mm 0.00 in0.0 mm
02:57 AM 49.2°F9.6°C 44.2°F6.8°C 83% 4.2 mph NNE6.8 kmh NNE 6.0 mph9.7 kmh 29.94 in1013.9 mb 0.00 in0.0 mm 0.00 in0.0 mm 0.00 in0.0 mm
02:58 AM 49.2°F9.6°C 44.2°F6.8°C 83% 4.1 mph NNE6.6 kmh NNE 6.0 mph9.7 kmh 29.94 in1013.9 mb 0.00 in0.0 mm 0.00 in0.0 mm 0.00 in0.0 mm
02:59 AM 49.2°F9.6°C 44.2°F6.8°C 83% 3.8 mph NNE6.1 kmh NNE 6.0 mph9.7 kmh 29.94 in1013.9 mb 0.00 in0.0 mm 0.00 in0.0 mm 0.00 in0.0 mm
03:00 AM 49.2°F9.6°C 44.2°F6.8°C 83% 3.8 mph NE6.1 kmh NE 6.0 mph9.7 kmh 29.94 in1013.9 mb 0.00 in0.0 mm 0.00 in0.0 mm 0.00 in0.0 mm
03:01 AM 49.2°F9.6°C 44.2°F6.8°C 83% 3.8 mph NE6.1 kmh NE 6.0 mph9.7 kmh 29.94 in1013.9 mb 0.00 in0.0 mm 0.00 in0.0 mm 0.00 in0.0 mm
03:02 AM 49.2°F9.6°C 44.2°F6.8°C 83% 3.6 mph NE5.8 kmh NE 6.0 mph9.7 kmh 29.94 in1013.9 mb 0.00 in0.0 mm 0.00 in0.0 mm 0.00 in0.0 mm
03:03 AM 49.2°F9.6°C 44.2°F6.8°C 83% 3.4 mph NE5.5 kmh NE 6.0 mph9.7 kmh 29.94 in1013.9 mb 0.00 in0.0 mm 0.00 in0.0 mm 0.00 in0.0 mm
03:04 AM 49.0°F9.4°C 44.1°F6.7°C 83% 3.2 mph NE5.1 kmh NE 6.0 mph9.7 kmh 29.94 in1013.9 mb 0.00 in0.0 mm 0.00 in0.0 mm 0.00 in0.0 mm
03:05 AM 49.0°F9.4°C 44.1°F6.7°C 83% 2.9 mph NE4.7 kmh NE 3.8 mph6.1 kmh 29.94 in1013.9 mb 0.00 in0.0 mm 0.00 in0.0 mm 0.00 in0.0 mm
03:06 AM 49.0°F9.4°C 44.1°F6.7°C 83% 3.0 mph NE4.8 kmh NE 4.5 mph7.2 kmh 29.94 in1013.9 mb 0.00 in0.0 mm 0.00 in0.0 mm 0.00 in0.0 mm
03:07 AM 49.0°F9.4°C 44.1°F6.7°C 83% 3.0 mph NE4.8 kmh NE 4.5 mph7.2 kmh 29.94 in1013.9 mb 0.00 in0.0 mm 0.00 in0.0 mm 0.00 in0.0 mm
03:08 AM 49.0°F9.4°C 44.1°F6.7°C 83% 3.1 mph N5.0 kmh N 4.5 mph7.2 kmh 29.94 in1013.9 mb 0.00 in0.0 mm 0.00 in0.0 mm 0.00 in0.0 mm
03:09 AM 49.0°F9.4°C 44.1°F6.7°C 83% 3.4 mph NW5.5 kmh NW 6.0 mph9.7 kmh 29.94 in1013.9 mb 0.00 in0.0 mm 0.00 in0.0 mm 0.00 in0.0 mm
03:10 AM 49.0°F9.4°C 44.1°F6.7°C 83% 3.4 mph NW5.5 kmh NW 6.0 mph9.7 kmh 29.94 in1013.9 mb 0.00 in0.0 mm 0.00 in0.0 mm 0.00 in0.0 mm
03:11 AM 49.0°F9.4°C 44.1°F6.7°C 83% 3.2 mph NW5.1 kmh NW 6.0 mph9.7 kmh 29.94 in1013.9 mb 0.00 in0.0 mm 0.00 in0.0 mm 0.00 in0.0 mm
03:12 AM 49.0°F9.4°C 44.1°F6.7°C 83% 3.5 mph NW5.6 kmh NW 6.0 mph9.7 kmh 29.94 in1013.9 mb 0.00 in0.0 mm 0.00 in0.0 mm 0.00 in0.0 mm
03:13 AM 49.0°F9.4°C 44.1°F6.7°C 83% 3.6 mph WNW5.8 kmh WNW 6.0 mph9.7 kmh 29.94 in1013.9 mb 0.00 in0.0 mm 0.00 in0.0 mm 0.00 in0.0 mm
03:14 AM 49.0°F9.4°C 44.1°F6.7°C 83% 4.0 mph NW6.4 kmh NW 6.9 mph11.1 kmh 29.94 in1013.9 mb 0.00 in0.0 mm 0.00 in0.0 mm 0.00 in0.0 mm
03:15 AM 49.0°F9.4°C 44.1°F6.7°C 83% 4.2 mph NW6.8 kmh NW 6.9 mph11.1 kmh 29.94 in1013.9 mb 0.00 in0.0 mm 0.00 in0.0 mm 0.00 in0.0 mm
03:16 AM 49.0°F9.4°C 44.1°F6.7°C 83% 4.2 mph NW6.8 kmh NW 6.9 mph11.1 kmh 29.94 in1013.9 mb 0.00 in0.0 mm 0.00 in0.0 mm 0.00 in0.0 mm
03:17 AM 49.0°F9.4°C 44.1°F6.7°C 83% 4.2 mph NW6.8 kmh NW 6.9 mph11.1 kmh 29.94 in1013.9 mb 0.00 in0.0 mm 0.00 in0.0 mm 0.00 in0.0 mm
03:18 AM 48.8°F9.3°C 44.2°F6.8°C 84% 4.1 mph NW6.6 kmh NW 6.9 mph11.1 kmh 29.94 in1013.9 mb 0.00 in0.0 mm 0.00 in0.0 mm 0.00 in0.0 mm
03:19 AM 48.8°F9.3°C 44.2°F6.8°C 84% 3.9 mph NNW6.3 kmh NNW 6.9 mph11.1 kmh 29.94 in1013.9 mb 0.00 in0.0 mm 0.00 in0.0 mm 0.00 in0.0 mm
03:20 AM 48.8°F9.3°C 44.5°F6.9°C 85% 3.9 mph N6.3 kmh N 6.9 mph11.1 kmh 29.94 in1013.9 mb 0.00 in0.0 mm 0.00 in0.0 mm 0.00 in0.0 mm
03:21 AM 48.8°F9.3°C 44.5°F6.9°C 85% 4.1 mph N6.6 kmh N 6.9 mph11.1 kmh 29.94 in1013.9 mb 0.00 in0.0 mm 0.00 in0.0 mm 0.00 in0.0 mm
03:22 AM 48.8°F9.3°C 44.5°F6.9°C 85% 3.9 mph N6.3 kmh N 6.9 mph11.1 kmh 29.94 in1013.9 mb 0.00 in0.0 mm 0.00 in0.0 mm 0.00 in0.0 mm
03:23 AM 48.8°F9.3°C 44.5°F6.9°C 85% 4.0 mph N6.4 kmh N 6.9 mph11.1 kmh 29.94 in1013.9 mb 0.00 in0.0 mm 0.00 in0.0 mm 0.00 in0.0 mm
03:24 AM 48.8°F9.3°C 44.5°F6.9°C 85% 4.0 mph N6.4 kmh N 6.9 mph11.1 kmh 29.94 in1013.9 mb 0.00 in0.0 mm 0.00 in0.0 mm 0.00 in0.0 mm
03:25 AM 48.8°F9.3°C 44.5°F6.9°C 85% 4.3 mph N6.9 kmh N 9.2 mph14.8 kmh 29.94 in1013.9 mb 0.00 in0.0 mm 0.00 in0.0 mm 0.00 in0.0 mm
03:26 AM 48.8°F9.3°C 44.5°F6.9°C 85% 4.5 mph N7.2 kmh N 9.2 mph14.8 kmh 29.94 in1013.9 mb 0.00 in0.0 mm 0.00 in0.0 mm 0.00 in0.0 mm
03:27 AM 48.8°F9.3°C 44.5°F6.9°C 85% 4.5 mph N7.2 kmh N 9.2 mph14.8 kmh 29.94 in1013.9 mb 0.00 in0.0 mm 0.00 in0.0 mm 0.00 in0.0 mm
03:29 AM 48.8°F9.3°C 44.5°F6.9°C 85% 4.8 mph N7.7 kmh N 9.2 mph14.8 kmh 29.94 in1013.9 mb 0.00 in0.0 mm 0.00 in0.0 mm 0.00 in0.0 mm
03:30 AM 48.8°F9.3°C 44.5°F6.9°C 85% 4.8 mph N7.7 kmh N 9.2 mph14.8 kmh 29.94 in1013.9 mb 0.00 in0.0 mm 0.00 in0.0 mm 0.00 in0.0 mm
03:31 AM 48.8°F9.3°C 44.5°F6.9°C 85% 4.8 mph N7.7 kmh N 9.2 mph14.8 kmh 29.94 in1013.9 mb 0.00 in0.0 mm 0.00 in0.0 mm 0.00 in0.0 mm
03:32 AM 48.8°F9.3°C 44.5°F6.9°C 85% 4.8 mph N7.7 kmh N 9.2 mph14.8 kmh 29.94 in1013.9 mb 0.00 in0.0 mm 0.00 in0.0 mm 0.00 in0.0 mm
03:33 AM 48.8°F9.3°C 44.5°F6.9°C 85% 4.7 mph N7.6 kmh N 9.2 mph14.8 kmh 29.94 in1013.9 mb 0.00 in0.0 mm 0.00 in0.0 mm 0.00 in0.0 mm
03:34 AM 48.8°F9.3°C 44.5°F6.9°C 85% 4.6 mph N7.4 kmh N 9.2 mph14.8 kmh 29.94 in1013.9 mb 0.00 in0.0 mm 0.00 in0.0 mm 0.00 in0.0 mm
03:35 AM 48.8°F9.3°C 44.5°F6.9°C 85% 4.5 mph N7.2 kmh N 9.2 mph14.8 kmh 29.94 in1013.9 mb 0.00 in0.0 mm 0.00 in0.0 mm 0.00 in0.0 mm
03:36 AM 48.8°F9.3°C 44.5°F6.9°C 85% 4.5 mph NNE7.2 kmh NNE 7.6 mph12.2 kmh 29.94 in1013.9 mb 0.00 in0.0 mm 0.00 in0.0 mm 0.00 in0.0 mm
03:37 AM 48.8°F9.3°C 44.5°F6.9°C 85% 4.6 mph NNE7.4 kmh NNE 7.6 mph12.2 kmh 29.94 in1013.9 mb 0.00 in0.0 mm 0.00 in0.0 mm 0.00 in0.0 mm
03:38 AM 48.8°F9.3°C 44.5°F6.9°C 85% 4.5 mph NNE7.2 kmh NNE 7.6 mph12.2 kmh 29.94 in1013.9 mb 0.00 in0.0 mm 0.00 in0.0 mm 0.00 in0.0 mm
03:39 AM 48.8°F9.3°C 44.5°F6.9°C 85% 4.8 mph NNE7.7 kmh NNE 7.6 mph12.2 kmh 29.94 in1013.9 mb 0.00 in0.0 mm 0.00 in0.0 mm 0.00 in0.0 mm
03:40 AM 49.0°F9.4°C 44.4°F6.9°C 84% 4.8 mph NNE7.7 kmh NNE 7.6 mph12.2 kmh 29.94 in1013.9 mb 0.00 in0.0 mm 0.00 in0.0 mm 0.00 in0.0 mm
03:41 AM 49.0°F9.4°C 44.4°F6.9°C 84% 4.8 mph NNE7.7 kmh NNE 7.6 mph12.2 kmh 29.94 in1013.9 mb 0.00 in0.0 mm 0.00 in0.0 mm 0.00 in0.0 mm
03:42 AM 49.0°F9.4°C 44.4°F6.9°C 84% 5.0 mph NNE8.0 kmh NNE 7.6 mph12.2 kmh 29.94 in1013.9 mb 0.00 in0.0 mm 0.00 in0.0 mm 0.00 in0.0 mm
03:44 AM 49.0°F9.4°C 44.1°F6.7°C 83% 5.0 mph NNE8.0 kmh NNE 7.6 mph12.2 kmh 29.94 in1013.9 mb 0.00 in0.0 mm 0.00 in0.0 mm 0.00 in0.0 mm
03:46 AM 49.2°F9.6°C 44.2°F6.8°C 83% 4.8 mph NE7.7 kmh NE 7.6 mph12.2 kmh 29.94 in1013.9 mb 0.00 in0.0 mm 0.00 in0.0 mm 0.00 in0.0 mm
03:47 AM 49.2°F9.6°C 44.2°F6.8°C 83% 4.9 mph NNE7.9 kmh NNE 7.6 mph12.2 kmh 29.94 in1013.9 mb 0.00 in0.0 mm 0.00 in0.0 mm 0.00 in0.0 mm
03:48 AM 49.2°F9.6°C 44.2°F6.8°C 83% 5.0 mph NNE8.0 kmh NNE 7.6 mph12.2 kmh 29.94 in1013.9 mb 0.00 in0.0 mm 0.00 in0.0 mm 0.00 in0.0 mm
03:49 AM 49.2°F9.6°C 44.2°F6.8°C 83% 4.8 mph NE7.7 kmh NE 6.9 mph11.1 kmh 29.94 in1013.9 mb 0.00 in0.0 mm 0.00 in0.0 mm 0.00 in0.0 mm
03:50 AM 49.2°F9.6°C 44.2°F6.8°C 83% 5.3 mph NE8.5 kmh NE 10.7 mph17.2 kmh 29.94 in1013.9 mb 0.00 in0.0 mm 0.00 in0.0 mm 0.00 in0.0 mm
03:51 AM 49.4°F9.7°C 44.4°F6.9°C 83% 5.8 mph NE9.3 kmh NE 10.7 mph17.2 kmh 29.94 in1013.9 mb 0.00 in0.0 mm 0.00 in0.0 mm 0.00 in0.0 mm
03:52 AM 49.4°F9.7°C 44.1°F6.7°C 82% 5.9 mph NE9.5 kmh NE 10.7 mph17.2 kmh 29.94 in1013.9 mb 0.00 in0.0 mm 0.00 in0.0 mm 0.00 in0.0 mm
03:53 AM 49.4°F9.7°C 44.1°F6.7°C 82% 6.0 mph NE9.7 kmh NE 10.7 mph17.2 kmh 29.94 in1013.9 mb 0.00 in0.0 mm 0.00 in0.0 mm 0.00 in0.0 mm
03:54 AM 49.4°F9.7°C 44.1°F6.7°C 82% 5.7 mph NE9.2 kmh NE 10.7 mph17.2 kmh 29.94 in1013.9 mb 0.00 in0.0 mm 0.00 in0.0 mm 0.00 in0.0 mm
03:56 AM 49.5°F9.7°C 44.0°F6.7°C 81% 5.3 mph NNE8.5 kmh NNE 10.7 mph17.2 kmh 29.94 in1013.9 mb 0.00 in0.0 mm 0.00 in0.0 mm 0.00 in0.0 mm
03:57 AM 49.4°F9.7°C 43.8°F6.6°C 81% 5.4 mph NE8.7 kmh NE 10.7 mph17.2 kmh 29.94 in1013.9 mb 0.00 in0.0 mm 0.00 in0.0 mm 0.00 in0.0 mm
03:58 AM 49.4°F9.7°C 43.8°F6.6°C 81% 5.3 mph NE8.5 kmh NE 10.7 mph17.2 kmh 29.94 in1013.9 mb 0.00 in0.0 mm 0.00 in0.0 mm 0.00 in0.0 mm
03:59 AM 49.4°F9.7°C 43.8°F6.6°C 81% 5.3 mph NNE8.5 kmh NNE 10.7 mph17.2 kmh 29.94 in1013.9 mb 0.00 in0.0 mm 0.00 in0.0 mm 0.00 in0.0 mm
04:00 AM 49.4°F9.7°C 43.8°F6.6°C 81% 4.8 mph N7.7 kmh N 10.7 mph17.2 kmh 29.94 in1013.9 mb 0.00 in0.0 mm 0.00 in0.0 mm 0.00 in0.0 mm
04:01 AM 49.4°F9.7°C 43.8°F6.6°C 81% 4.3 mph N6.9 kmh N 7.6 mph12.2 kmh 29.94 in1013.9 mb 0.00 in0.0 mm 0.00 in0.0 mm 0.00 in0.0 mm
04:02 AM 49.4°F9.7°C 43.8°F6.6°C 81% 4.0 mph NNE6.4 kmh NNE 6.0 mph9.7 kmh 29.94 in1013.9 mb 0.00 in0.0 mm 0.00 in0.0 mm 0.00 in0.0 mm
04:06 AM 49.4°F9.7°C 43.8°F6.6°C 81% 4.1 mph N6.6 kmh N 6.0 mph9.7 kmh 29.94 in1013.9 mb 0.00 in0.0 mm 0.00 in0.0 mm 0.00 in0.0 mm
04:07 AM 49.4°F9.7°C 43.8°F6.6°C 81% 4.0 mph N6.4 kmh N 6.0 mph9.7 kmh 29.94 in1013.9 mb 0.00 in0.0 mm 0.00 in0.0 mm 0.00 in0.0 mm
04:08 AM 49.2°F9.6°C 43.3°F6.3°C 80% 3.9 mph N6.3 kmh N 4.5 mph7.2 kmh 29.94 in1013.9 mb 0.00 in0.0 mm 0.00 in0.0 mm 0.00 in0.0 mm
04:09 AM 49.2°F9.6°C 43.3°F6.3°C 80% 3.8 mph N6.1 kmh N 4.5 mph7.2 kmh 29.94 in1013.9 mb 0.00 in0.0 mm 0.00 in0.0 mm 0.00 in0.0 mm
04:10 AM 49.2°F9.6°C 43.3°F6.3°C 80% 3.7 mph N6.0 kmh N 3.8 mph6.1 kmh 29.94 in1013.9 mb 0.00 in0.0 mm 0.00 in0.0 mm 0.00 in0.0 mm
04:11 AM 49.2°F9.6°C 43.3°F6.3°C 80% 3.6 mph N5.8 kmh N 3.8 mph6.1 kmh 29.94 in1013.9 mb 0.00 in0.0 mm 0.00 in0.0 mm 0.00 in0.0 mm
04:12 AM 49.0°F9.4°C 43.1°F6.2°C 80% 3.5 mph N5.6 kmh N 3.8 mph6.1 kmh 29.94 in1013.9 mb 0.00 in0.0 mm 0.00 in0.0 mm 0.00 in0.0 mm
04:13 AM 49.0°F9.4°C 43.1°F6.2°C 80% 3.4 mph N5.5 kmh N 3.8 mph6.1 kmh 29.94 in1013.9 mb 0.00 in0.0 mm 0.00 in0.0 mm 0.00 in0.0 mm
04:14 AM 49.0°F9.4°C 43.1°F6.2°C 80% 3.4 mph N5.5 kmh N 3.8 mph6.1 kmh 29.94 in1013.9 mb 0.00 in0.0 mm 0.00 in0.0 mm 0.00 in0.0 mm
04:15 AM 49.0°F9.4°C 43.1°F6.2°C 80% 3.2 mph N5.1 kmh N 3.8 mph6.1 kmh 29.94 in1013.9 mb 0.00 in0.0 mm 0.00 in0.0 mm 0.00 in0.0 mm
04:20 AM 49.0°F9.4°C 42.8°F6.0°C 79% 3.3 mph N5.3 kmh N 6.9 mph11.1 kmh 29.94 in1013.9 mb 0.00 in0.0 mm 0.00 in0.0 mm 0.00 in0.0 mm
04:21 AM 49.0°F9.4°C 42.8°F6.0°C 79% 3.5 mph N5.6 kmh N 6.9 mph11.1 kmh 29.94 in1013.9 mb 0.00 in0.0 mm 0.00 in0.0 mm 0.00 in0.0 mm
04:22 AM 49.0°F9.4°C 42.8°F6.0°C 79% 3.6 mph N5.8 kmh N 6.9 mph11.1 kmh 29.94 in1013.9 mb 0.00 in0.0 mm 0.00 in0.0 mm 0.00 in0.0 mm
04:23 AM 49.0°F9.4°C 42.8°F6.0°C 79% 3.6 mph N5.8 kmh N 6.9 mph11.1 kmh 29.94 in1013.9 mb 0.00 in0.0 mm 0.00 in0.0 mm 0.00 in0.0 mm
04:24 AM 49.0°F9.4°C 42.8°F6.0°C 79% 3.8 mph N6.1 kmh N 8.3 mph13.4 kmh 29.94 in1013.9 mb 0.00 in0.0 mm 0.00 in0.0 mm 0.00 in0.0 mm
04:25 AM 49.2°F9.6°C 43.0°F6.1°C 79% 4.6 mph N7.4 kmh N 11.4 mph18.3 kmh 29.94 in1013.9 mb 0.00 in0.0 mm 0.00 in0.0 mm 0.00 in0.0 mm
04:26 AM 49.2°F9.6°C 42.6°F5.9°C 78% 4.8 mph N7.7 kmh N 11.4 mph18.3 kmh 29.94 in1013.9 mb 0.00 in0.0 mm 0.00 in0.0 mm 0.00 in0.0 mm
04:27 AM 49.2°F9.6°C 42.6°F5.9°C 78% 4.9 mph N7.9 kmh N 11.4 mph18.3 kmh 29.94 in1013.9 mb 0.00 in0.0 mm 0.00 in0.0 mm 0.00 in0.0 mm
04:28 AM 49.2°F9.6°C 42.3°F5.7°C 77% 4.8 mph N7.7 kmh N 11.4 mph18.3 kmh 29.94 in1013.9 mb 0.00 in0.0 mm 0.00 in0.0 mm 0.00 in0.0 mm
04:29 AM 49.2°F9.6°C 42.3°F5.7°C 77% 4.7 mph N7.6 kmh N 11.4 mph18.3 kmh 29.94 in1013.9 mb 0.00 in0.0 mm 0.00 in0.0 mm 0.00 in0.0 mm
04:30 AM 49.2°F9.6°C 42.3°F5.7°C 77% 4.7 mph N7.6 kmh N 11.4 mph18.3 kmh 29.94 in1013.9 mb 0.00 in0.0 mm 0.00 in0.0 mm 0.00 in0.0 mm
04:31 AM 49.2°F9.6°C 42.3°F5.7°C 77% 4.8 mph N7.7 kmh N 11.4 mph18.3 kmh 29.94 in1013.9 mb 0.00 in0.0 mm 0.00 in0.0 mm 0.00 in0.0 mm
04:32 AM 49.4°F9.7°C 42.1°F5.6°C 76% 5.0 mph N8.0 kmh N 11.4 mph18.3 kmh 29.94 in1013.9 mb 0.00 in0.0 mm 0.00 in0.0 mm 0.00 in0.0 mm
04:33 AM 49.4°F9.7°C 42.1°F5.6°C 76% 5.1 mph N8.2 kmh N 11.4 mph18.3 kmh 29.94 in1013.9 mb 0.00 in0.0 mm 0.00 in0.0 mm 0.00 in0.0 mm
04:34 AM 49.2°F9.6°C 41.9°F5.5°C 76% 5.3 mph N8.5 kmh N 11.4 mph18.3 kmh 29.94 in1013.9 mb 0.00 in0.0 mm 0.00 in0.0 mm 0.00 in0.0 mm
04:35 AM 49.2°F9.6°C 41.9°F5.5°C 76% 4.8 mph N7.7 kmh N 11.4 mph18.3 kmh 29.94 in1013.9 mb 0.00 in0.0 mm 0.00 in0.0 mm 0.00 in0.0 mm
04:36 AM 49.4°F9.7°C 41.8°F5.4°C 75% 4.9 mph N7.9 kmh N 8.3 mph13.4 kmh 29.94 in1013.9 mb 0.00 in0.0 mm 0.00 in0.0 mm 0.00 in0.0 mm
04:37 AM 49.4°F9.7°C 41.8°F5.4°C 75% 4.8 mph N7.7 kmh N 8.3 mph13.4 kmh 29.94 in1013.9 mb 0.00 in0.0 mm 0.00 in0.0 mm 0.00 in0.0 mm
04:38 AM 49.2°F9.6°C 41.6°F5.3°C 75% 4.9 mph N7.9 kmh N 8.3 mph13.4 kmh 29.94 in1013.9 mb 0.00 in0.0 mm 0.00 in0.0 mm 0.00 in0.0 mm
04:39 AM 49.2°F9.6°C 41.6°F5.3°C 75% 5.0 mph N8.0 kmh N 8.3 mph13.4 kmh 29.94 in1013.9 mb 0.00 in0.0 mm 0.00 in0.0 mm 0.00 in0.0 mm
04:40 AM 49.2°F9.6°C 41.6°F5.3°C 75% 4.9 mph N7.9 kmh N 8.3 mph13.4 kmh 29.94 in1013.9 mb 0.00 in0.0 mm 0.00 in0.0 mm 0.00 in0.0 mm
04:41 AM 49.2°F9.6°C 41.6°F5.3°C 75% 4.6 mph NNE7.4 kmh NNE 8.3 mph13.4 kmh 29.94 in1013.9 mb 0.00 in0.0 mm 0.00 in0.0 mm 0.00 in0.0 mm
04:42 AM 49.0°F9.4°C 41.4°F5.2°C 75% 4.2 mph N6.8 kmh N 8.3 mph13.4 kmh 29.94 in1013.9 mb 0.00 in0.0 mm 0.00 in0.0 mm 0.00 in0.0 mm
04:43 AM 49.0°F9.4°C 41.4°F5.2°C 75% 4.1 mph NNE6.6 kmh NNE 8.3 mph13.4 kmh 29.94 in1013.9 mb 0.00 in0.0 mm 0.00 in0.0 mm 0.00 in0.0 mm
04:44 AM 49.2°F9.6°C 41.6°F5.3°C 75% 3.7 mph NNE6.0 kmh NNE 8.3 mph13.4 kmh 29.94 in1013.9 mb 0.00 in0.0 mm 0.00 in0.0 mm 0.00 in0.0 mm
04:45 AM 49.0°F9.4°C 41.4°F5.2°C 75% 3.6 mph NNE5.8 kmh NNE 7.6 mph12.2 kmh 29.94 in1013.9 mb 0.00 in0.0 mm 0.00 in0.0 mm 0.00 in0.0 mm
04:46 AM 49.0°F9.4°C 41.4°F5.2°C 75% 3.2 mph N5.1 kmh N 6.0 mph9.7 kmh 29.94 in1013.9 mb 0.00 in0.0 mm 0.00 in0.0 mm 0.00 in0.0 mm
04:47 AM 49.0°F9.4°C 41.4°F5.2°C 75% 3.3 mph N5.3 kmh N 6.0 mph9.7 kmh 29.94 in1013.9 mb 0.00 in0.0 mm 0.00 in0.0 mm 0.00 in0.0 mm
04:48 AM 49.2°F9.6°C 41.6°F5.3°C 75% 3.4 mph NNE5.5 kmh NNE 6.9 mph11.1 kmh 29.94 in1013.9 mb 0.00 in0.0 mm 0.00 in0.0 mm 0.00 in0.0 mm
04:49 AM 49.2°F9.6°C 41.6°F5.3°C 75% 3.6 mph NNE5.8 kmh NNE 6.9 mph11.1 kmh 29.94 in1013.9 mb 0.00 in0.0 mm 0.00 in0.0 mm 0.00 in0.0 mm
04:50 AM 49.2°F9.6°C 41.3°F5.2°C 74% 4.0 mph NE6.4 kmh NE 6.9 mph11.1 kmh 29.94 in1013.9 mb 0.00 in0.0 mm 0.00 in0.0 mm 0.00 in0.0 mm
04:51 AM 49.2°F9.6°C 41.3°F5.2°C 74% 4.1 mph NE6.6 kmh NE 6.9 mph11.1 kmh 29.94 in1013.9 mb 0.00 in0.0 mm 0.00 in0.0 mm 0.00 in0.0 mm
04:52 AM 49.2°F9.6°C 41.3°F5.2°C 74% 4.1 mph NE6.6 kmh NE 6.9 mph11.1 kmh 29.94 in1013.9 mb 0.00 in0.0 mm 0.00 in0.0 mm 0.00 in0.0 mm
04:53 AM 49.0°F9.4°C 41.1°F5.1°C 74% 4.2 mph NE6.8 kmh NE 6.9 mph11.1 kmh 29.94 in1013.9 mb 0.00 in0.0 mm 0.00 in0.0 mm 0.00 in0.0 mm
04:54 AM 49.2°F9.6°C 41.3°F5.2°C 74% 4.6 mph NE7.4 kmh NE 6.9 mph11.1 kmh 29.94 in1013.9 mb 0.00 in0.0 mm 0.00 in0.0 mm 0.00 in0.0 mm
04:55 AM 49.2°F9.6°C 41.3°F5.2°C 74% 5.0 mph NE8.0 kmh NE 7.6 mph12.2 kmh 29.94 in1013.9 mb 0.00 in0.0 mm 0.00 in0.0 mm 0.00 in0.0 mm
04:56 AM 49.2°F9.6°C 41.3°F5.2°C 74% 5.3 mph NE8.5 kmh NE 7.6 mph12.2 kmh 29.94 in1013.9 mb 0.00 in0.0 mm 0.00 in0.0 mm 0.00 in0.0 mm
04:57 AM 49.2°F9.6°C 41.3°F5.2°C 74% 5.2 mph NE8.4 kmh NE 7.6 mph12.2 kmh 29.94 in1013.9 mb 0.00 in0.0 mm 0.00 in0.0 mm 0.00 in0.0 mm
04:58 AM 49.2°F9.6°C 41.3°F5.2°C 74% 5.2 mph NE8.4 kmh NE 7.6 mph12.2 kmh 29.94 in1013.9 mb 0.00 in0.0 mm 0.00 in0.0 mm 0.00 in0.0 mm
04:59 AM 49.2°F9.6°C 41.3°F5.2°C 74% 5.4 mph NE8.7 kmh NE 8.3 mph13.4 kmh 29.94 in1013.9 mb 0.00 in0.0 mm 0.00 in0.0 mm 0.00 in0.0 mm
05:00 AM 49.2°F9.6°C 41.3°F5.2°C 74% 5.5 mph NE8.9 kmh NE 10.7 mph17.2 kmh 29.94 in1013.9 mb 0.00 in0.0 mm 0.00 in0.0 mm 0.00 in0.0 mm
05:01 AM 49.2°F9.6°C 40.9°F4.9°C 73% 5.9 mph NNE9.5 kmh NNE 10.7 mph17.2 kmh 29.94 in1013.9 mb 0.00 in0.0 mm 0.00 in0.0 mm 0.00 in0.0 mm
05:02 AM 49.2°F9.6°C 40.9°F4.9°C 73% 6.3 mph NNE10.1 kmh NNE 10.7 mph17.2 kmh 29.94 in1013.9 mb 0.00 in0.0 mm 0.00 in0.0 mm 0.00 in0.0 mm
05:03 AM 49.2°F9.6°C 40.9°F4.9°C 73% 6.4 mph N10.3 kmh N 10.7 mph17.2 kmh 29.94 in1013.9 mb 0.00 in0.0 mm 0.00 in0.0 mm 0.00 in0.0 mm
05:04 AM 49.2°F9.6°C 40.9°F4.9°C 73% 6.2 mph N10.0 kmh N 10.7 mph17.2 kmh 29.94 in1013.9 mb 0.00 in0.0 mm 0.00 in0.0 mm 0.00 in0.0 mm
05:05 AM 49.0°F9.4°C 40.7°F4.8°C 73% 5.8 mph N9.3 kmh N 10.7 mph17.2 kmh 29.94 in1013.9 mb 0.00 in0.0 mm 0.00 in0.0 mm 0.00 in0.0 mm
05:06 AM 49.0°F9.4°C 40.7°F4.8°C 73% 5.8 mph N9.3 kmh N 10.7 mph17.2 kmh 29.94 in1013.9 mb 0.00 in0.0 mm 0.00 in0.0 mm 0.00 in0.0 mm
05:07 AM 49.0°F9.4°C 40.7°F4.8°C 73% 5.9 mph N9.5 kmh N 10.7 mph17.2 kmh 29.94 in1013.9 mb 0.00 in0.0 mm 0.00 in0.0 mm 0.00 in0.0 mm
05:08 AM 49.2°F9.6°C 40.9°F4.9°C 73% 5.9 mph N9.5 kmh N 10.7 mph17.2 kmh 29.94 in1013.9 mb 0.00 in0.0 mm 0.00 in0.0 mm 0.00 in0.0 mm
05:09 AM 49.2°F9.6°C 40.9°F4.9°C 73% 5.7 mph N9.2 kmh N 10.7 mph17.2 kmh 29.94 in1013.9 mb 0.00 in0.0 mm 0.00 in0.0 mm 0.00 in0.0 mm
05:10 AM 49.0°F9.4°C 40.7°F4.8°C 73% 5.2 mph N8.4 kmh N 10.7 mph17.2 kmh 29.94 in1013.9 mb 0.00 in0.0 mm 0.00 in0.0 mm 0.00 in0.0 mm
05:11 AM 49.0°F9.4°C 40.7°F4.8°C 73% 4.6 mph N7.4 kmh N 8.3 mph13.4 kmh 29.94 in1013.9 mb 0.00 in0.0 mm 0.00 in0.0 mm 0.00 in0.0 mm
05:12 AM 48.8°F9.3°C 40.9°F4.9°C 74% 4.4 mph NNE7.1 kmh NNE 8.3 mph13.4 kmh 29.94 in1013.9 mb 0.00 in0.0 mm 0.00 in0.0 mm 0.00 in0.0 mm
05:13 AM 48.8°F9.3°C 40.9°F4.9°C 74% 4.2 mph NE6.8 kmh NE 8.3 mph13.4 kmh 29.94 in1013.9 mb 0.00 in0.0 mm 0.00 in0.0 mm 0.00 in0.0 mm
05:14 AM 48.8°F9.3°C 40.9°F4.9°C 74% 4.2 mph NNE6.8 kmh NNE 8.3 mph13.4 kmh 29.94 in1013.9 mb 0.00 in0.0 mm 0.00 in0.0 mm 0.00 in0.0 mm
05:15 AM 48.6°F9.2°C 40.7°F4.8°C 74% 4.1 mph NE6.6 kmh NE 8.3 mph13.4 kmh 29.94 in1013.9 mb 0.00 in0.0 mm 0.00 in0.0 mm 0.00 in0.0 mm
05:16 AM 48.6°F9.2°C 40.7°F4.8°C 74% 3.9 mph NE6.3 kmh NE 8.3 mph13.4 kmh 29.94 in1013.9 mb 0.00 in0.0 mm 0.00 in0.0 mm 0.00 in0.0 mm
05:17 AM 48.5°F9.2°C 40.6°F4.8°C 74% 3.6 mph NNE5.8 kmh NNE 8.3 mph13.4 kmh 29.94 in1013.9 mb 0.00 in0.0 mm 0.00 in0.0 mm 0.00 in0.0 mm
05:18 AM 48.5°F9.2°C 40.6°F4.8°C 74% 3.3 mph NE5.3 kmh NE 8.3 mph13.4 kmh 29.94 in1013.9 mb 0.00 in0.0 mm 0.00 in0.0 mm 0.00 in0.0 mm
05:19 AM 48.5°F9.2°C 40.6°F4.8°C 74% 3.1 mph NNE5.0 kmh NNE 4.5 mph7.2 kmh 29.94 in1013.9 mb 0.00 in0.0 mm 0.00 in0.0 mm 0.00 in0.0 mm
05:20 AM 48.6°F9.2°C 40.7°F4.8°C 74% 3.3 mph NNE5.3 kmh NNE 4.5 mph7.2 kmh 29.94 in1013.9 mb 0.00 in0.0 mm 0.00 in0.0 mm 0.00 in0.0 mm
05:21 AM 48.6°F9.2°C 40.7°F4.8°C 74% 3.3 mph N5.3 kmh N 4.5 mph7.2 kmh 29.94 in1013.9 mb 0.00 in0.0 mm 0.00 in0.0 mm 0.00 in0.0 mm
05:22 AM 48.6°F9.2°C 40.7°F4.8°C 74% 3.4 mph N5.5 kmh N 4.5 mph7.2 kmh 29.94 in1013.9 mb 0.00 in0.0 mm 0.00 in0.0 mm 0.00 in0.0 mm
05:23 AM 48.6°F9.2°C 40.7°F4.8°C 74% 3.3 mph N5.3 kmh N 4.5 mph7.2 kmh 29.94 in1013.9 mb 0.00 in0.0 mm 0.00 in0.0 mm 0.00 in0.0 mm
05:24 AM 48.6°F9.2°C 40.7°F4.8°C 74% 3.1 mph N5.0 kmh N 4.5 mph7.2 kmh 29.94 in1013.9 mb 0.00 in0.0 mm 0.00 in0.0 mm 0.00 in0.0 mm
05:25 AM 48.6°F9.2°C 40.7°F4.8°C 74% 3.3 mph N5.3 kmh N 6.0 mph9.7 kmh 29.94 in1013.9 mb 0.00 in0.0 mm 0.00 in0.0 mm 0.00 in0.0 mm
05:26 AM 48.8°F9.3°C 40.9°F4.9°C 74% 3.3 mph N5.3 kmh N 6.0 mph9.7 kmh 29.94 in1013.9 mb 0.00 in0.0 mm 0.00 in0.0 mm 0.00 in0.0 mm
05:27 AM 48.8°F9.3°C 40.9°F4.9°C 74% 3.6 mph N5.8 kmh N 6.0 mph9.7 kmh 29.94 in1013.9 mb 0.00 in0.0 mm 0.00 in0.0 mm 0.00 in0.0 mm
05:28 AM 48.8°F9.3°C 40.9°F4.9°C 74% 3.6 mph N5.8 kmh N 6.9 mph11.1 kmh 29.94 in1013.9 mb 0.00 in0.0 mm 0.00 in0.0 mm 0.00 in0.0 mm
05:29 AM 48.8°F9.3°C 40.9°F4.9°C 74% 3.7 mph N6.0 kmh N 6.9 mph11.1 kmh 29.94 in1013.9 mb 0.00 in0.0 mm 0.00 in0.0 mm 0.00 in0.0 mm
05:30 AM 48.8°F9.3°C 40.9°F4.9°C 74% 3.8 mph N6.1 kmh N 6.9 mph11.1 kmh 29.94 in1013.9 mb 0.00 in0.0 mm 0.00 in0.0 mm 0.00 in0.0 mm
05:31 AM 48.8°F9.3°C 40.9°F4.9°C 74% 3.8 mph N6.1 kmh N 6.9 mph11.1 kmh 29.94 in1013.9 mb 0.00 in0.0 mm 0.00 in0.0 mm 0.00 in0.0 mm
05:32 AM 48.8°F9.3°C 40.9°F4.9°C 74% 4.0 mph NNW6.4 kmh NNW 6.9 mph11.1 kmh 29.94 in1013.9 mb 0.00 in0.0 mm 0.00 in0.0 mm 0.00 in0.0 mm
05:33 AM 48.8°F9.3°C 40.9°F4.9°C 74% 4.3 mph NNW6.9 kmh NNW 6.9 mph11.1 kmh 29.94 in1013.9 mb 0.00 in0.0 mm 0.00 in0.0 mm 0.00 in0.0 mm
05:34 AM 48.8°F9.3°C 40.6°F4.8°C 73% 4.7 mph NNW7.6 kmh NNW 8.3 mph13.4 kmh 29.94 in1013.9 mb 0.00 in0.0 mm 0.00 in0.0 mm 0.00 in0.0 mm
05:35 AM 48.8°F9.3°C 40.6°F4.8°C 73% 5.2 mph NNW8.4 kmh NNW 8.3 mph13.4 kmh 29.94 in1013.9 mb 0.00 in0.0 mm 0.00 in0.0 mm 0.00 in0.0 mm
05:36 AM 48.6°F9.2°C 40.4°F4.7°C 73% 5.0 mph N8.0 kmh N 8.3 mph13.4 kmh 29.94 in1013.9 mb 0.00 in0.0 mm 0.00 in0.0 mm 0.00 in0.0 mm
05:37 AM 48.6°F9.2°C 40.4°F4.7°C 73% 4.9 mph NNW7.9 kmh NNW 8.3 mph13.4 kmh 29.94 in1013.9 mb 0.00 in0.0 mm 0.00 in0.0 mm 0.00 in0.0 mm
05:38 AM 48.5°F9.2°C 40.2°F4.6°C 73% 5.0 mph N8.0 kmh N 8.3 mph13.4 kmh 29.94 in1013.9 mb 0.00 in0.0 mm 0.00 in0.0 mm 0.00 in0.0 mm
05:39 AM 48.3°F9.1°C 40.0°F4.4°C 73% 4.7 mph N7.6 kmh N 8.3 mph13.4 kmh 29.94 in1013.9 mb 0.00 in0.0 mm 0.00 in0.0 mm 0.00 in0.0 mm
05:40 AM 48.5°F9.2°C 40.2°F4.6°C 73% 4.8 mph N7.7 kmh N 8.3 mph13.4 kmh 29.94 in1013.9 mb 0.00 in0.0 mm 0.00 in0.0 mm 0.00 in0.0 mm
05:41 AM 48.5°F9.2°C 40.2°F4.6°C 73% 5.0 mph N8.0 kmh N 8.3 mph13.4 kmh 29.94 in1013.9 mb 0.00 in0.0 mm 0.00 in0.0 mm 0.00 in0.0 mm
05:42 AM 48.5°F9.2°C 40.2°F4.6°C 73% 5.0 mph NNE8.0 kmh NNE 8.3 mph13.4 kmh 29.94 in1013.9 mb 0.00 in0.0 mm 0.00 in0.0 mm 0.00 in0.0 mm
05:43 AM 48.5°F9.2°C 40.2°F4.6°C 73% 4.6 mph NNE7.4 kmh NNE 8.3 mph13.4 kmh 29.94 in1013.9 mb 0.00 in0.0 mm 0.00 in0.0 mm 0.00 in0.0 mm
05:44 AM 48.5°F9.2°C 40.2°F4.6°C 73% 4.6 mph NNE7.4 kmh NNE 8.3 mph13.4 kmh 29.94 in1013.9 mb 0.00 in0.0 mm 0.00 in0.0 mm 0.00 in0.0 mm
05:45 AM 48.5°F9.2°C 40.2°F4.6°C 73% 4.3 mph N6.9 kmh N 7.6 mph12.2 kmh 29.94 in1013.9 mb 0.00 in0.0 mm 0.00 in0.0 mm 0.00 in0.0 mm
05:46 AM 48.3°F9.1°C 40.0°F4.4°C 73% 4.4 mph NNE7.1 kmh NNE 7.6 mph12.2 kmh 29.94 in1013.9 mb 0.00 in0.0 mm 0.00 in0.0 mm 0.00 in0.0 mm
05:47 AM 48.3°F9.1°C 40.0°F4.4°C 73% 4.9 mph N7.9 kmh N 8.3 mph13.4 kmh 29.94 in1013.9 mb 0.00 in0.0 mm 0.00 in0.0 mm 0.00 in0.0 mm
05:48 AM 48.5°F9.2°C 40.2°F4.6°C 73% 5.2 mph N8.4 kmh N 8.3 mph13.4 kmh 29.94 in1013.9 mb 0.00 in0.0 mm 0.00 in0.0 mm 0.00 in0.0 mm
05:49 AM 48.3°F9.1°C 40.0°F4.4°C 73% 5.3 mph N8.5 kmh N 8.3 mph13.4 kmh 29.94 in1013.9 mb 0.00 in0.0 mm 0.00 in0.0 mm 0.00 in0.0 mm
05:50 AM 48.3°F9.1°C 40.0°F4.4°C 73% 5.1 mph NNE8.2 kmh NNE 8.3 mph13.4 kmh 29.94 in1013.9 mb 0.00 in0.0 mm 0.00 in0.0 mm 0.00 in0.0 mm
05:51 AM 48.3°F9.1°C 40.0°F4.4°C 73% 4.9 mph NNE7.9 kmh NNE 8.3 mph13.4 kmh 29.94 in1013.9 mb 0.00 in0.0 mm 0.00 in0.0 mm 0.00 in0.0 mm
05:52 AM 48.3°F9.1°C 39.7°F4.3°C 72% 4.9 mph NNE7.9 kmh NNE 8.3 mph13.4 kmh 29.94 in1013.9 mb 0.00 in0.0 mm 0.00 in0.0 mm 0.00 in0.0 mm
05:53 AM 48.3°F9.1°C 39.7°F4.3°C 72% 5.2 mph NNE8.4 kmh NNE 8.3 mph13.4 kmh 29.94 in1013.9 mb 0.00 in0.0 mm 0.00 in0.0 mm 0.00 in0.0 mm
05:54 AM 48.3°F9.1°C 39.7°F4.3°C 72% 5.4 mph NE8.7 kmh NE 9.8 mph15.8 kmh 29.94 in1013.9 mb 0.00 in0.0 mm 0.00 in0.0 mm 0.00 in0.0 mm
05:55 AM 48.3°F9.1°C 39.7°F4.3°C 72% 5.4 mph NE8.7 kmh NE 9.8 mph15.8 kmh 29.94 in1013.9 mb 0.00 in0.0 mm 0.00 in0.0 mm 0.00 in0.0 mm
05:56 AM 48.3°F9.1°C 39.7°F4.3°C 72% 5.4 mph NNE8.7 kmh NNE 9.8 mph15.8 kmh 29.94 in1013.9 mb 0.00 in0.0 mm 0.00 in0.0 mm 0.00 in0.0 mm
05:57 AM 48.3°F9.1°C 39.7°F4.3°C 72% 4.9 mph NE7.9 kmh NE 9.8 mph15.8 kmh 29.94 in1013.9 mb 0.00 in0.0 mm 0.00 in0.0 mm 0.00 in0.0 mm
05:58 AM 48.3°F9.1°C 39.7°F4.3°C 72% 4.8 mph NE7.7 kmh NE 9.8 mph15.8 kmh 29.94 in1013.9 mb 0.00 in0.0 mm 0.00 in0.0 mm 0.00 in0.0 mm
05:59 AM 48.3°F9.1°C 39.7°F4.3°C 72% 4.7 mph NNE7.6 kmh NNE 9.8 mph15.8 kmh 29.94 in1013.9 mb 0.00 in0.0 mm 0.00 in0.0 mm 0.00 in0.0 mm
06:00 AM 48.1°F8.9°C 39.5°F4.2°C 72% 4.7 mph NNE7.6 kmh NNE 9.8 mph15.8 kmh 29.94 in1013.9 mb 0.00 in0.0 mm 0.00 in0.0 mm 0.00 in0.0 mm
06:01 AM 48.1°F8.9°C 39.5°F4.2°C 72% 4.8 mph N7.7 kmh N 9.8 mph15.8 kmh 29.94 in1013.9 mb 0.00 in0.0 mm 0.00 in0.0 mm 0.00 in0.0 mm
06:02 AM 48.1°F8.9°C 39.5°F4.2°C 72% 4.7 mph N7.6 kmh N 9.8 mph15.8 kmh 29.94 in1013.9 mb 0.00 in0.0 mm 0.00 in0.0 mm 0.00 in0.0 mm
06:03 AM 48.1°F8.9°C 39.5°F4.2°C 72% 4.6 mph N7.4 kmh N 9.8 mph15.8 kmh 29.94 in1013.9 mb 0.00 in0.0 mm 0.00 in0.0 mm 0.00 in0.0 mm
06:04 AM 48.1°F8.9°C 39.5°F4.2°C 72% 4.3 mph N6.9 kmh N 9.8 mph15.8 kmh 29.94 in1013.9 mb 0.00 in0.0 mm 0.00 in0.0 mm 0.00 in0.0 mm
06:05 AM 48.1°F8.9°C 39.5°F4.2°C 72% 4.2 mph N6.8 kmh N 5.4 mph8.7 kmh 29.94 in1013.9 mb 0.00 in0.0 mm 0.00 in0.0 mm 0.00 in0.0 mm
06:06 AM 48.1°F8.9°C 39.5°F4.2°C 72% 4.2 mph NNW6.8 kmh NNW 5.4 mph8.7 kmh 29.94 in1013.9 mb 0.00 in0.0 mm 0.00 in0.0 mm 0.00 in0.0 mm
06:07 AM 48.1°F8.9°C 39.5°F4.2°C 72% 4.3 mph NNW6.9 kmh NNW 5.4 mph8.7 kmh 29.94 in1013.9 mb 0.00 in0.0 mm 0.00 in0.0 mm 0.00 in0.0 mm
06:08 AM 48.3°F9.1°C 39.7°F4.3°C 72% 4.1 mph NNW6.6 kmh NNW 5.4 mph8.7 kmh 29.94 in1013.9 mb 0.00 in0.0 mm 0.00 in0.0 mm 0.00 in0.0 mm
06:09 AM 48.3°F9.1°C 39.7°F4.3°C 72% 4.3 mph N6.9 kmh N 6.0 mph9.7 kmh 29.94 in1013.9 mb 0.00 in0.0 mm 0.00 in0.0 mm 0.00 in0.0 mm
06:10 AM 48.3°F9.1°C 39.7°F4.3°C 72% 4.4 mph N7.1 kmh N 6.0 mph9.7 kmh 29.94 in1013.9 mb 0.00 in0.0 mm 0.00 in0.0 mm 0.00 in0.0 mm
06:11 AM 48.3°F9.1°C 39.3°F4.1°C 71% 4.4 mph N7.1 kmh N 6.0 mph9.7 kmh 29.94 in1013.9 mb 0.00 in0.0 mm 0.00 in0.0 mm 0.00 in0.0 mm
06:12 AM 48.3°F9.1°C 39.3°F4.1°C 71% 4.2 mph N6.8 kmh N 6.0 mph9.7 kmh 29.94 in1013.9 mb 0.00 in0.0 mm 0.00 in0.0 mm 0.00 in0.0 mm
06:13 AM 48.3°F9.1°C 39.3°F4.1°C 71% 4.2 mph N6.8 kmh N 6.0 mph9.7 kmh 29.94 in1013.9 mb 0.00 in0.0 mm 0.00 in0.0 mm 0.00 in0.0 mm
06:14 AM 48.3°F9.1°C 39.3°F4.1°C 71% 4.2 mph N6.8 kmh N 6.0 mph9.7 kmh 29.94 in1013.9 mb 0.00 in0.0 mm 0.00 in0.0 mm 0.00 in0.0 mm
06:15 AM 48.3°F9.1°C 39.3°F4.1°C 71% 4.1 mph N6.6 kmh N 6.0 mph9.7 kmh 29.94 in1013.9 mb 0.00 in0.0 mm 0.00 in0.0 mm 0.00 in0.0 mm
06:16 AM 48.3°F9.1°C 39.3°F4.1°C 71% 4.0 mph NNE6.4 kmh NNE 6.0 mph9.7 kmh 29.94 in1013.9 mb 0.00 in0.0 mm 0.00 in0.0 mm 0.00 in0.0 mm
06:17 AM 48.3°F9.1°C 39.3°F4.1°C 71% 4.0 mph NNE6.4 kmh NNE 6.0 mph9.7 kmh 29.94 in1013.9 mb 0.00 in0.0 mm 0.00 in0.0 mm 0.00 in0.0 mm
06:18 AM 48.3°F9.1°C 39.3°F4.1°C 71% 4.2 mph N6.8 kmh N 6.0 mph9.7 kmh 29.94 in1013.9 mb 0.00 in0.0 mm 0.00 in0.0 mm 0.00 in0.0 mm
06:19 AM 48.5°F9.2°C 39.1°F3.9°C 70% 4.2 mph N6.8 kmh N 6.0 mph9.7 kmh 29.94 in1013.9 mb 0.00 in0.0 mm 0.00 in0.0 mm 0.00 in0.0 mm
06:20 AM 48.6°F9.2°C 39.3°F4.1°C 70% 4.6 mph N7.4 kmh N 7.6 mph12.2 kmh 29.94 in1013.9 mb 0.00 in0.0 mm 0.00 in0.0 mm 0.00 in0.0 mm
06:21 AM 48.6°F9.2°C 39.3°F4.1°C 70% 4.8 mph N7.7 kmh N 7.6 mph12.2 kmh 29.94 in1013.9 mb 0.00 in0.0 mm 0.00 in0.0 mm 0.00 in0.0 mm
06:22 AM 48.6°F9.2°C 39.3°F4.1°C 70% 4.9 mph N7.9 kmh N 7.6 mph12.2 kmh 29.94 in1013.9 mb 0.00 in0.0 mm 0.00 in0.0 mm 0.00 in0.0 mm
06:23 AM 48.6°F9.2°C 39.3°F4.1°C 70% 4.8 mph N7.7 kmh N 7.6 mph12.2 kmh 29.94 in1013.9 mb 0.00 in0.0 mm 0.00 in0.0 mm 0.00 in0.0 mm
06:24 AM 48.8°F9.3°C 39.1°F3.9°C 69% 4.7 mph N7.6 kmh N 7.6 mph12.2 kmh 29.94 in1013.9 mb 0.00 in0.0 mm 0.00 in0.0 mm 0.00 in0.0 mm
06:25 AM 48.8°F9.3°C 39.1°F3.9°C 69% 4.8 mph N7.7 kmh N 7.6 mph12.2 kmh 29.94 in1013.9 mb 0.00 in0.0 mm 0.00 in0.0 mm 0.00 in0.0 mm
06:26 AM 49.0°F9.4°C 38.9°F3.8°C 68% 4.8 mph N7.7 kmh N 7.6 mph12.2 kmh 29.94 in1013.9 mb 0.00 in0.0 mm 0.00 in0.0 mm 0.00 in0.0 mm
06:27 AM 49.0°F9.4°C 38.9°F3.8°C 68% 4.7 mph N7.6 kmh N 7.6 mph12.2 kmh 29.94 in1013.9 mb 0.00 in0.0 mm 0.00 in0.0 mm 0.00 in0.0 mm
06:28 AM 49.0°F9.4°C 38.9°F3.8°C 68% 4.7 mph NNE7.6 kmh NNE 7.6 mph12.2 kmh 29.94 in1013.9 mb 0.00 in0.0 mm 0.00 in0.0 mm 0.00 in0.0 mm
06:29 AM 49.0°F9.4°C 38.9°F3.8°C 68% 4.5 mph NNE7.2 kmh NNE 7.6 mph12.2 kmh 29.94 in1013.9 mb 0.00 in0.0 mm 0.00 in0.0 mm 0.00 in0.0 mm
06:30 AM 49.0°F9.4°C 38.5°F3.6°C 67% 4.2 mph NE6.8 kmh NE 7.6 mph12.2 kmh 29.94 in1013.9 mb 0.00 in0.0 mm 0.00 in0.0 mm 0.00 in0.0 mm
06:31 AM 49.0°F9.4°C 38.5°F3.6°C 67% 4.2 mph NNE6.8 kmh NNE 6.9 mph11.1 kmh 29.94 in1013.9 mb 0.00 in0.0 mm 0.00 in0.0 mm 0.00 in0.0 mm
06:32 AM 49.2°F9.6°C 38.7°F3.7°C 67% 4.3 mph NNE6.9 kmh NNE 6.9 mph11.1 kmh 29.94 in1013.9 mb 0.00 in0.0 mm 0.00 in0.0 mm 0.00 in0.0 mm
06:33 AM 49.2°F9.6°C 38.7°F3.7°C 67% 4.4 mph NNE7.1 kmh NNE 6.9 mph11.1 kmh 29.94 in1013.9 mb 0.00 in0.0 mm 0.00 in0.0 mm 0.00 in0.0 mm
06:34 AM 49.2°F9.6°C 38.7°F3.7°C 67% 4.3 mph NNE6.9 kmh NNE 6.9 mph11.1 kmh 29.94 in1013.9 mb 0.00 in0.0 mm 0.00 in0.0 mm 0.00 in0.0 mm
06:36 AM 49.4°F9.7°C 38.5°F3.6°C 66% 4.5 mph N7.2 kmh N 7.6 mph12.2 kmh 29.94 in1013.9 mb 0.00 in0.0 mm 0.00 in0.0 mm 0.00 in0.0 mm
06:38 AM 49.4°F9.7°C 38.5°F3.6°C 66% 4.7 mph N7.6 kmh N 7.6 mph12.2 kmh 29.94 in1013.9 mb 0.00 in0.0 mm 0.00 in0.0 mm 0.00 in0.0 mm
06:39 AM 49.4°F9.7°C 38.5°F3.6°C 66% 4.9 mph N7.9 kmh N 7.6 mph12.2 kmh 29.94 in1013.9 mb 0.00 in0.0 mm 0.00 in0.0 mm 0.00 in0.0 mm
06:40 AM 49.5°F9.7°C 38.7°F3.7°C 66% 4.9 mph N7.9 kmh N 7.6 mph12.2 kmh 29.94 in1013.9 mb 0.00 in0.0 mm 0.00 in0.0 mm 0.00 in0.0 mm
06:41 AM 49.5°F9.7°C 38.7°F3.7°C 66% 4.5 mph N7.2 kmh N 7.6 mph12.2 kmh 29.94 in1013.9 mb 0.00 in0.0 mm 0.00 in0.0 mm 0.00 in0.0 mm
06:42 AM 49.5°F9.7°C 38.7°F3.7°C 66% 4.4 mph N7.1 kmh N 7.6 mph12.2 kmh 29.94 in1013.9 mb 0.00 in0.0 mm 0.00 in0.0 mm 0.00 in0.0 mm
06:43 AM 49.5°F9.7°C 38.7°F3.7°C 66% 4.4 mph N7.1 kmh N 7.6 mph12.2 kmh 29.94 in1013.9 mb 0.00 in0.0 mm 0.00 in0.0 mm 0.00 in0.0 mm
06:44 AM 49.5°F9.7°C 38.7°F3.7°C 66% 4.8 mph N7.7 kmh N 7.6 mph12.2 kmh 29.94 in1013.9 mb 0.00 in0.0 mm 0.00 in0.0 mm 0.00 in0.0 mm
06:45 AM 49.5°F9.7°C 38.7°F3.7°C 66% 4.8 mph N7.7 kmh N 7.6 mph12.2 kmh 29.94 in1013.9 mb 0.00 in0.0 mm 0.00 in0.0 mm 0.00 in0.0 mm
06:46 AM 49.5°F9.7°C 38.7°F3.7°C 66% 4.3 mph N6.9 kmh N 6.9 mph11.1 kmh 29.94 in1013.9 mb 0.00 in0.0 mm 0.00 in0.0 mm 0.00 in0.0 mm
06:47 AM 49.7°F9.8°C 38.4°F3.6°C 65% 4.4 mph N7.1 kmh N 6.9 mph11.1 kmh 29.94 in1013.9 mb 0.00 in0.0 mm 0.00 in0.0 mm 0.00 in0.0 mm
06:48 AM 49.7°F9.8°C 38.4°F3.6°C 65% 4.4 mph N7.1 kmh N 6.9 mph11.1 kmh 29.94 in1013.9 mb 0.00 in0.0 mm 0.00 in0.0 mm 0.00 in0.0 mm
06:49 AM 49.9°F9.9°C 38.6°F3.7°C 65% 4.4 mph NNW7.1 kmh NNW 6.9 mph11.1 kmh 29.94 in1013.9 mb 0.00 in0.0 mm 0.00 in0.0 mm 0.00 in0.0 mm
06:50 AM 49.9°F9.9°C 38.6°F3.7°C 65% 4.3 mph NW6.9 kmh NW 6.9 mph11.1 kmh 29.94 in1013.9 mb 0.00 in0.0 mm 0.00 in0.0 mm 0.00 in0.0 mm
06:51 AM 49.9°F9.9°C 38.6°F3.7°C 65% 4.3 mph NW6.9 kmh NW 6.9 mph11.1 kmh 29.94 in1013.9 mb 0.00 in0.0 mm 0.00 in0.0 mm 0.00 in0.0 mm
06:52 AM 49.9°F9.9°C 38.6°F3.7°C 65% 4.4 mph NW7.1 kmh NW 6.9 mph11.1 kmh 29.94 in1013.9 mb 0.00 in0.0 mm 0.00 in0.0 mm 0.00 in0.0 mm
06:53 AM 49.9°F9.9°C 38.6°F3.7°C 65% 4.6 mph NW7.4 kmh NW 6.9 mph11.1 kmh 29.94 in1013.9 mb 0.00 in0.0 mm 0.00 in0.0 mm 0.00 in0.0 mm
06:54 AM 49.9°F9.9°C 38.6°F3.7°C 65% 4.4 mph NNW7.1 kmh NNW 6.9 mph11.1 kmh 29.94 in1013.9 mb 0.00 in0.0 mm 0.00 in0.0 mm 0.00 in0.0 mm
06:55 AM 50.1°F10.1°C 38.8°F3.8°C 65% 4.3 mph NNW6.9 kmh NNW 6.9 mph11.1 kmh 29.94 in1013.9 mb 0.00 in0.0 mm 0.00 in0.0 mm 0.00 in0.0 mm
06:56 AM 50.1°F10.1°C 38.8°F3.8°C 65% 4.5 mph NNW7.2 kmh NNW 6.9 mph11.1 kmh 29.94 in1013.9 mb 0.00 in0.0 mm 0.00 in0.0 mm 0.00 in0.0 mm
06:57 AM 50.1°F10.1°C 38.8°F3.8°C 65% 4.5 mph N7.2 kmh N 6.9 mph11.1 kmh 29.94 in1013.9 mb 0.00 in0.0 mm 0.00 in0.0 mm 0.00 in0.0 mm
06:58 AM 50.1°F10.1°C 38.8°F3.8°C 65% 4.5 mph N7.2 kmh N 6.9 mph11.1 kmh 29.94 in1013.9 mb 0.00 in0.0 mm 0.00 in0.0 mm 0.00 in0.0 mm
06:59 AM 50.1°F10.1°C 38.8°F3.8°C 65% 4.5 mph N7.2 kmh N 6.9 mph11.1 kmh 29.94 in1013.9 mb 0.00 in0.0 mm 0.00 in0.0 mm 0.00 in0.0 mm
07:00 AM 50.3°F10.2°C 39.0°F3.9°C 65% 4.4 mph NNE7.1 kmh NNE 6.9 mph11.1 kmh 29.94 in1013.9 mb 0.00 in0.0 mm 0.00 in0.0 mm 0.00 in0.0 mm
07:01 AM 50.4°F10.2°C 39.1°F3.9°C 65% 4.4 mph NE7.1 kmh NE 6.9 mph11.1 kmh 29.94 in1013.9 mb 0.00 in0.0 mm 0.00 in0.0 mm 0.00 in0.0 mm
07:02 AM 50.4°F10.2°C 39.1°F3.9°C 65% 4.5 mph NE7.2 kmh NE 6.9 mph11.1 kmh 29.94 in1013.9 mb 0.00 in0.0 mm 0.00 in0.0 mm 0.00 in0.0 mm
07:03 AM 50.6°F10.3°C 38.9°F3.8°C 64% 4.5 mph NE7.2 kmh NE 6.9 mph11.1 kmh 29.94 in1013.9 mb 0.00 in0.0 mm 0.00 in0.0 mm 0.00 in0.0 mm
07:04 AM 50.8°F10.4°C 38.7°F3.7°C 63% 4.7 mph NNE7.6 kmh NNE 6.9 mph11.1 kmh 29.94 in1013.9 mb 0.00 in0.0 mm 0.00 in0.0 mm 0.00 in0.0 mm
07:05 AM 51.0°F10.6°C 38.8°F3.8°C 63% 4.8 mph NNE7.7 kmh NNE 6.9 mph11.1 kmh 29.94 in1013.9 mb 0.00 in0.0 mm 0.00 in0.0 mm 0.00 in0.0 mm
07:06 AM 51.0°F10.6°C 38.8°F3.8°C 63% 4.8 mph NNE7.7 kmh NNE 6.9 mph11.1 kmh 29.94 in1013.9 mb 0.00 in0.0 mm 0.00 in0.0 mm 0.00 in0.0 mm
07:07 AM 51.2°F10.7°C 39.0°F3.9°C 63% 4.6 mph NNE7.4 kmh NNE 6.9 mph11.1 kmh 29.94 in1013.9 mb 0.00 in0.0 mm 0.00 in0.0 mm 0.00 in0.0 mm
07:08 AM 51.2°F10.7°C 38.6°F3.7°C 62% 4.7 mph N7.6 kmh N 8.3 mph13.4 kmh 29.94 in1013.9 mb 0.00 in0.0 mm 0.00 in0.0 mm 0.00 in0.0 mm
07:09 AM 51.3°F10.7°C 38.8°F3.8°C 62% 4.7 mph N7.6 kmh N 8.3 mph13.4 kmh 29.94 in1013.9 mb 0.00 in0.0 mm 0.00 in0.0 mm 0.00 in0.0 mm
07:10 AM 51.2°F10.7°C 38.6°F3.7°C 62% 5.0 mph N8.0 kmh N 8.3 mph13.4 kmh 29.94 in1013.9 mb 0.00 in0.0 mm 0.00 in0.0 mm 0.00 in0.0 mm
07:11 AM 51.2°F10.7°C 38.6°F3.7°C 62% 5.2 mph N8.4 kmh N 8.3 mph13.4 kmh 29.94 in1013.9 mb 0.00 in0.0 mm 0.00 in0.0 mm 0.00 in0.0 mm
07:12 AM 51.2°F10.7°C 38.6°F3.7°C 62% 5.3 mph N8.5 kmh N 8.3 mph13.4 kmh 29.94 in1013.9 mb 0.00 in0.0 mm 0.00 in0.0 mm 0.00 in0.0 mm
07:13 AM 51.2°F10.7°C 38.6°F3.7°C 62% 5.1 mph N8.2 kmh N 8.3 mph13.4 kmh 29.94 in1013.9 mb 0.00 in0.0 mm 0.00 in0.0 mm 0.00 in0.0 mm
07:14 AM 51.3°F10.7°C 38.8°F3.8°C 62% 5.1 mph N8.2 kmh N 8.3 mph13.4 kmh 29.94 in1013.9 mb 0.00 in0.0 mm 0.00 in0.0 mm 0.00 in0.0 mm
07:15 AM 51.3°F10.7°C 38.8°F3.8°C 62% 5.3 mph N8.5 kmh N 8.3 mph13.4 kmh 29.94 in1013.9 mb 0.00 in0.0 mm 0.00 in0.0 mm 0.00 in0.0 mm
07:16 AM 51.3°F10.7°C 38.8°F3.8°C 62% 5.8 mph N9.3 kmh N 9.2 mph14.8 kmh 29.94 in1013.9 mb 0.00 in0.0 mm 0.00 in0.0 mm 0.00 in0.0 mm
07:17 AM 51.5°F10.8°C 38.9°F3.8°C 62% 5.8 mph N9.3 kmh N 9.2 mph14.8 kmh 29.94 in1013.9 mb 0.00 in0.0 mm 0.00 in0.0 mm 0.00 in0.0 mm
07:18 AM 51.5°F10.8°C 38.9°F3.8°C 62% 5.6 mph N9.0 kmh N 9.2 mph14.8 kmh 29.94 in1013.9 mb 0.00 in0.0 mm 0.00 in0.0 mm 0.00 in0.0 mm
07:19 AM 51.7°F10.9°C 39.1°F3.9°C 62% 5.7 mph N9.2 kmh N 9.2 mph14.8 kmh 29.94 in1013.9 mb 0.00 in0.0 mm 0.00 in0.0 mm 0.00 in0.0 mm
07:20 AM 51.5°F10.8°C 38.9°F3.8°C 62% 5.8 mph N9.3 kmh N 9.2 mph14.8 kmh 29.94 in1013.9 mb 0.00 in0.0 mm 0.00 in0.0 mm 0.00 in0.0 mm
07:21 AM 51.5°F10.8°C 38.5°F3.6°C 61% 5.8 mph N9.3 kmh N 9.2 mph14.8 kmh 29.94 in1013.9 mb 0.00 in0.0 mm 0.00 in0.0 mm 0.00 in0.0 mm
07:22 AM 51.5°F10.8°C 38.5°F3.6°C 61% 5.9 mph N9.5 kmh N 9.2 mph14.8 kmh 29.94 in1013.9 mb 0.00 in0.0 mm 0.00 in0.0 mm 0.00 in0.0 mm
07:23 AM 51.5°F10.8°C 38.9°F3.8°C 62% 6.2 mph N10.0 kmh N 9.2 mph14.8 kmh 29.94 in1013.9 mb 0.00 in0.0 mm 0.00 in0.0 mm 0.00 in0.0 mm
07:24 AM 51.5°F10.8°C 38.9°F3.8°C 62% 6.6 mph N10.6 kmh N 9.8 mph15.8 kmh 29.94 in1013.9 mb 0.00 in0.0 mm 0.00 in0.0 mm 0.00 in0.0 mm
07:25 AM 51.5°F10.8°C 38.9°F3.8°C 62% 6.6 mph N10.6 kmh N 9.8 mph15.8 kmh 29.94 in1013.9 mb 0.00 in0.0 mm 0.00 in0.0 mm 0.00 in0.0 mm
07:26 AM 51.7°F10.9°C 39.1°F3.9°C 62% 6.2 mph N10.0 kmh N 9.8 mph15.8 kmh 29.94 in1013.9 mb 0.00 in0.0 mm 0.00 in0.0 mm 0.00 in0.0 mm
07:27 AM 51.7°F10.9°C 39.1°F3.9°C 62% 6.3 mph N10.1 kmh N 9.8 mph15.8 kmh 29.94 in1013.9 mb 0.00 in0.0 mm 0.00 in0.0 mm 0.00 in0.0 mm
07:28 AM 51.7°F10.9°C 39.1°F3.9°C 62% 6.8 mph N10.9 kmh N 11.4 mph18.3 kmh 29.94 in1013.9 mb 0.00 in0.0 mm 0.00 in0.0 mm 0.00 in0.0 mm
07:29 AM 51.9°F11.1°C 39.3°F4.1°C 62% 6.7 mph N10.8 kmh N 11.4 mph18.3 kmh 29.94 in1013.9 mb 0.00 in0.0 mm 0.00 in0.0 mm 0.00 in0.0 mm
07:30 AM 51.9°F11.1°C 39.3°F4.1°C 62% 6.6 mph N10.6 kmh N 11.4 mph18.3 kmh 29.94 in1013.9 mb 0.00 in0.0 mm 0.00 in0.0 mm 0.00 in0.0 mm
07:31 AM 51.9°F11.1°C 39.3°F4.1°C 62% 6.5 mph N10.5 kmh N 11.4 mph18.3 kmh 29.94 in1013.9 mb 0.00 in0.0 mm 0.00 in0.0 mm 0.00 in0.0 mm
07:32 AM 51.9°F11.1°C 39.3°F4.1°C 62% 6.6 mph N10.6 kmh N 11.4 mph18.3 kmh 29.94 in1013.9 mb 0.00 in0.0 mm 0.00 in0.0 mm 0.00 in0.0 mm
07:33 AM 51.9°F11.1°C 39.3°F4.1°C 62% 6.5 mph N10.5 kmh N 11.4 mph18.3 kmh 29.94 in1013.9 mb 0.00 in0.0 mm 0.00 in0.0 mm 0.00 in0.0 mm
07:34 AM 51.9°F11.1°C 38.9°F3.8°C 61% 6.4 mph N10.3 kmh N 11.4 mph18.3 kmh 29.94 in1013.9 mb 0.00 in0.0 mm 0.00 in0.0 mm 0.00 in0.0 mm
07:35 AM 52.1°F11.2°C 39.5°F4.2°C 62% 6.2 mph N10.0 kmh N 11.4 mph18.3 kmh 29.94 in1013.9 mb 0.00 in0.0 mm 0.00 in0.0 mm 0.00 in0.0 mm
07:36 AM 52.1°F11.2°C 39.5°F4.2°C 62% 6.2 mph N10.0 kmh N 11.4 mph18.3 kmh 29.94 in1013.9 mb 0.00 in0.0 mm 0.00 in0.0 mm 0.00 in0.0 mm
07:37 AM 52.1°F11.2°C 39.5°F4.2°C 62% 6.2 mph N10.0 kmh N 11.4 mph18.3 kmh 29.94 in1013.9 mb 0.00 in0.0 mm 0.00 in0.0 mm 0.00 in0.0 mm
07:38 AM 52.4°F11.3°C 39.8°F4.3°C 62% 6.0 mph N9.7 kmh N 8.3 mph13.4 kmh 29.94 in1013.9 mb 0.00 in0.0 mm 0.00 in0.0 mm 0.00 in0.0 mm
07:39 AM 52.2°F11.2°C 39.6°F4.2°C 62% 6.0 mph N9.7 kmh N 8.3 mph13.4 kmh 29.94 in1013.9 mb 0.00 in0.0 mm 0.00 in0.0 mm 0.00 in0.0 mm
07:40 AM 52.4°F11.3°C 39.8°F4.3°C 62% 5.9 mph N9.5 kmh N 8.3 mph13.4 kmh 29.94 in1013.9 mb 0.00 in0.0 mm 0.00 in0.0 mm 0.00 in0.0 mm
07:41 AM 52.4°F11.3°C 39.8°F4.3°C 62% 5.9 mph N9.5 kmh N 8.3 mph13.4 kmh 29.94 in1013.9 mb 0.00 in0.0 mm 0.00 in0.0 mm 0.00 in0.0 mm
07:42 AM 52.4°F11.3°C 39.8°F4.3°C 62% 5.6 mph N9.0 kmh N 8.3 mph13.4 kmh 29.94 in1013.9 mb 0.00 in0.0 mm 0.00 in0.0 mm 0.00 in0.0 mm
07:43 AM 52.6°F11.4°C 39.1°F3.9°C 60% 5.5 mph N8.9 kmh N 8.3 mph13.4 kmh 29.94 in1013.9 mb 0.00 in0.0 mm 0.00 in0.0 mm 0.00 in0.0 mm
07:44 AM 52.8°F11.6°C 39.3°F4.1°C 60% 5.4 mph N8.7 kmh N 8.3 mph13.4 kmh 29.94 in1013.9 mb 0.00 in0.0 mm 0.00 in0.0 mm 0.00 in0.0 mm
07:45 AM 52.6°F11.4°C 39.1°F3.9°C 60% 5.6 mph N9.0 kmh N 7.6 mph12.2 kmh 29.94 in1013.9 mb 0.00 in0.0 mm 0.00 in0.0 mm 0.00 in0.0 mm
07:46 AM 52.8°F11.6°C 38.9°F3.8°C 59% 5.8 mph N9.3 kmh N 7.6 mph12.2 kmh 29.94 in1013.9 mb 0.00 in0.0 mm 0.00 in0.0 mm 0.00 in0.0 mm
07:47 AM 52.8°F11.6°C 38.9°F3.8°C 59% 5.9 mph N9.5 kmh N 7.6 mph12.2 kmh 29.94 in1013.9 mb 0.00 in0.0 mm 0.00 in0.0 mm 0.00 in0.0 mm
07:48 AM 53.1°F11.7°C 38.8°F3.8°C 58% 5.7 mph N9.2 kmh N 7.6 mph12.2 kmh 29.94 in1013.9 mb 0.00 in0.0 mm 0.00 in0.0 mm 0.00 in0.0 mm
07:49 AM 53.1°F11.7°C 38.8°F3.8°C 58% 5.7 mph NNW9.2 kmh NNW 7.6 mph12.2 kmh 29.94 in1013.9 mb 0.00 in0.0 mm 0.00 in0.0 mm 0.00 in0.0 mm
07:50 AM 53.1°F11.7°C 38.8°F3.8°C 58% 5.9 mph N9.5 kmh N 7.6 mph12.2 kmh 29.94 in1013.9 mb 0.00 in0.0 mm 0.00 in0.0 mm 0.00 in0.0 mm
07:51 AM 53.3°F11.8°C 38.5°F3.6°C 57% 5.9 mph N9.5 kmh N 8.3 mph13.4 kmh 29.94 in1013.9 mb 0.00 in0.0 mm 0.00 in0.0 mm 0.00 in0.0 mm
07:52 AM 53.3°F11.8°C 38.5°F3.6°C 57% 6.3 mph N10.1 kmh N 8.3 mph13.4 kmh 29.94 in1013.9 mb 0.00 in0.0 mm 0.00 in0.0 mm 0.00 in0.0 mm
07:53 AM 53.5°F11.9°C 38.7°F3.7°C 57% 6.4 mph N10.3 kmh N 8.3 mph13.4 kmh 29.94 in1013.9 mb 0.00 in0.0 mm 0.00 in0.0 mm 0.00 in0.0 mm
07:54 AM 53.3°F11.8°C 38.0°F3.3°C 56% 6.4 mph N10.3 kmh N 8.3 mph13.4 kmh 29.94 in1013.9 mb 0.00 in0.0 mm 0.00 in0.0 mm 0.00 in0.0 mm
07:55 AM 53.5°F11.9°C 38.2°F3.4°C 56% 6.4 mph N10.3 kmh N 8.3 mph13.4 kmh 29.94 in1013.9 mb 0.00 in0.0 mm 0.00 in0.0 mm 0.00 in0.0 mm
07:56 AM 53.5°F11.9°C 38.2°F3.4°C 56% 6.3 mph N10.1 kmh N 8.3 mph13.4 kmh 29.94 in1013.9 mb 0.00 in0.0 mm 0.00 in0.0 mm 0.00 in0.0 mm
07:57 AM 53.7°F12.1°C 38.4°F3.6°C 56% 6.2 mph N10.0 kmh N 8.3 mph13.4 kmh 29.94 in1013.9 mb 0.00 in0.0 mm 0.00 in0.0 mm 0.00 in0.0 mm
07:58 AM 53.7°F12.1°C 38.4°F3.6°C 56% 6.6 mph N10.6 kmh N 9.8 mph15.8 kmh 29.94 in1013.9 mb 0.00 in0.0 mm 0.00 in0.0 mm 0.00 in0.0 mm
07:59 AM 53.7°F12.1°C 38.4°F3.6°C 56% 6.7 mph N10.8 kmh N 9.8 mph15.8 kmh 29.94 in1013.9 mb 0.00 in0.0 mm 0.00 in0.0 mm 0.00 in0.0 mm
08:00 AM 53.7°F12.1°C 37.9°F3.3°C 55% 6.7 mph N10.8 kmh N 9.8 mph15.8 kmh 29.94 in1013.9 mb 0.00 in0.0 mm 0.00 in0.0 mm 0.00 in0.0 mm
08:01 AM 53.7°F12.1°C 37.9°F3.3°C 55% 6.6 mph N10.6 kmh N 9.8 mph15.8 kmh 29.94 in1013.9 mb 0.00 in0.0 mm 0.00 in0.0 mm 0.00 in0.0 mm
08:02 AM 53.9°F12.2°C 38.1°F3.4°C 55% 6.3 mph NNW10.1 kmh NNW 9.8 mph15.8 kmh 29.94 in1013.9 mb 0.00 in0.0 mm 0.00 in0.0 mm 0.00 in0.0 mm
08:03 AM 54.2°F12.3°C 38.4°F3.6°C 55% 6.4 mph NNW10.3 kmh NNW 9.8 mph15.8 kmh 29.94 in1013.9 mb 0.00 in0.0 mm 0.00 in0.0 mm 0.00 in0.0 mm
08:04 AM 53.9°F12.2°C 38.1°F3.4°C 55% 6.6 mph NNW10.6 kmh NNW 9.8 mph15.8 kmh 29.94 in1013.9 mb 0.00 in0.0 mm 0.00 in0.0 mm 0.00 in0.0 mm
08:05 AM 53.9°F12.2°C 38.1°F3.4°C 55% 6.6 mph NNW10.6 kmh NNW 9.8 mph15.8 kmh 29.94 in1013.9 mb 0.00 in0.0 mm 0.00 in0.0 mm 0.00 in0.0 mm
08:06 AM 53.9°F12.2°C 37.6°F3.1°C 54% 6.6 mph NNW10.6 kmh NNW 9.8 mph15.8 kmh 29.94 in1013.9 mb 0.00 in0.0 mm 0.00 in0.0 mm 0.00 in0.0 mm
08:07 AM 54.2°F12.3°C 38.4°F3.6°C 55% 6.8 mph NNW10.9 kmh NNW 9.8 mph15.8 kmh 29.94 in1013.9 mb 0.00 in0.0 mm 0.00 in0.0 mm 0.00 in0.0 mm
08:08 AM 54.4°F12.4°C 38.6°F3.7°C 55% 6.8 mph NW10.9 kmh NW 9.8 mph15.8 kmh 29.94 in1013.9 mb 0.00 in0.0 mm 0.00 in0.0 mm 0.00 in0.0 mm
08:09 AM 54.4°F12.4°C 38.6°F3.7°C 55% 7.0 mph NW11.3 kmh NW 11.4 mph18.3 kmh 29.94 in1013.9 mb 0.00 in0.0 mm 0.00 in0.0 mm 0.00 in0.0 mm
08:10 AM 54.2°F12.3°C 37.9°F3.3°C 54% 7.5 mph NNW12.1 kmh NNW 11.4 mph18.3 kmh 29.94 in1013.9 mb 0.00 in0.0 mm 0.00 in0.0 mm 0.00 in0.0 mm
08:11 AM 54.2°F12.3°C 37.9°F3.3°C 54% 7.7 mph NW12.4 kmh NW 11.4 mph18.3 kmh 29.94 in1013.9 mb 0.00 in0.0 mm 0.00 in0.0 mm 0.00 in0.0 mm
08:12 AM 54.4°F12.4°C 38.6°F3.7°C 55% 7.9 mph NNW12.7 kmh NNW 11.4 mph18.3 kmh 29.94 in1013.9 mb 0.00 in0.0 mm 0.00 in0.0 mm 0.00 in0.0 mm
08:13 AM 54.4°F12.4°C 38.6°F3.7°C 55% 8.0 mph NNW12.9 kmh NNW 11.4 mph18.3 kmh 29.94 in1013.9 mb 0.00 in0.0 mm 0.00 in0.0 mm 0.00 in0.0 mm
08:14 AM 54.4°F12.4°C 38.6°F3.7°C 55% 7.9 mph NNW12.7 kmh NNW 11.4 mph18.3 kmh 29.94 in1013.9 mb 0.00 in0.0 mm 0.00 in0.0 mm 0.00 in0.0 mm
08:15 AM 54.4°F12.4°C 38.6°F3.7°C 55% 7.9 mph NW12.7 kmh NW 11.4 mph18.3 kmh 29.94 in1013.9 mb 0.00 in0.0 mm 0.00 in0.0 mm 0.00 in0.0 mm
08:16 AM 54.8°F12.7°C 38.9°F3.8°C 55% 8.0 mph NW12.9 kmh NW 11.4 mph18.3 kmh 29.94 in1013.9 mb 0.00 in0.0 mm 0.00 in0.0 mm 0.00 in0.0 mm
08:17 AM 54.8°F12.7°C 38.9°F3.8°C 55% 8.2 mph NW13.2 kmh NW 11.4 mph18.3 kmh 29.94 in1013.9 mb 0.00 in0.0 mm 0.00 in0.0 mm 0.00 in0.0 mm
08:18 AM 54.8°F12.7°C 38.9°F3.8°C 55% 8.2 mph NNW13.2 kmh NNW 11.4 mph18.3 kmh 29.94 in1013.9 mb 0.00 in0.0 mm 0.00 in0.0 mm 0.00 in0.0 mm
08:19 AM 54.6°F12.6°C 38.3°F3.5°C 54% 8.0 mph NNW12.9 kmh NNW 11.4 mph18.3 kmh 29.94 in1013.9 mb 0.00 in0.0 mm 0.00 in0.0 mm 0.00 in0.0 mm
08:20 AM 54.8°F12.7°C 38.4°F3.6°C 54% 7.8 mph N12.6 kmh N 11.4 mph18.3 kmh 29.94 in1013.9 mb 0.00 in0.0 mm 0.00 in0.0 mm 0.00 in0.0 mm
08:21 AM 54.8°F12.7°C 38.9°F3.8°C 55% 7.9 mph N12.7 kmh N 11.4 mph18.3 kmh 29.94 in1013.9 mb 0.00 in0.0 mm 0.00 in0.0 mm 0.00 in0.0 mm
08:22 AM 54.9°F12.7°C 39.1°F3.9°C 55% 7.6 mph NNW12.2 kmh NNW 11.4 mph18.3 kmh 29.94 in1013.9 mb 0.00 in0.0 mm 0.00 in0.0 mm 0.00 in0.0 mm
08:23 AM 54.9°F12.7°C 39.1°F3.9°C 55% 7.1 mph N11.4 kmh N 11.4 mph18.3 kmh 29.94 in1013.9 mb 0.00 in0.0 mm 0.00 in0.0 mm 0.00 in0.0 mm
08:24 AM 55.5°F13.1°C 39.6°F4.2°C 55% 6.6 mph NNW10.6 kmh NNW 11.4 mph18.3 kmh 29.94 in1013.9 mb 0.00 in0.0 mm 0.00 in0.0 mm 0.00 in0.0 mm
08:25 AM 55.7°F13.2°C 39.8°F4.3°C 55% 6.4 mph N10.3 kmh N 11.4 mph18.3 kmh 29.94 in1013.9 mb 0.00 in0.0 mm 0.00 in0.0 mm 0.00 in0.0 mm
08:26 AM 55.5°F13.1°C 39.6°F4.2°C 55% 6.7 mph N10.8 kmh N 11.4 mph18.3 kmh 29.94 in1013.9 mb 0.00 in0.0 mm 0.00 in0.0 mm 0.00 in0.0 mm
08:27 AM 55.3°F12.9°C 39.0°F3.9°C 54% 6.8 mph N10.9 kmh N 11.4 mph18.3 kmh 29.94 in1013.9 mb 0.00 in0.0 mm 0.00 in0.0 mm 0.00 in0.0 mm
08:28 AM 55.3°F12.9°C 38.5°F3.6°C 53% 6.7 mph NNW10.8 kmh NNW 11.4 mph18.3 kmh 29.94 in1013.9 mb 0.00 in0.0 mm 0.00 in0.0 mm 0.00 in0.0 mm
08:29 AM 55.7°F13.2°C 38.8°F3.8°C 53% 6.4 mph NNW10.3 kmh NNW 11.4 mph18.3 kmh 29.94 in1013.9 mb 0.00 in0.0 mm 0.00 in0.0 mm 0.00 in0.0 mm
08:30 AM 55.7°F13.2°C 38.8°F3.8°C 53% 6.4 mph NNW10.3 kmh NNW 11.4 mph18.3 kmh 29.94 in1013.9 mb 0.00 in0.0 mm 0.00 in0.0 mm 0.00 in0.0 mm
08:31 AM 55.5°F13.1°C 38.6°F3.7°C 53% 6.6 mph N10.6 kmh N 10.7 mph17.2 kmh 29.94 in1013.9 mb 0.00 in0.0 mm 0.00 in0.0 mm 0.00 in0.0 mm
08:32 AM 55.5°F13.1°C 38.2°F3.4°C 52% 7.3 mph NNW11.7 kmh NNW 13.0 mph20.9 kmh 29.94 in1013.9 mb 0.00 in0.0 mm 0.00 in0.0 mm 0.00 in0.0 mm
08:33 AM 55.7°F13.2°C 38.3°F3.5°C 52% 8.2 mph NNW13.2 kmh NNW 13.0 mph20.9 kmh 29.94 in1013.9 mb 0.00 in0.0 mm 0.00 in0.0 mm 0.00 in0.0 mm
08:34 AM 55.5°F13.1°C 37.7°F3.2°C 51% 8.8 mph NNW14.2 kmh NNW 13.0 mph20.9 kmh 29.94 in1013.9 mb 0.00 in0.0 mm 0.00 in0.0 mm 0.00 in0.0 mm
08:35 AM 55.5°F13.1°C 37.7°F3.2°C 51% 9.2 mph NNW14.8 kmh NNW 13.0 mph20.9 kmh 29.94 in1013.9 mb 0.00 in0.0 mm 0.00 in0.0 mm 0.00 in0.0 mm
08:36 AM 55.7°F13.2°C 37.8°F3.2°C 51% 9.2 mph N14.8 kmh N 13.0 mph20.9 kmh 29.94 in1013.9 mb 0.00 in0.0 mm 0.00 in0.0 mm 0.00 in0.0 mm
08:37 AM 55.8°F13.2°C 38.5°F3.6°C 52% 9.1 mph N14.6 kmh N 13.0 mph20.9 kmh 29.94 in1013.9 mb 0.00 in0.0 mm 0.00 in0.0 mm 0.00 in0.0 mm
08:38 AM 55.8°F13.2°C 38.0°F3.3°C 51% 9.5 mph N15.3 kmh N 13.0 mph20.9 kmh 29.94 in1013.9 mb 0.00 in0.0 mm 0.00 in0.0 mm 0.00 in0.0 mm
08:39 AM 55.8°F13.2°C 38.0°F3.3°C 51% 10.2 mph N16.4 kmh N 13.0 mph20.9 kmh 29.94 in1013.9 mb 0.00 in0.0 mm 0.00 in0.0 mm 0.00 in0.0 mm
08:40 AM 56.0°F13.3°C 38.2°F3.4°C 51% 10.1 mph N16.3 kmh N 13.0 mph20.9 kmh 29.94 in1013.9 mb 0.00 in0.0 mm 0.00 in0.0 mm 0.00 in0.0 mm
08:41 AM 56.2°F13.4°C 37.8°F3.2°C 50% 9.7 mph N15.6 kmh N 13.0 mph20.9 kmh 29.94 in1013.9 mb 0.00 in0.0 mm 0.00 in0.0 mm 0.00 in0.0 mm
08:42 AM 56.4°F13.6°C 38.0°F3.3°C 50% 9.3 mph N15.0 kmh N 13.0 mph20.9 kmh 29.94 in1013.9 mb 0.00 in0.0 mm 0.00 in0.0 mm 0.00 in0.0 mm
08:43 AM 56.2°F13.4°C 37.8°F3.2°C 50% 8.9 mph N14.3 kmh N 13.0 mph20.9 kmh 29.94 in1013.9 mb 0.00 in0.0 mm 0.00 in0.0 mm 0.00 in0.0 mm
08:44 AM 56.6°F13.7°C 37.6°F3.1°C 49% 8.6 mph N13.8 kmh N 13.0 mph20.9 kmh 29.94 in1013.9 mb 0.00 in0.0 mm 0.00 in0.0 mm 0.00 in0.0 mm
08:45 AM 56.7°F13.7°C 37.8°F3.2°C 49% 8.5 mph N13.7 kmh N 13.0 mph20.9 kmh 29.94 in1013.9 mb 0.00 in0.0 mm 0.00 in0.0 mm 0.00 in0.0 mm
08:46 AM 56.6°F13.7°C 37.6°F3.1°C 49% 8.8 mph N14.2 kmh N 13.0 mph20.9 kmh 29.94 in1013.9 mb 0.00 in0.0 mm 0.00 in0.0 mm 0.00 in0.0 mm
08:47 AM 56.6°F13.7°C 37.1°F2.8°C 48% 8.7 mph N14.0 kmh N 13.0 mph20.9 kmh 29.94 in1013.9 mb 0.00 in0.0 mm 0.00 in0.0 mm 0.00 in0.0 mm
08:48 AM 56.7°F13.7°C 37.3°F2.9°C 48% 8.2 mph NNW13.2 kmh NNW 13.0 mph20.9 kmh 29.94 in1013.9 mb 0.00 in0.0 mm 0.00 in0.0 mm 0.00 in0.0 mm
08:49 AM 56.7°F13.7°C 37.3°F2.9°C 48% 7.7 mph NNW12.4 kmh NNW 13.0 mph20.9 kmh 29.94 in1013.9 mb 0.00 in0.0 mm 0.00 in0.0 mm 0.00 in0.0 mm
08:50 AM 56.7°F13.7°C 37.3°F2.9°C 48% 7.8 mph NNW12.6 kmh NNW 13.0 mph20.9 kmh 29.94 in1013.9 mb 0.00 in0.0 mm 0.00 in0.0 mm 0.00 in0.0 mm
08:51 AM 57.1°F13.9°C 37.6°F3.1°C 48% 7.9 mph N12.7 kmh N 13.0 mph20.9 kmh 29.94 in1013.9 mb 0.00 in0.0 mm 0.00 in0.0 mm 0.00 in0.0 mm
08:52 AM 56.9°F13.8°C 36.9°F2.7°C 47% 8.1 mph N13.0 kmh N 13.0 mph20.9 kmh 29.94 in1013.9 mb 0.00 in0.0 mm 0.00 in0.0 mm 0.00 in0.0 mm
08:53 AM 57.3°F14.1°C 37.8°F3.2°C 48% 8.2 mph N13.2 kmh N 13.0 mph20.9 kmh 29.94 in1013.9 mb 0.00 in0.0 mm 0.00 in0.0 mm 0.00 in0.0 mm
08:54 AM 57.5°F14.2°C 37.9°F3.3°C 48% 8.5 mph N13.7 kmh N 13.0 mph20.9 kmh 29.94 in1013.9 mb 0.00 in0.0 mm 0.00 in0.0 mm 0.00 in0.0 mm
08:55 AM 57.6°F14.2°C 38.1°F3.4°C 48% 8.4 mph N13.5 kmh N 13.0 mph20.9 kmh 29.94 in1013.9 mb 0.00 in0.0 mm 0.00 in0.0 mm 0.00 in0.0 mm
08:56 AM 57.3°F14.1°C 37.2°F2.9°C 47% 8.1 mph NNE13.0 kmh NNE 13.0 mph20.9 kmh 29.94 in1013.9 mb 0.00 in0.0 mm 0.00 in0.0 mm 0.00 in0.0 mm
08:57 AM 56.9°F13.8°C 36.4°F2.4°C 46% 8.4 mph NE13.5 kmh NE 12.1 mph19.5 kmh 29.94 in1013.9 mb 0.00 in0.0 mm 0.00 in0.0 mm 0.00 in0.0 mm
08:58 AM 57.3°F14.1°C 37.2°F2.9°C 47% 8.5 mph NE13.7 kmh NE 12.1 mph19.5 kmh 29.94 in1013.9 mb 0.00 in0.0 mm 0.00 in0.0 mm 0.00 in0.0 mm
08:59 AM 57.6°F14.2°C 37.6°F3.1°C 47% 8.6 mph NE13.8 kmh NE 12.1 mph19.5 kmh 29.94 in1013.9 mb 0.00 in0.0 mm 0.00 in0.0 mm 0.00 in0.0 mm
09:00 AM 57.3°F14.1°C 36.7°F2.6°C 46% 8.7 mph NE14.0 kmh NE 12.1 mph19.5 kmh 29.94 in1013.9 mb 0.00 in0.0 mm 0.00 in0.0 mm 0.00 in0.0 mm
09:01 AM 57.6°F14.2°C 37.0°F2.8°C 46% 8.7 mph NE14.0 kmh NE 12.1 mph19.5 kmh 29.94 in1013.9 mb 0.00 in0.0 mm 0.00 in0.0 mm 0.00 in0.0 mm
09:02 AM 58.0°F14.4°C 37.4°F3.0°C 46% 8.6 mph NE13.8 kmh NE 12.1 mph19.5 kmh 29.94 in1013.9 mb 0.00 in0.0 mm 0.00 in0.0 mm 0.00 in0.0 mm
09:03 AM 58.0°F14.4°C 37.4°F3.0°C 46% 8.4 mph NE13.5 kmh NE 12.1 mph19.5 kmh 29.94 in1013.9 mb 0.00 in0.0 mm 0.00 in0.0 mm 0.00 in0.0 mm
09:04 AM 58.0°F14.4°C 36.8°F2.7°C 45% 8.6 mph NE13.8 kmh NE 11.4 mph18.3 kmh 29.94 in1013.9 mb 0.00 in0.0 mm 0.00 in0.0 mm 0.00 in0.0 mm
09:05 AM 57.6°F14.2°C 37.0°F2.8°C 46% 8.9 mph NE14.3 kmh NE 11.4 mph18.3 kmh 29.94 in1013.9 mb 0.00 in0.0 mm 0.00 in0.0 mm 0.00 in0.0 mm
09:06 AM 57.6°F14.2°C 37.0°F2.8°C 46% 8.9 mph NNE14.3 kmh NNE 11.4 mph18.3 kmh 29.94 in1013.9 mb 0.00 in0.0 mm 0.00 in0.0 mm 0.00 in0.0 mm
09:07 AM 57.8°F14.3°C 37.2°F2.9°C 46% 8.5 mph N13.7 kmh N 11.4 mph18.3 kmh 29.94 in1013.9 mb 0.00 in0.0 mm 0.00 in0.0 mm 0.00 in0.0 mm
09:08 AM 58.2°F14.6°C 37.5°F3.1°C 46% 8.7 mph N14.0 kmh N 11.4 mph18.3 kmh 29.94 in1013.9 mb 0.00 in0.0 mm 0.00 in0.0 mm 0.00 in0.0 mm
09:09 AM 58.2°F14.6°C 37.0°F2.8°C 45% 8.8 mph N14.2 kmh N 12.1 mph19.5 kmh 29.94 in1013.9 mb 0.00 in0.0 mm 0.00 in0.0 mm 0.00 in0.0 mm
09:10 AM 58.0°F14.4°C 36.8°F2.7°C 45% 9.0 mph N14.5 kmh N 12.1 mph19.5 kmh 29.94 in1013.9 mb 0.00 in0.0 mm 0.00 in0.0 mm 0.00 in0.0 mm
09:11 AM 58.0°F14.4°C 36.8°F2.7°C 45% 9.3 mph N15.0 kmh N 12.1 mph19.5 kmh 29.94 in1013.9 mb 0.00 in0.0 mm 0.00 in0.0 mm 0.00 in0.0 mm
09:12 AM 58.2°F14.6°C 36.4°F2.4°C 44% 9.3 mph N15.0 kmh N 12.1 mph19.5 kmh 29.94 in1013.9 mb 0.00 in0.0 mm 0.00 in0.0 mm 0.00 in0.0 mm
09:13 AM 58.0°F14.4°C 36.2°F2.3°C 44% 9.6 mph N15.4 kmh N 12.1 mph19.5 kmh 29.94 in1013.9 mb 0.00 in0.0 mm 0.00 in0.0 mm 0.00 in0.0 mm
09:14 AM 57.8°F14.3°C 36.6°F2.6°C 45% 9.2 mph N14.8 kmh N 12.1 mph19.5 kmh 29.94 in1013.9 mb 0.00 in0.0 mm 0.00 in0.0 mm 0.00 in0.0 mm
09:15 AM 58.0°F14.4°C 36.2°F2.3°C 44% 8.9 mph N14.3 kmh N 12.1 mph19.5 kmh 29.94 in1013.9 mb 0.00 in0.0 mm 0.00 in0.0 mm 0.00 in0.0 mm
09:16 AM 58.7°F14.8°C 37.4°F3.0°C 45% 8.4 mph N13.5 kmh N 12.1 mph19.5 kmh 29.94 in1013.9 mb 0.00 in0.0 mm 0.00 in0.0 mm 0.00 in0.0 mm
09:17 AM 58.5°F14.7°C 37.3°F2.9°C 45% 8.9 mph N14.3 kmh N 12.1 mph19.5 kmh 29.94 in1013.9 mb 0.00 in0.0 mm 0.00 in0.0 mm 0.00 in0.0 mm
09:18 AM 58.4°F14.7°C 36.6°F2.6°C 44% 9.1 mph NNW14.6 kmh NNW 12.1 mph19.5 kmh 29.94 in1013.9 mb 0.00 in0.0 mm 0.00 in0.0 mm 0.00 in0.0 mm
09:19 AM 58.2°F14.6°C 36.4°F2.4°C 44% 9.1 mph NNW14.6 kmh NNW 12.1 mph19.5 kmh 29.94 in1013.9 mb 0.00 in0.0 mm 0.00 in0.0 mm 0.00 in0.0 mm
09:20 AM 58.5°F14.7°C 36.1°F2.3°C 43% 8.8 mph NNW14.2 kmh NNW 12.1 mph19.5 kmh 29.94 in1013.9 mb 0.00 in0.0 mm 0.00 in0.0 mm 0.00 in0.0 mm
09:21 AM 58.5°F14.7°C 36.1°F2.3°C 43% 8.5 mph NNW13.7 kmh NNW 12.1 mph19.5 kmh 29.94 in1013.9 mb 0.00 in0.0 mm 0.00 in0.0 mm 0.00 in0.0 mm
09:22 AM 58.9°F14.9°C 37.0°F2.8°C 44% 8.2 mph NW13.2 kmh NW 12.1 mph19.5 kmh 29.94 in1013.9 mb 0.00 in0.0 mm 0.00 in0.0 mm 0.00 in0.0 mm
09:23 AM 59.1°F15.1°C 37.2°F2.9°C 44% 7.8 mph NNW12.6 kmh NNW 12.1 mph19.5 kmh 29.94 in1013.9 mb 0.00 in0.0 mm 0.00 in0.0 mm 0.00 in0.0 mm
09:24 AM 59.1°F15.1°C 36.6°F2.6°C 43% 7.9 mph N12.7 kmh N 12.1 mph19.5 kmh 29.94 in1013.9 mb 0.00 in0.0 mm 0.00 in0.0 mm 0.00 in0.0 mm
09:25 AM 59.1°F15.1°C 37.2°F2.9°C 44% 7.9 mph N12.7 kmh N 12.1 mph19.5 kmh 29.94 in1013.9 mb 0.00 in0.0 mm 0.00 in0.0 mm 0.00 in0.0 mm
09:26 AM 58.9°F14.9°C 36.5°F2.5°C 43% 8.4 mph N13.5 kmh N 12.1 mph19.5 kmh 29.94 in1013.9 mb 0.00 in0.0 mm 0.00 in0.0 mm 0.00 in0.0 mm
09:27 AM 58.9°F14.9°C 37.0°F2.8°C 44% 8.2 mph N13.2 kmh N 11.4 mph18.3 kmh 29.94 in1013.9 mb 0.00 in0.0 mm 0.00 in0.0 mm 0.00 in0.0 mm
09:28 AM 58.9°F14.9°C 36.5°F2.5°C 43% 8.1 mph N13.0 kmh N 11.4 mph18.3 kmh 29.94 in1013.9 mb 0.00 in0.0 mm 0.00 in0.0 mm 0.00 in0.0 mm
09:29 AM 59.3°F15.2°C 36.8°F2.7°C 43% 7.9 mph N12.7 kmh N 9.8 mph15.8 kmh 29.94 in1013.9 mb 0.00 in0.0 mm 0.00 in0.0 mm 0.00 in0.0 mm
09:30 AM 59.6°F15.3°C 37.7°F3.2°C 44% 7.8 mph N12.6 kmh N 9.8 mph15.8 kmh 29.94 in1013.9 mb 0.00 in0.0 mm 0.00 in0.0 mm 0.00 in0.0 mm
09:31 AM 59.6°F15.3°C 37.1°F2.8°C 43% 7.6 mph N12.2 kmh N 9.8 mph15.8 kmh 29.94 in1013.9 mb 0.00 in0.0 mm 0.00 in0.0 mm 0.00 in0.0 mm
09:32 AM 60.2°F15.7°C 37.6°F3.1°C 43% 7.5 mph N12.1 kmh N 9.8 mph15.8 kmh 29.94 in1013.9 mb 0.00 in0.0 mm 0.00 in0.0 mm 0.00 in0.0 mm
09:33 AM 60.0°F15.6°C 36.8°F2.7°C 42% 7.5 mph N12.1 kmh N 9.8 mph15.8 kmh 29.94 in1013.9 mb 0.00 in0.0 mm 0.00 in0.0 mm 0.00 in0.0 mm
09:34 AM 59.6°F15.3°C 37.1°F2.8°C 43% 7.6 mph N12.2 kmh N 9.8 mph15.8 kmh 29.94 in1013.9 mb 0.00 in0.0 mm 0.00 in0.0 mm 0.00 in0.0 mm
09:35 AM 60.0°F15.6°C 36.8°F2.7°C 42% 7.3 mph N11.7 kmh N 9.8 mph15.8 kmh 29.94 in1013.9 mb 0.00 in0.0 mm 0.00 in0.0 mm 0.00 in0.0 mm
09:36 AM 60.5°F15.8°C 37.9°F3.3°C 43% 7.1 mph N11.4 kmh N 9.8 mph15.8 kmh 29.94 in1013.9 mb 0.00 in0.0 mm 0.00 in0.0 mm 0.00 in0.0 mm
09:37 AM 60.5°F15.8°C 37.3°F2.9°C 42% 6.9 mph N11.1 kmh N 9.8 mph15.8 kmh 29.94 in1013.9 mb 0.00 in0.0 mm 0.00 in0.0 mm 0.00 in0.0 mm
09:38 AM 60.5°F15.8°C 37.3°F2.9°C 42% 6.8 mph N10.9 kmh N 9.2 mph14.8 kmh 29.94 in1013.9 mb 0.00 in0.0 mm 0.00 in0.0 mm 0.00 in0.0 mm
09:39 AM 60.3°F15.7°C 37.2°F2.9°C 42% 6.7 mph N10.8 kmh N 9.2 mph14.8 kmh 29.94 in1013.9 mb 0.00 in0.0 mm 0.00 in0.0 mm 0.00 in0.0 mm
09:40 AM 60.5°F15.8°C 37.3°F2.9°C 42% 6.7 mph N10.8 kmh N 9.2 mph14.8 kmh 29.94 in1013.9 mb 0.00 in0.0 mm 0.00 in0.0 mm 0.00 in0.0 mm
09:41 AM 60.5°F15.8°C 37.3°F2.9°C 42% 6.5 mph NNW10.5 kmh NNW 9.2 mph14.8 kmh 29.94 in1013.9 mb 0.00 in0.0 mm 0.00 in0.0 mm 0.00 in0.0 mm
09:42 AM 60.7°F15.9°C 37.5°F3.1°C 42% 6.8 mph NNW10.9 kmh NNW 9.2 mph14.8 kmh 29.94 in1013.9 mb 0.00 in0.0 mm 0.00 in0.0 mm 0.00 in0.0 mm
09:43 AM 60.7°F15.9°C 37.5°F3.1°C 42% 6.8 mph NNW10.9 kmh NNW 9.2 mph14.8 kmh 29.94 in1013.9 mb 0.00 in0.0 mm 0.00 in0.0 mm 0.00 in0.0 mm
09:44 AM 60.7°F15.9°C 36.9°F2.7°C 41% 6.7 mph NW10.8 kmh NW 9.2 mph14.8 kmh 29.94 in1013.9 mb 0.00 in0.0 mm 0.00 in0.0 mm 0.00 in0.0 mm
09:45 AM 60.9°F16.1°C 37.0°F2.8°C 41% 7.0 mph NW11.3 kmh NW 9.2 mph14.8 kmh 29.94 in1013.9 mb 0.00 in0.0 mm 0.00 in0.0 mm 0.00 in0.0 mm
09:46 AM 60.7°F15.9°C 36.9°F2.7°C 41% 7.1 mph NW11.4 kmh NW 9.2 mph14.8 kmh 29.94 in1013.9 mb 0.00 in0.0 mm 0.00 in0.0 mm 0.00 in0.0 mm
09:47 AM 61.1°F16.2°C 37.2°F2.9°C 41% 6.9 mph NW11.1 kmh NW 9.2 mph14.8 kmh 29.94 in1013.9 mb 0.00 in0.0 mm 0.00 in0.0 mm 0.00 in0.0 mm
09:48 AM 61.1°F16.2°C 37.2°F2.9°C 41% 6.7 mph NNW10.8 kmh NNW 9.2 mph14.8 kmh 29.94 in1013.9 mb 0.00 in0.0 mm 0.00 in0.0 mm 0.00 in0.0 mm
09:49 AM 61.1°F16.2°C 35.9°F2.2°C 39% 7.0 mph NNW11.3 kmh NNW 9.2 mph14.8 kmh 29.94 in1013.9 mb 0.00 in0.0 mm 0.00 in0.0 mm 0.00 in0.0 mm
09:50 AM 60.7°F15.9°C 35.6°F2.0°C 39% 7.1 mph NNW11.4 kmh NNW 9.2 mph14.8 kmh 29.94 in1013.9 mb 0.00 in0.0 mm 0.00 in0.0 mm 0.00 in0.0 mm
09:51 AM 60.7°F15.9°C 35.6°F2.0°C 39% 7.3 mph NW11.7 kmh NW 9.2 mph14.8 kmh 29.94 in1013.9 mb 0.00 in0.0 mm 0.00 in0.0 mm 0.00 in0.0 mm
09:52 AM 61.4°F16.3°C 36.9°F2.7°C 40% 7.1 mph NW11.4 kmh NW 9.2 mph14.8 kmh 29.94 in1013.9 mb 0.00 in0.0 mm 0.00 in0.0 mm 0.00 in0.0 mm
09:53 AM 61.6°F16.4°C 36.4°F2.4°C 39% 7.1 mph NW11.4 kmh NW 10.7 mph17.2 kmh 29.94 in1013.9 mb 0.00 in0.0 mm 0.00 in0.0 mm 0.00 in0.0 mm
09:54 AM 61.1°F16.2°C 35.9°F2.2°C 39% 7.3 mph WNW11.7 kmh WNW 10.7 mph17.2 kmh 29.94 in1013.9 mb 0.00 in0.0 mm 0.00 in0.0 mm 0.00 in0.0 mm
09:55 AM 61.2°F16.2°C 35.4°F1.9°C 38% 7.1 mph WNW11.4 kmh WNW 10.7 mph17.2 kmh 29.94 in1013.9 mb 0.00 in0.0 mm 0.00 in0.0 mm 0.00 in0.0 mm
09:56 AM 61.6°F16.4°C 35.1°F1.7°C 37% 6.9 mph NW11.1 kmh NW 10.7 mph17.2 kmh 29.94 in1013.9 mb 0.00 in0.0 mm 0.00 in0.0 mm 0.00 in0.0 mm
09:57 AM 61.4°F16.3°C 35.6°F2.0°C 38% 7.2 mph NW11.6 kmh NW 10.7 mph17.2 kmh 29.94 in1013.9 mb 0.00 in0.0 mm 0.00 in0.0 mm 0.00 in0.0 mm
09:58 AM 61.8°F16.6°C 35.9°F2.2°C 38% 7.0 mph NW11.3 kmh NW 10.7 mph17.2 kmh 29.94 in1013.9 mb 0.00 in0.0 mm 0.00 in0.0 mm 0.00 in0.0 mm
09:59 AM 62.0°F16.7°C 36.1°F2.3°C 38% 6.7 mph WNW10.8 kmh WNW 10.7 mph17.2 kmh 29.94 in1013.9 mb 0.00 in0.0 mm 0.00 in0.0 mm 0.00 in0.0 mm
10:00 AM 62.7°F17.1°C 37.4°F3.0°C 39% 6.4 mph WNW10.3 kmh WNW 10.7 mph17.2 kmh 29.94 in1013.9 mb 0.00 in0.0 mm 0.00 in0.0 mm 0.00 in0.0 mm
10:01 AM 62.9°F17.2°C 37.5°F3.1°C 39% 6.4 mph WNW10.3 kmh WNW 10.7 mph17.2 kmh 29.94 in1013.9 mb 0.00 in0.0 mm 0.00 in0.0 mm 0.00 in0.0 mm
10:02 AM 62.5°F16.9°C 35.9°F2.2°C 37% 6.7 mph WNW10.8 kmh WNW 10.7 mph17.2 kmh 29.94 in1013.9 mb 0.00 in0.0 mm 0.00 in0.0 mm 0.00 in0.0 mm
10:03 AM 62.3°F16.8°C 35.7°F2.1°C 37% 6.7 mph NW10.8 kmh NW 10.7 mph17.2 kmh 29.94 in1013.9 mb 0.00 in0.0 mm 0.00 in0.0 mm 0.00 in0.0 mm
10:04 AM 62.1°F16.7°C 34.9°F1.6°C 36% 6.5 mph NW10.5 kmh NW 10.7 mph17.2 kmh 29.94 in1013.9 mb 0.00 in0.0 mm 0.00 in0.0 mm 0.00 in0.0 mm
10:05 AM 61.8°F16.6°C 34.6°F1.4°C 36% 6.9 mph NW11.1 kmh NW 10.7 mph17.2 kmh 29.94 in1013.9 mb 0.00 in0.0 mm 0.00 in0.0 mm 0.00 in0.0 mm
10:06 AM 62.0°F16.7°C 34.7°F1.5°C 36% 7.1 mph NW11.4 kmh NW 10.7 mph17.2 kmh 29.94 in1013.9 mb 0.00 in0.0 mm 0.00 in0.0 mm 0.00 in0.0 mm
10:07 AM 62.1°F16.7°C 34.9°F1.6°C 36% 7.3 mph NW11.7 kmh NW 11.4 mph18.3 kmh 29.94 in1013.9 mb 0.00 in0.0 mm 0.00 in0.0 mm 0.00 in0.0 mm
10:08 AM 62.1°F16.7°C 34.2°F1.2°C 35% 7.5 mph NW12.1 kmh NW 11.4 mph18.3 kmh 29.94 in1013.9 mb 0.00 in0.0 mm 0.00 in0.0 mm 0.00 in0.0 mm
10:09 AM 62.1°F16.7°C 34.9°F1.6°C 36% 7.9 mph NW12.7 kmh NW 11.4 mph18.3 kmh 29.94 in1013.9 mb 0.00 in0.0 mm 0.00 in0.0 mm 0.00 in0.0 mm
10:10 AM 62.3°F16.8°C 35.0°F1.7°C 36% 7.9 mph NW12.7 kmh NW 11.4 mph18.3 kmh 29.94 in1013.9 mb 0.00 in0.0 mm 0.00 in0.0 mm 0.00 in0.0 mm
10:11 AM 62.7°F17.1°C 35.4°F1.9°C 36% 8.2 mph NNW13.2 kmh NNW 11.4 mph18.3 kmh 29.94 in1013.9 mb 0.00 in0.0 mm 0.00 in0.0 mm 0.00 in0.0 mm
10:12 AM 62.0°F16.7°C 34.0°F1.1°C 35% 8.4 mph NNW13.5 kmh NNW 11.4 mph18.3 kmh 29.94 in1013.9 mb 0.00 in0.0 mm 0.00 in0.0 mm 0.00 in0.0 mm
10:13 AM 62.1°F16.7°C 34.2°F1.2°C 35% 8.4 mph NNW13.5 kmh NNW 11.4 mph18.3 kmh 29.94 in1013.9 mb 0.00 in0.0 mm 0.00 in0.0 mm 0.00 in0.0 mm
10:14 AM 62.3°F16.8°C 34.3°F1.3°C 35% 8.6 mph NNW13.8 kmh NNW 11.4 mph18.3 kmh 29.94 in1013.9 mb 0.00 in0.0 mm 0.00 in0.0 mm 0.00 in0.0 mm
10:15 AM 62.5°F16.9°C 35.2°F1.8°C 36% 8.9 mph NNW14.3 kmh NNW 13.0 mph20.9 kmh 29.94 in1013.9 mb 0.00 in0.0 mm 0.00 in0.0 mm 0.00 in0.0 mm
10:16 AM 62.5°F16.9°C 35.2°F1.8°C 36% 9.4 mph NNW15.1 kmh NNW 13.0 mph20.9 kmh 29.94 in1013.9 mb 0.00 in0.0 mm 0.00 in0.0 mm 0.00 in0.0 mm
10:17 AM 62.5°F16.9°C 35.2°F1.8°C 36% 9.6 mph NW15.4 kmh NW 13.0 mph20.9 kmh 29.94 in1013.9 mb 0.00 in0.0 mm 0.00 in0.0 mm 0.00 in0.0 mm
10:18 AM 63.0°F17.2°C 36.4°F2.4°C 37% 10.0 mph NW16.1 kmh NW 13.0 mph20.9 kmh 29.94 in1013.9 mb 0.00 in0.0 mm 0.00 in0.0 mm 0.00 in0.0 mm
10:19 AM 62.5°F16.9°C 34.5°F1.4°C 35% 9.9 mph NW15.9 kmh NW 13.0 mph20.9 kmh 29.94 in1013.9 mb 0.00 in0.0 mm 0.00 in0.0 mm 0.00 in0.0 mm
10:20 AM 63.6°F17.6°C 36.9°F2.7°C 37% 10.0 mph NW16.1 kmh NW 13.0 mph20.9 kmh 29.94 in1013.9 mb 0.00 in0.0 mm 0.00 in0.0 mm 0.00 in0.0 mm
10:21 AM 63.2°F17.3°C 35.8°F2.1°C 36% 10.0 mph NW16.1 kmh NW 13.0 mph20.9 kmh 29.94 in1013.9 mb 0.00 in0.0 mm 0.00 in0.0 mm 0.00 in0.0 mm
10:22 AM 62.9°F17.2°C 34.8°F1.6°C 35% 9.8 mph NW15.8 kmh NW 13.0 mph20.9 kmh 29.94 in1013.9 mb 0.00 in0.0 mm 0.00 in0.0 mm 0.00 in0.0 mm
10:23 AM 62.9°F17.2°C 34.1°F1.2°C 34% 9.8 mph NW15.8 kmh NW 13.0 mph20.9 kmh 29.94 in1013.9 mb 0.00 in0.0 mm 0.00 in0.0 mm 0.00 in0.0 mm
10:24 AM 62.7°F17.1°C 33.9°F1.1°C 34% 9.8 mph NW15.8 kmh NW 13.0 mph20.9 kmh 29.94 in1013.9 mb 0.00 in0.0 mm 0.00 in0.0 mm 0.00 in0.0 mm
10:25 AM 62.7°F17.1°C 33.9°F1.1°C 34% 9.4 mph NNW15.1 kmh NNW 13.0 mph20.9 kmh 29.94 in1013.9 mb 0.00 in0.0 mm 0.00 in0.0 mm 0.00 in0.0 mm
10:26 AM 62.5°F16.9°C 33.8°F1.0°C 34% 9.0 mph NNW14.5 kmh NNW 13.0 mph20.9 kmh 29.94 in1013.9 mb 0.00 in0.0 mm 0.00 in0.0 mm 0.00 in0.0 mm
10:27 AM 62.1°F16.7°C 33.5°F0.8°C 34% 8.5 mph N13.7 kmh N 13.0 mph20.9 kmh 29.94 in1013.9 mb 0.00 in0.0 mm 0.00 in0.0 mm 0.00 in0.0 mm
10:28 AM 63.2°F17.3°C 35.1°F1.7°C 35% 8.3 mph N13.4 kmh N 11.4 mph18.3 kmh 29.94 in1013.9 mb 0.00 in0.0 mm 0.00 in0.0 mm 0.00 in0.0 mm
10:29 AM 63.9°F17.7°C 37.2°F2.9°C 37% 8.2 mph N13.2 kmh N 11.4 mph18.3 kmh 29.94 in1013.9 mb 0.00 in0.0 mm 0.00 in0.0 mm 0.00 in0.0 mm
10:30 AM 63.9°F17.7°C 36.5°F2.5°C 36% 8.2 mph N13.2 kmh N 11.4 mph18.3 kmh 29.94 in1013.9 mb 0.00 in0.0 mm 0.00 in0.0 mm 0.00 in0.0 mm
10:31 AM 63.8°F17.7°C 36.3°F2.4°C 36% 8.3 mph N13.4 kmh N 11.4 mph18.3 kmh 29.94 in1013.9 mb 0.00 in0.0 mm 0.00 in0.0 mm 0.00 in0.0 mm
10:32 AM 63.4°F17.4°C 35.3°F1.8°C 35% 8.6 mph N13.8 kmh N 12.1 mph19.5 kmh 29.94 in1013.9 mb 0.00 in0.0 mm 0.00 in0.0 mm 0.00 in0.0 mm
10:33 AM 63.0°F17.2°C 34.2°F1.2°C 34% 9.0 mph N14.5 kmh N 12.1 mph19.5 kmh 29.94 in1013.9 mb 0.00 in0.0 mm 0.00 in0.0 mm 0.00 in0.0 mm
10:34 AM 63.2°F17.3°C 34.4°F1.3°C 34% 9.5 mph N15.3 kmh N 14.5 mph23.3 kmh 29.94 in1013.9 mb 0.00 in0.0 mm 0.00 in0.0 mm 0.00 in0.0 mm
10:35 AM 62.9°F17.2°C 34.1°F1.2°C 34% 9.8 mph NNW15.8 kmh NNW 14.5 mph23.3 kmh 29.94 in1013.9 mb 0.00 in0.0 mm 0.00 in0.0 mm 0.00 in0.0 mm
10:36 AM 62.7°F17.1°C 33.9°F1.1°C 34% 10.3 mph NNW16.6 kmh NNW 15.2 mph24.5 kmh 29.94 in1013.9 mb 0.00 in0.0 mm 0.00 in0.0 mm 0.00 in0.0 mm
10:37 AM 62.7°F17.1°C 33.9°F1.1°C 34% 11.0 mph NNW17.7 kmh NNW 16.8 mph27.0 kmh 29.94 in1013.9 mb 0.00 in0.0 mm 0.00 in0.0 mm 0.00 in0.0 mm
10:38 AM 62.5°F16.9°C 33.8°F1.0°C 34% 11.8 mph NNW19.0 kmh NNW 16.8 mph27.0 kmh 29.94 in1013.9 mb 0.00 in0.0 mm 0.00 in0.0 mm 0.00 in0.0 mm
10:39 AM 63.0°F17.2°C 34.2°F1.2°C 34% 12.6 mph NNW20.3 kmh NNW 16.8 mph27.0 kmh 29.94 in1013.9 mb 0.00 in0.0 mm 0.00 in0.0 mm 0.00 in0.0 mm
10:40 AM 63.0°F17.2°C 34.2°F1.2°C 34% 12.8 mph NNW20.6 kmh NNW 16.8 mph27.0 kmh 29.94 in1013.9 mb 0.00 in0.0 mm 0.00 in0.0 mm 0.00 in0.0 mm
10:41 AM 63.0°F17.2°C 34.2°F1.2°C 34% 12.8 mph NNW20.6 kmh NNW 16.8 mph27.0 kmh 29.94 in1013.9 mb 0.00 in0.0 mm 0.00 in0.0 mm 0.00 in0.0 mm
10:42 AM 63.4°F17.4°C 35.3°F1.8°C 35% 12.7 mph N20.4 kmh N 16.8 mph27.0 kmh 29.94 in1013.9 mb 0.00 in0.0 mm 0.00 in0.0 mm 0.00 in0.0 mm
10:43 AM 63.4°F17.4°C 35.3°F1.8°C 35% 12.2 mph N19.6 kmh N 16.8 mph27.0 kmh 29.94 in1013.9 mb 0.00 in0.0 mm 0.00 in0.0 mm 0.00 in0.0 mm
10:44 AM 63.9°F17.7°C 36.5°F2.5°C 36% 12.1 mph N19.5 kmh N 17.4 mph28.0 kmh 29.94 in1013.9 mb 0.00 in0.0 mm 0.00 in0.0 mm 0.00 in0.0 mm
10:45 AM 63.6°F17.6°C 35.4°F1.9°C 35% 12.4 mph N20.0 kmh N 17.4 mph28.0 kmh 29.94 in1013.9 mb 0.00 in0.0 mm 0.00 in0.0 mm 0.00 in0.0 mm
10:46 AM 63.4°F17.4°C 35.3°F1.8°C 35% 12.3 mph N19.8 kmh N 17.4 mph28.0 kmh 29.94 in1013.9 mb 0.00 in0.0 mm 0.00 in0.0 mm 0.00 in0.0 mm
10:47 AM 63.4°F17.4°C 35.3°F1.8°C 35% 12.1 mph N19.5 kmh N 17.4 mph28.0 kmh 29.94 in1013.9 mb 0.00 in0.0 mm 0.00 in0.0 mm 0.00 in0.0 mm
10:48 AM 63.8°F17.7°C 35.6°F2.0°C 35% 11.6 mph N18.7 kmh N 17.4 mph28.0 kmh 29.94 in1013.9 mb 0.00 in0.0 mm 0.00 in0.0 mm 0.00 in0.0 mm
10:49 AM 64.1°F17.8°C 36.6°F2.6°C 36% 11.2 mph N18.0 kmh N 17.4 mph28.0 kmh 29.94 in1013.9 mb 0.00 in0.0 mm 0.00 in0.0 mm 0.00 in0.0 mm
10:50 AM 63.8°F17.7°C 35.6°F2.0°C 35% 11.7 mph N18.8 kmh N 17.4 mph28.0 kmh 29.94 in1013.9 mb 0.00 in0.0 mm 0.00 in0.0 mm 0.00 in0.0 mm
10:51 AM 63.8°F17.7°C 35.6°F2.0°C 35% 11.8 mph NNW19.0 kmh NNW 17.4 mph28.0 kmh 29.94 in1013.9 mb 0.00 in0.0 mm 0.00 in0.0 mm 0.00 in0.0 mm
10:52 AM 63.0°F17.2°C 33.5°F0.8°C 33% 12.0 mph NNW19.3 kmh NNW 17.4 mph28.0 kmh 29.94 in1013.9 mb 0.00 in0.0 mm 0.00 in0.0 mm 0.00 in0.0 mm
10:53 AM 63.4°F17.4°C 35.3°F1.8°C 35% 12.0 mph NNW19.3 kmh NNW 17.4 mph28.0 kmh 29.94 in1013.9 mb 0.00 in0.0 mm 0.00 in0.0 mm 0.00 in0.0 mm
10:54 AM 63.9°F17.7°C 35.8°F2.1°C 35% 11.4 mph NNW18.3 kmh NNW 17.4 mph28.0 kmh 29.94 in1013.9 mb 0.00 in0.0 mm 0.00 in0.0 mm 0.00 in0.0 mm
10:55 AM 63.9°F17.7°C 35.8°F2.1°C 35% 11.1 mph NW17.9 kmh NW 15.9 mph25.6 kmh 29.94 in1013.9 mb 0.00 in0.0 mm 0.00 in0.0 mm 0.00 in0.0 mm
10:56 AM 63.9°F17.7°C 35.8°F2.1°C 35% 10.9 mph NW17.5 kmh NW 15.9 mph25.6 kmh 29.94 in1013.9 mb 0.00 in0.0 mm 0.00 in0.0 mm 0.00 in0.0 mm
10:57 AM 64.1°F17.8°C 36.6°F2.6°C 36% 10.6 mph NW17.1 kmh NW 15.9 mph25.6 kmh 29.94 in1013.9 mb 0.00 in0.0 mm 0.00 in0.0 mm 0.00 in0.0 mm
10:58 AM 64.1°F17.8°C 36.6°F2.6°C 36% 10.3 mph NW16.6 kmh NW 15.9 mph25.6 kmh 29.94 in1013.9 mb 0.00 in0.0 mm 0.00 in0.0 mm 0.00 in0.0 mm
10:59 AM 64.5°F18.1°C 37.0°F2.8°C 36% 10.1 mph NW16.3 kmh NW 15.9 mph25.6 kmh 29.94 in1013.9 mb 0.00 in0.0 mm 0.00 in0.0 mm 0.00 in0.0 mm
11:00 AM 64.8°F18.2°C 37.3°F2.9°C 36% 9.4 mph NW15.1 kmh NW 15.9 mph25.6 kmh 29.94 in1013.9 mb 0.00 in0.0 mm 0.00 in0.0 mm 0.00 in0.0 mm
11:01 AM 65.4°F18.6°C 37.8°F3.2°C 36% 8.8 mph NW14.2 kmh NW 13.6 mph21.9 kmh 29.94 in1013.9 mb 0.00 in0.0 mm 0.00 in0.0 mm 0.00 in0.0 mm
11:02 AM 64.7°F18.2°C 37.1°F2.8°C 36% 8.5 mph NW13.7 kmh NW 12.1 mph19.5 kmh 29.94 in1013.9 mb 0.00 in0.0 mm 0.00 in0.0 mm 0.00 in0.0 mm
11:03 AM 64.1°F17.8°C 35.9°F2.2°C 35% 9.1 mph NW14.6 kmh NW 15.2 mph24.5 kmh 29.94 in1013.9 mb 0.00 in0.0 mm 0.00 in0.0 mm 0.00 in0.0 mm
11:04 AM 64.7°F18.2°C 36.4°F2.4°C 35% 9.8 mph NW15.8 kmh NW 15.2 mph24.5 kmh 29.94 in1013.9 mb 0.00 in0.0 mm 0.00 in0.0 mm 0.00 in0.0 mm
11:05 AM 63.9°F17.7°C 35.8°F2.1°C 35% 9.8 mph NNW15.8 kmh NNW 15.2 mph24.5 kmh 29.94 in1013.9 mb 0.00 in0.0 mm 0.00 in0.0 mm 0.00 in0.0 mm
11:06 AM 64.5°F18.1°C 36.2°F2.3°C 35% 9.5 mph N15.3 kmh N 15.2 mph24.5 kmh 29.94 in1013.9 mb 0.00 in0.0 mm 0.00 in0.0 mm 0.00 in0.0 mm
11:07 AM 65.2°F18.4°C 36.9°F2.7°C 35% 9.6 mph N15.4 kmh N 15.2 mph24.5 kmh 29.94 in1013.9 mb 0.00 in0.0 mm 0.00 in0.0 mm 0.00 in0.0 mm
11:08 AM 64.1°F17.8°C 35.9°F2.2°C 35% 9.5 mph N15.3 kmh N 15.2 mph24.5 kmh 29.94 in1013.9 mb 0.00 in0.0 mm 0.00 in0.0 mm 0.00 in0.0 mm
11:09 AM 64.8°F18.2°C 36.6°F2.6°C 35% 9.5 mph NNW15.3 kmh NNW 15.2 mph24.5 kmh 29.94 in1013.9 mb 0.00 in0.0 mm 0.00 in0.0 mm 0.00 in0.0 mm
11:10 AM 65.0°F18.3°C 37.4°F3.0°C 36% 9.9 mph NNW15.9 kmh NNW 15.2 mph24.5 kmh 29.94 in1013.9 mb 0.00 in0.0 mm 0.00 in0.0 mm 0.00 in0.0 mm
11:11 AM 64.7°F18.2°C 36.4°F2.4°C 35% 10.1 mph NNW16.3 kmh NNW 15.2 mph24.5 kmh 29.94 in1013.9 mb 0.00 in0.0 mm 0.00 in0.0 mm 0.00 in0.0 mm
11:12 AM 64.7°F18.2°C 36.4°F2.4°C 35% 10.2 mph NW16.4 kmh NW 15.2 mph24.5 kmh 29.94 in1013.9 mb 0.00 in0.0 mm 0.00 in0.0 mm 0.00 in0.0 mm
11:13 AM 64.7°F18.2°C 36.4°F2.4°C 35% 10.0 mph NW16.1 kmh NW 15.2 mph24.5 kmh 29.94 in1013.9 mb 0.00 in0.0 mm 0.00 in0.0 mm 0.00 in0.0 mm
11:14 AM 64.7°F18.2°C 36.4°F2.4°C 35% 9.3 mph NW15.0 kmh NW 11.4 mph18.3 kmh 29.94 in1013.9 mb 0.00 in0.0 mm 0.00 in0.0 mm 0.00 in0.0 mm
11:15 AM 65.9°F18.8°C 37.5°F3.1°C 35% 8.7 mph NW14.0 kmh NW 11.4 mph18.3 kmh 29.94 in1013.9 mb 0.00 in0.0 mm 0.00 in0.0 mm 0.00 in0.0 mm
11:16 AM 66.3°F19.1°C 37.8°F3.2°C 35% 8.5 mph NW13.7 kmh NW 11.4 mph18.3 kmh 29.94 in1013.9 mb 0.00 in0.0 mm 0.00 in0.0 mm 0.00 in0.0 mm
11:17 AM 65.7°F18.7°C 36.6°F2.6°C 34% 8.8 mph NW14.2 kmh NW 13.6 mph21.9 kmh 29.94 in1013.9 mb 0.00 in0.0 mm 0.00 in0.0 mm 0.00 in0.0 mm
11:18 AM 65.6°F18.7°C 35.7°F2.1°C 33% 8.9 mph NW14.3 kmh NW 13.6 mph21.9 kmh 29.94 in1013.9 mb 0.00 in0.0 mm 0.00 in0.0 mm 0.00 in0.0 mm
11:19 AM 65.2°F18.4°C 35.4°F1.9°C 33% 9.5 mph NW15.3 kmh NW 17.4 mph28.0 kmh 29.94 in1013.9 mb 0.00 in0.0 mm 0.00 in0.0 mm 0.00 in0.0 mm
11:20 AM 65.4°F18.6°C 35.6°F2.0°C 33% 9.8 mph NNW15.8 kmh NNW 17.4 mph28.0 kmh 29.94 in1013.9 mb 0.00 in0.0 mm 0.00 in0.0 mm 0.00 in0.0 mm
11:21 AM 65.0°F18.3°C 36.0°F2.2°C 34% 9.9 mph NNW15.9 kmh NNW 17.4 mph28.0 kmh 29.94 in1013.9 mb 0.00 in0.0 mm 0.00 in0.0 mm 0.00 in0.0 mm
11:22 AM 65.7°F18.7°C 35.9°F2.2°C 33% 9.7 mph NNW15.6 kmh NNW 17.4 mph28.0 kmh 29.94 in1013.9 mb 0.00 in0.0 mm 0.00 in0.0 mm 0.00 in0.0 mm
11:23 AM 65.6°F18.7°C 35.7°F2.1°C 33% 9.4 mph NNW15.1 kmh NNW 17.4 mph28.0 kmh 29.94 in1013.9 mb 0.00 in0.0 mm 0.00 in0.0 mm 0.00 in0.0 mm
11:24 AM 66.3°F19.1°C 37.1°F2.8°C 34% 9.9 mph N15.9 kmh N 17.4 mph28.0 kmh 29.94 in1013.9 mb 0.00 in0.0 mm 0.00 in0.0 mm 0.00 in0.0 mm
11:25 AM 66.5°F19.2°C 37.3°F2.9°C 34% 10.4 mph N16.7 kmh N 17.4 mph28.0 kmh 29.94 in1013.9 mb 0.00 in0.0 mm 0.00 in0.0 mm 0.00 in0.0 mm
11:26 AM 66.6°F19.2°C 37.4°F3.0°C 34% 10.8 mph N17.4 kmh N 17.4 mph28.0 kmh 29.94 in1013.9 mb 0.00 in0.0 mm 0.00 in0.0 mm 0.00 in0.0 mm
11:27 AM 65.9°F18.8°C 36.8°F2.7°C 34% 10.6 mph N17.1 kmh N 17.4 mph28.0 kmh 29.94 in1013.9 mb 0.00 in0.0 mm 0.00 in0.0 mm 0.00 in0.0 mm
11:28 AM 66.5°F19.2°C 37.3°F2.9°C 34% 10.8 mph N17.4 kmh N 17.4 mph28.0 kmh 29.94 in1013.9 mb 0.00 in0.0 mm 0.00 in0.0 mm 0.00 in0.0 mm
11:29 AM 65.6°F18.7°C 34.9°F1.6°C 32% 10.9 mph N17.5 kmh N 16.8 mph27.0 kmh 29.94 in1013.9 mb 0.00 in0.0 mm 0.00 in0.0 mm 0.00 in0.0 mm
11:30 AM 65.9°F18.8°C 35.2°F1.8°C 32% 10.8 mph N17.4 kmh N 16.8 mph27.0 kmh 29.94 in1013.9 mb 0.00 in0.0 mm 0.00 in0.0 mm 0.00 in0.0 mm
11:31 AM 65.9°F18.8°C 35.2°F1.8°C 32% 11.0 mph N17.7 kmh N 16.8 mph27.0 kmh 29.94 in1013.9 mb 0.00 in0.0 mm 0.00 in0.0 mm 0.00 in0.0 mm
11:32 AM 66.1°F18.9°C 35.4°F1.9°C 32% 11.0 mph N17.7 kmh N 16.8 mph27.0 kmh 29.94 in1013.9 mb 0.00 in0.0 mm 0.00 in0.0 mm 0.00 in0.0 mm
11:33 AM 66.1°F18.9°C 35.4°F1.9°C 32% 11.5 mph N18.5 kmh N 16.8 mph27.0 kmh 29.94 in1013.9 mb 0.00 in0.0 mm 0.00 in0.0 mm 0.00 in0.0 mm
11:34 AM 65.7°F18.7°C 34.3°F1.3°C 31% 11.6 mph N18.7 kmh N 16.8 mph27.0 kmh 29.94 in1013.9 mb 0.00 in0.0 mm 0.00 in0.0 mm 0.00 in0.0 mm
11:35 AM 66.1°F18.9°C 35.4°F1.9°C 32% 11.9 mph N19.2 kmh N 16.8 mph27.0 kmh 29.94 in1013.9 mb 0.00 in0.0 mm 0.00 in0.0 mm 0.00 in0.0 mm
11:36 AM 66.3°F19.1°C 35.6°F2.0°C 32% 11.9 mph N19.2 kmh N 16.8 mph27.0 kmh 29.94 in1013.9 mb 0.00 in0.0 mm 0.00 in0.0 mm 0.00 in0.0 mm
11:37 AM 66.5°F19.2°C 35.7°F2.1°C 32% 11.6 mph N18.7 kmh N 16.8 mph27.0 kmh 29.94 in1013.9 mb 0.00 in0.0 mm 0.00 in0.0 mm 0.00 in0.0 mm
11:38 AM 67.0°F19.4°C 37.0°F2.8°C 33% 10.9 mph N17.5 kmh N 16.8 mph27.0 kmh 29.94 in1013.9 mb 0.00 in0.0 mm 0.00 in0.0 mm 0.00 in0.0 mm
11:39 AM 67.5°F19.7°C 37.4°F3.0°C 33% 10.7 mph N17.2 kmh N 15.2 mph24.5 kmh 29.94 in1013.9 mb 0.00 in0.0 mm 0.00 in0.0 mm 0.00 in0.0 mm
11:40 AM 66.6°F19.2°C 35.9°F2.2°C 32% 10.5 mph N16.9 kmh N 15.2 mph24.5 kmh 29.94 in1013.9 mb 0.00 in0.0 mm 0.00 in0.0 mm 0.00 in0.0 mm
11:41 AM 67.5°F19.7°C 36.7°F2.6°C 32% 9.8 mph N15.8 kmh N 15.2 mph24.5 kmh 29.94 in1013.9 mb 0.00 in0.0 mm 0.00 in0.0 mm 0.00 in0.0 mm
11:42 AM 67.9°F19.9°C 37.8°F3.2°C 33% 9.8 mph NNE15.8 kmh NNE 15.2 mph24.5 kmh 29.94 in1013.9 mb 0.00 in0.0 mm 0.00 in0.0 mm 0.00 in0.0 mm
11:43 AM 67.5°F19.7°C 36.7°F2.6°C 32% 9.6 mph N15.4 kmh N 15.2 mph24.5 kmh 29.94 in1013.9 mb 0.00 in0.0 mm 0.00 in0.0 mm 0.00 in0.0 mm
11:44 AM 66.6°F19.2°C 35.9°F2.2°C 32% 9.3 mph N15.0 kmh N 15.2 mph24.5 kmh 29.94 in1013.9 mb 0.00 in0.0 mm 0.00 in0.0 mm 0.00 in0.0 mm
11:45 AM 67.2°F19.6°C 36.3°F2.4°C 32% 9.0 mph N14.5 kmh N 15.2 mph24.5 kmh 29.94 in1013.9 mb 0.00 in0.0 mm 0.00 in0.0 mm 0.00 in0.0 mm
11:46 AM 66.8°F19.3°C 36.0°F2.2°C 32% 8.9 mph N14.3 kmh N 15.2 mph24.5 kmh 29.94 in1013.9 mb 0.00 in0.0 mm 0.00 in0.0 mm 0.00 in0.0 mm
11:47 AM 67.2°F19.6°C 36.3°F2.4°C 32% 9.3 mph N15.0 kmh N 15.2 mph24.5 kmh 29.94 in1013.9 mb 0.00 in0.0 mm 0.00 in0.0 mm 0.00 in0.0 mm
11:48 AM 65.9°F18.8°C 34.5°F1.4°C 31% 10.2 mph N16.4 kmh N 15.2 mph24.5 kmh 29.94 in1013.9 mb 0.00 in0.0 mm 0.00 in0.0 mm 0.00 in0.0 mm
11:49 AM 66.5°F19.2°C 35.7°F2.1°C 32% 10.1 mph N16.3 kmh N 15.2 mph24.5 kmh 29.94 in1013.9 mb 0.00 in0.0 mm 0.00 in0.0 mm 0.00 in0.0 mm
11:50 AM 66.8°F19.3°C 36.0°F2.2°C 32% 10.3 mph N16.6 kmh N 15.2 mph24.5 kmh 29.94 in1013.9 mb 0.00 in0.0 mm 0.00 in0.0 mm 0.00 in0.0 mm
11:51 AM 66.5°F19.2°C 35.7°F2.1°C 32% 11.1 mph N17.9 kmh N 15.2 mph24.5 kmh 29.94 in1013.9 mb 0.00 in0.0 mm 0.00 in0.0 mm 0.00 in0.0 mm
11:52 AM 67.0°F19.4°C 37.0°F2.8°C 33% 11.5 mph N18.5 kmh N 15.2 mph24.5 kmh 29.94 in1013.9 mb 0.00 in0.0 mm 0.00 in0.0 mm 0.00 in0.0 mm
11:53 AM 66.6°F19.2°C 35.9°F2.2°C 32% 11.4 mph N18.3 kmh N 15.2 mph24.5 kmh 29.94 in1013.9 mb 0.00 in0.0 mm 0.00 in0.0 mm 0.00 in0.0 mm
11:54 AM 67.2°F19.6°C 36.3°F2.4°C 32% 11.0 mph N17.7 kmh N 15.2 mph24.5 kmh 29.94 in1013.9 mb 0.00 in0.0 mm 0.00 in0.0 mm 0.00 in0.0 mm
11:55 AM 67.2°F19.6°C 35.5°F1.9°C 31% 11.4 mph N18.3 kmh N 15.2 mph24.5 kmh 29.94 in1013.9 mb 0.00 in0.0 mm 0.00 in0.0 mm 0.00 in0.0 mm
11:56 AM 66.5°F19.2°C 34.9°F1.6°C 31% 11.9 mph N19.2 kmh N 15.2 mph24.5 kmh 29.94 in1013.9 mb 0.00 in0.0 mm 0.00 in0.0 mm 0.00 in0.0 mm
11:57 AM 67.4°F19.7°C 35.7°F2.1°C 31% 11.8 mph N19.0 kmh N 15.2 mph24.5 kmh 29.94 in1013.9 mb 0.00 in0.0 mm 0.00 in0.0 mm 0.00 in0.0 mm
11:58 AM 67.2°F19.6°C 35.5°F1.9°C 31% 11.3 mph N18.2 kmh N 15.2 mph24.5 kmh 29.94 in1013.9 mb 0.00 in0.0 mm 0.00 in0.0 mm 0.00 in0.0 mm
11:59 AM 67.2°F19.6°C 35.5°F1.9°C 31% 11.6 mph N18.7 kmh N 15.9 mph25.6 kmh 29.94 in1013.9 mb 0.00 in0.0 mm 0.00 in0.0 mm 0.00 in0.0 mm
12:00 PM 66.3°F19.1°C 33.9°F1.1°C 30% 11.9 mph N19.2 kmh N 16.8 mph27.0 kmh 29.94 in1013.9 mb 0.00 in0.0 mm 0.00 in0.0 mm 0.00 in0.0 mm
12:01 PM 66.8°F19.3°C 36.0°F2.2°C 32% 11.5 mph N18.5 kmh N 16.8 mph27.0 kmh 29.94 in1013.9 mb 0.00 in0.0 mm 0.00 in0.0 mm 0.00 in0.0 mm
12:02 PM 66.8°F19.3°C 36.0°F2.2°C 32% 11.6 mph N18.7 kmh N 16.8 mph27.0 kmh 29.94 in1013.9 mb 0.00 in0.0 mm 0.00 in0.0 mm 0.00 in0.0 mm
12:03 PM 66.5°F19.2°C 34.9°F1.6°C 31% 11.8 mph NNW19.0 kmh NNW 16.8 mph27.0 kmh 29.94 in1013.9 mb 0.00 in0.0 mm 0.00 in0.0 mm 0.00 in0.0 mm
12:04 PM 66.5°F19.2°C 34.9°F1.6°C 31% 12.5 mph NNW20.1 kmh NNW 16.8 mph27.0 kmh 29.94 in1013.9 mb 0.00 in0.0 mm 0.00 in0.0 mm 0.00 in0.0 mm
12:05 PM 66.8°F19.3°C 35.2°F1.8°C 31% 12.1 mph NNW19.5 kmh NNW 16.8 mph27.0 kmh 29.94 in1013.9 mb 0.00 in0.0 mm 0.00 in0.0 mm 0.00 in0.0 mm
12:06 PM 67.0°F19.4°C 35.4°F1.9°C 31% 11.9 mph NNW19.2 kmh NNW 16.8 mph27.0 kmh 29.94 in1013.9 mb 0.00 in0.0 mm 0.00 in0.0 mm 0.00 in0.0 mm
12:07 PM 66.6°F19.2°C 35.1°F1.7°C 31% 12.6 mph NNW20.3 kmh NNW 17.4 mph28.0 kmh 29.94 in1013.9 mb 0.00 in0.0 mm 0.00 in0.0 mm 0.00 in0.0 mm
12:08 PM 66.6°F19.2°C 35.1°F1.7°C 31% 12.5 mph N20.1 kmh N 17.4 mph28.0 kmh 29.94 in1013.9 mb 0.00 in0.0 mm 0.00 in0.0 mm 0.00 in0.0 mm
12:09 PM 67.0°F19.4°C 35.4°F1.9°C 31% 11.9 mph N19.2 kmh N 17.4 mph28.0 kmh 29.94 in1013.9 mb 0.00 in0.0 mm 0.00 in0.0 mm 0.00 in0.0 mm
12:10 PM 67.7°F19.8°C 36.8°F2.7°C 32% 11.2 mph N18.0 kmh N 17.4 mph28.0 kmh 29.94 in1013.9 mb 0.00 in0.0 mm 0.00 in0.0 mm 0.00 in0.0 mm
12:11 PM 67.9°F19.9°C 37.0°F2.8°C 32% 11.5 mph N18.5 kmh N 17.4 mph28.0 kmh 29.94 in1013.9 mb 0.00 in0.0 mm 0.00 in0.0 mm 0.00 in0.0 mm
12:12 PM 66.6°F19.2°C 34.3°F1.3°C 30% 11.8 mph N19.0 kmh N 17.4 mph28.0 kmh 29.94 in1013.9 mb 0.00 in0.0 mm 0.00 in0.0 mm 0.00 in0.0 mm
12:13 PM 66.8°F19.3°C 35.2°F1.8°C 31% 11.7 mph N18.8 kmh N 17.4 mph28.0 kmh 29.94 in1013.9 mb 0.00 in0.0 mm 0.00 in0.0 mm 0.00 in0.0 mm
12:14 PM 66.5°F19.2°C 34.9°F1.6°C 31% 11.7 mph N18.8 kmh N 17.4 mph28.0 kmh 29.94 in1013.9 mb 0.00 in0.0 mm 0.00 in0.0 mm 0.00 in0.0 mm
12:15 PM 66.8°F19.3°C 35.2°F1.8°C 31% 12.1 mph N19.5 kmh N 17.4 mph28.0 kmh 29.94 in1013.9 mb 0.00 in0.0 mm 0.00 in0.0 mm 0.00 in0.0 mm
12:16 PM 67.4°F19.7°C 34.9°F1.6°C 30% 12.4 mph N20.0 kmh N 17.4 mph28.0 kmh 29.94 in1013.9 mb 0.00 in0.0 mm 0.00 in0.0 mm 0.00 in0.0 mm
12:17 PM 67.2°F19.6°C 34.7°F1.5°C 30% 12.0 mph N19.3 kmh N 15.9 mph25.6 kmh 29.94 in1013.9 mb 0.00 in0.0 mm 0.00 in0.0 mm 0.00 in0.0 mm
12:18 PM 67.4°F19.7°C 35.7°F2.1°C 31% 12.3 mph N19.8 kmh N 15.9 mph25.6 kmh 29.94 in1013.9 mb 0.00 in0.0 mm 0.00 in0.0 mm 0.00 in0.0 mm
12:19 PM 67.4°F19.7°C 35.7°F2.1°C 31% 12.8 mph NNW20.6 kmh NNW 15.9 mph25.6 kmh 29.94 in1013.9 mb 0.00 in0.0 mm 0.00 in0.0 mm 0.00 in0.0 mm
12:20 PM 67.0°F19.4°C 33.7°F0.9°C 29% 13.3 mph NNW21.4 kmh NNW 15.9 mph25.6 kmh 29.94 in1013.9 mb 0.00 in0.0 mm 0.00 in0.0 mm 0.00 in0.0 mm
12:21 PM 67.4°F19.7°C 34.0°F1.1°C 29% 13.3 mph NW21.4 kmh NW 15.9 mph25.6 kmh 29.94 in1013.9 mb 0.00 in0.0 mm 0.00 in0.0 mm 0.00 in0.0 mm
12:22 PM 67.5°F19.7°C 35.0°F1.7°C 30% 13.4 mph NW21.6 kmh NW 16.8 mph27.0 kmh 29.94 in1013.9 mb 0.00 in0.0 mm 0.00 in0.0 mm 0.00 in0.0 mm
12:23 PM 67.7°F19.8°C 35.2°F1.8°C 30% 13.5 mph NNW21.7 kmh NNW 16.8 mph27.0 kmh 29.94 in1013.9 mb 0.00 in0.0 mm 0.00 in0.0 mm 0.00 in0.0 mm
12:24 PM 67.5°F19.7°C 35.0°F1.7°C 30% 13.5 mph NW21.7 kmh NW 16.8 mph27.0 kmh 29.94 in1013.9 mb 0.00 in0.0 mm 0.00 in0.0 mm 0.00 in0.0 mm
12:25 PM 67.9°F19.9°C 35.3°F1.8°C 30% 13.4 mph NW21.6 kmh NW 16.8 mph27.0 kmh 29.94 in1013.9 mb 0.00 in0.0 mm 0.00 in0.0 mm 0.00 in0.0 mm
12:26 PM 67.4°F19.7°C 34.0°F1.1°C 29% 13.2 mph NW21.2 kmh NW 16.8 mph27.0 kmh 29.94 in1013.9 mb 0.00 in0.0 mm 0.00 in0.0 mm 0.00 in0.0 mm
12:27 PM 67.4°F19.7°C 34.0°F1.1°C 29% 13.5 mph NW21.7 kmh NW 16.8 mph27.0 kmh 29.94 in1013.9 mb 0.00 in0.0 mm 0.00 in0.0 mm 0.00 in0.0 mm
12:28 PM 67.9°F19.9°C 35.3°F1.8°C 30% 13.5 mph NW21.7 kmh NW 16.8 mph27.0 kmh 29.94 in1013.9 mb 0.00 in0.0 mm 0.00 in0.0 mm 0.00 in0.0 mm
12:29 PM 68.1°F20.1°C 35.5°F1.9°C 30% 13.5 mph NNW21.7 kmh NNW 16.8 mph27.0 kmh 29.94 in1013.9 mb 0.00 in0.0 mm 0.00 in0.0 mm 0.00 in0.0 mm
12:30 PM 66.8°F19.3°C 34.4°F1.3°C 30% 13.4 mph NNW21.6 kmh NNW 16.8 mph27.0 kmh 29.94 in1013.9 mb 0.00 in0.0 mm 0.00 in0.0 mm 0.00 in0.0 mm
12:31 PM 66.8°F19.3°C 34.4°F1.3°C 30% 13.2 mph NNW21.2 kmh NNW 16.8 mph27.0 kmh 29.94 in1013.9 mb 0.00 in0.0 mm 0.00 in0.0 mm 0.00 in0.0 mm
12:32 PM 66.8°F19.3°C 34.4°F1.3°C 30% 12.7 mph NNW20.4 kmh NNW 16.8 mph27.0 kmh 29.94 in1013.9 mb 0.00 in0.0 mm 0.00 in0.0 mm 0.00 in0.0 mm
12:33 PM 66.8°F19.3°C 34.4°F1.3°C 30% 12.6 mph NNW20.3 kmh NNW 15.2 mph24.5 kmh 29.94 in1013.9 mb 0.00 in0.0 mm 0.00 in0.0 mm 0.00 in0.0 mm
12:34 PM 66.8°F19.3°C 34.4°F1.3°C 30% 12.3 mph NNW19.8 kmh NNW 15.2 mph24.5 kmh 29.94 in1013.9 mb 0.00 in0.0 mm 0.00 in0.0 mm 0.00 in0.0 mm
12:35 PM 67.0°F19.4°C 33.7°F0.9°C 29% 12.7 mph NNW20.4 kmh NNW 15.9 mph25.6 kmh 29.94 in1013.9 mb 0.00 in0.0 mm 0.00 in0.0 mm 0.00 in0.0 mm
12:36 PM 66.6°F19.2°C 34.3°F1.3°C 30% 12.5 mph NNW20.1 kmh NNW 15.9 mph25.6 kmh 29.94 in1013.9 mb 0.00 in0.0 mm 0.00 in0.0 mm 0.00 in0.0 mm
12:37 PM 67.4°F19.7°C 35.7°F2.1°C 31% 11.7 mph NNW18.8 kmh NNW 15.9 mph25.6 kmh 29.94 in1013.9 mb 0.00 in0.0 mm 0.00 in0.0 mm 0.00 in0.0 mm
12:38 PM 67.2°F19.6°C 35.5°F1.9°C 31% 11.7 mph NNW18.8 kmh NNW 15.9 mph25.6 kmh 29.94 in1013.9 mb 0.00 in0.0 mm 0.00 in0.0 mm 0.00 in0.0 mm
12:39 PM 67.0°F19.4°C 34.6°F1.4°C 30% 11.7 mph NNW18.8 kmh NNW 15.9 mph25.6 kmh 29.94 in1013.9 mb 0.00 in0.0 mm 0.00 in0.0 mm 0.00 in0.0 mm
12:40 PM 66.8°F19.3°C 34.4°F1.3°C 30% 11.5 mph NNW18.5 kmh NNW 15.9 mph25.6 kmh 29.94 in1013.9 mb 0.00 in0.0 mm 0.00 in0.0 mm 0.00 in0.0 mm
12:41 PM 66.8°F19.3°C 35.2°F1.8°C 31% 11.2 mph NNW18.0 kmh NNW 15.9 mph25.6 kmh 29.94 in1013.9 mb 0.00 in0.0 mm 0.00 in0.0 mm 0.00 in0.0 mm
12:42 PM 66.8°F19.3°C 36.0°F2.2°C 32% 11.5 mph NNW18.5 kmh NNW 15.9 mph25.6 kmh 29.94 in1013.9 mb 0.00 in0.0 mm 0.00 in0.0 mm 0.00 in0.0 mm
12:43 PM 66.5°F19.2°C 34.9°F1.6°C 31% 11.6 mph NNW18.7 kmh NNW 15.9 mph25.6 kmh 29.94 in1013.9 mb 0.00 in0.0 mm 0.00 in0.0 mm 0.00 in0.0 mm
12:44 PM 67.4°F19.7°C 34.9°F1.6°C 30% 11.7 mph NNW18.8 kmh NNW 15.9 mph25.6 kmh 29.94 in1013.9 mb 0.00 in0.0 mm 0.00 in0.0 mm 0.00 in0.0 mm
12:45 PM 67.4°F19.7°C 34.0°F1.1°C 29% 11.4 mph NNW18.3 kmh NNW 15.9 mph25.6 kmh 29.94 in1013.9 mb 0.00 in0.0 mm 0.00 in0.0 mm 0.00 in0.0 mm
12:46 PM 68.3°F20.2°C 36.5°F2.5°C 31% 11.3 mph NNW18.2 kmh NNW 15.9 mph25.6 kmh 29.94 in1013.9 mb 0.00 in0.0 mm 0.00 in0.0 mm 0.00 in0.0 mm
12:47 PM 68.4°F20.2°C 35.8°F2.1°C 30% 11.9 mph N19.2 kmh N 15.9 mph25.6 kmh 29.94 in1013.9 mb 0.00 in0.0 mm 0.00 in0.0 mm 0.00 in0.0 mm
12:48 PM 68.4°F20.2°C 34.1°F1.2°C 28% 11.8 mph N19.0 kmh N 15.9 mph25.6 kmh 29.94 in1013.9 mb 0.00 in0.0 mm 0.00 in0.0 mm 0.00 in0.0 mm
12:49 PM 68.4°F20.2°C 35.0°F1.7°C 29% 11.4 mph N18.3 kmh N 15.9 mph25.6 kmh 29.94 in1013.9 mb 0.00 in0.0 mm 0.00 in0.0 mm 0.00 in0.0 mm
12:50 PM 68.4°F20.2°C 34.1°F1.2°C 28% 11.9 mph NNW19.2 kmh NNW 16.8 mph27.0 kmh 29.94 in1013.9 mb 0.00 in0.0 mm 0.00 in0.0 mm 0.00 in0.0 mm
12:51 PM 68.1°F20.1°C 33.8°F1.0°C 28% 12.6 mph NNW20.3 kmh NNW 16.8 mph27.0 kmh 29.94 in1013.9 mb 0.00 in0.0 mm 0.00 in0.0 mm 0.00 in0.0 mm
12:52 PM 68.4°F20.2°C 34.1°F1.2°C 28% 12.6 mph NNW20.3 kmh NNW 16.8 mph27.0 kmh 29.94 in1013.9 mb 0.00 in0.0 mm 0.00 in0.0 mm 0.00 in0.0 mm
12:53 PM 68.4°F20.2°C 34.1°F1.2°C 28% 12.8 mph NNW20.6 kmh NNW 16.8 mph27.0 kmh 29.94 in1013.9 mb 0.00 in0.0 mm 0.00 in0.0 mm 0.00 in0.0 mm
12:54 PM 68.6°F20.3°C 34.2°F1.2°C 28% 13.2 mph NNW21.2 kmh NNW 16.8 mph27.0 kmh 29.94 in1013.9 mb 0.00 in0.0 mm 0.00 in0.0 mm 0.00 in0.0 mm
12:55 PM 68.3°F20.2°C 33.0°F0.6°C 27% 13.9 mph N22.4 kmh N 19.0 mph30.6 kmh 29.94 in1013.9 mb 0.00 in0.0 mm 0.00 in0.0 mm 0.00 in0.0 mm
12:56 PM 69.3°F20.7°C 33.9°F1.1°C 27% 13.6 mph N21.9 kmh N 19.0 mph30.6 kmh 29.94 in1013.9 mb 0.00 in0.0 mm 0.00 in0.0 mm 0.00 in0.0 mm
12:57 PM 69.9°F21.1°C 35.3°F1.8°C 28% 13.1 mph N21.1 kmh N 19.0 mph30.6 kmh 29.94 in1013.9 mb 0.00 in0.0 mm 0.00 in0.0 mm 0.00 in0.0 mm
12:58 PM 69.9°F21.1°C 34.4°F1.3°C 27% 13.0 mph N20.9 kmh N 19.0 mph30.6 kmh 29.94 in1013.9 mb 0.00 in0.0 mm 0.00 in0.0 mm 0.00 in0.0 mm
12:59 PM 69.3°F20.7°C 33.0°F0.6°C 26% 13.6 mph N21.9 kmh N 19.0 mph30.6 kmh 29.94 in1013.9 mb 0.00 in0.0 mm 0.00 in0.0 mm 0.00 in0.0 mm
01:00 PM 69.2°F20.7°C 32.9°F0.5°C 26% 14.0 mph N22.5 kmh N 19.0 mph30.6 kmh 29.94 in1013.9 mb 0.00 in0.0 mm 0.00 in0.0 mm 0.00 in0.0 mm
01:01 PM 68.8°F20.4°C 32.5°F0.3°C 26% 13.9 mph N22.4 kmh N 19.0 mph30.6 kmh 29.94 in1013.9 mb 0.00 in0.0 mm 0.00 in0.0 mm 0.00 in0.0 mm
01:02 PM 68.3°F20.2°C 33.0°F0.6°C 27% 14.0 mph NNW22.5 kmh NNW 19.0 mph30.6 kmh 29.94 in1013.9 mb 0.00 in0.0 mm 0.00 in0.0 mm 0.00 in0.0 mm
01:03 PM 68.4°F20.2°C 33.2°F0.7°C 27% 13.9 mph NNW22.4 kmh NNW 19.0 mph30.6 kmh 29.94 in1013.9 mb 0.00 in0.0 mm 0.00 in0.0 mm 0.00 in0.0 mm
01:04 PM 68.6°F20.3°C 34.2°F1.2°C 28% 13.4 mph NNW21.6 kmh NNW 19.0 mph30.6 kmh 29.94 in1013.9 mb 0.00 in0.0 mm 0.00 in0.0 mm 0.00 in0.0 mm
01:05 PM 69.2°F20.7°C 34.7°F1.5°C 28% 13.4 mph NW21.6 kmh NW 19.0 mph30.6 kmh 29.94 in1013.9 mb 0.00 in0.0 mm 0.00 in0.0 mm 0.00 in0.0 mm
01:06 PM 69.0°F20.6°C 33.6°F0.9°C 27% 13.9 mph NW22.4 kmh NW 19.0 mph30.6 kmh 29.94 in1013.9 mb 0.00 in0.0 mm 0.00 in0.0 mm 0.00 in0.0 mm
01:07 PM 69.7°F20.9°C 35.2°F1.8°C 28% 14.1 mph NNW22.7 kmh NNW 19.0 mph30.6 kmh 29.94 in1013.9 mb 0.00 in0.0 mm 0.00 in0.0 mm 0.00 in0.0 mm
01:08 PM 69.0°F20.6°C 32.7°F0.4°C 26% 15.0 mph NW24.1 kmh NW 20.6 mph33.2 kmh 29.94 in1013.9 mb 0.00 in0.0 mm 0.00 in0.0 mm 0.00 in0.0 mm
01:09 PM 69.0°F20.6°C 32.7°F0.4°C 26% 14.8 mph NW23.8 kmh NW 20.6 mph33.2 kmh 29.94 in1013.9 mb 0.00 in0.0 mm 0.00 in0.0 mm 0.00 in0.0 mm
01:10 PM 69.7°F20.9°C 34.3°F1.3°C 27% 14.7 mph NNW23.7 kmh NNW 20.6 mph33.2 kmh 29.94 in1013.9 mb 0.00 in0.0 mm 0.00 in0.0 mm 0.00 in0.0 mm
01:11 PM 69.5°F20.8°C 34.1°F1.2°C 27% 14.1 mph N22.7 kmh N 20.6 mph33.2 kmh 29.94 in1013.9 mb 0.00 in0.0 mm 0.00 in0.0 mm 0.00 in0.0 mm
01:12 PM 69.3°F20.7°C 33.0°F0.6°C 26% 14.4 mph N23.2 kmh N 20.6 mph33.2 kmh 29.94 in1013.9 mb 0.00 in0.0 mm 0.00 in0.0 mm 0.00 in0.0 mm
01:13 PM 68.8°F20.4°C 32.5°F0.3°C 26% 14.9 mph N24.0 kmh N 20.6 mph33.2 kmh 29.94 in1013.9 mb 0.00 in0.0 mm 0.00 in0.0 mm 0.00 in0.0 mm
01:14 PM 68.6°F20.3°C 32.4°F0.2°C 26% 15.5 mph N24.9 kmh N 20.6 mph33.2 kmh 29.94 in1013.9 mb 0.00 in0.0 mm 0.00 in0.0 mm 0.00 in0.0 mm
01:15 PM 68.6°F20.3°C 33.3°F0.7°C 27% 15.1 mph N24.3 kmh N 20.6 mph33.2 kmh 29.94 in1013.9 mb 0.00 in0.0 mm 0.00 in0.0 mm 0.00 in0.0 mm
01:16 PM 68.4°F20.2°C 33.2°F0.7°C 27% 16.0 mph N25.7 kmh N 22.8 mph36.7 kmh 29.94 in1013.9 mb 0.00 in0.0 mm 0.00 in0.0 mm 0.00 in0.0 mm
01:17 PM 68.3°F20.2°C 33.0°F0.6°C 27% 16.9 mph NNW27.2 kmh NNW 23.5 mph37.8 kmh 29.94 in1013.9 mb 0.00 in0.0 mm 0.00 in0.0 mm 0.00 in0.0 mm
01:18 PM 68.3°F20.2°C 33.0°F0.6°C 27% 16.9 mph N27.2 kmh N 23.5 mph37.8 kmh 29.94 in1013.9 mb 0.00 in0.0 mm 0.00 in0.0 mm 0.00 in0.0 mm
01:19 PM 68.4°F20.2°C 33.2°F0.7°C 27% 17.7 mph NNW28.5 kmh NNW 23.5 mph37.8 kmh 29.94 in1013.9 mb 0.00 in0.0 mm 0.00 in0.0 mm 0.00 in0.0 mm
01:20 PM 68.8°F20.4°C 32.5°F0.3°C 26% 17.4 mph NNW28.0 kmh NNW 23.5 mph37.8 kmh 29.94 in1013.9 mb 0.00 in0.0 mm 0.00 in0.0 mm 0.00 in0.0 mm
01:21 PM 68.3°F20.2°C 32.1°F0.1°C 26% 17.9 mph N28.8 kmh N 23.5 mph37.8 kmh 29.94 in1013.9 mb 0.00 in0.0 mm 0.00 in0.0 mm 0.00 in0.0 mm
01:22 PM 68.6°F20.3°C 33.3°F0.7°C 27% 17.8 mph N28.6 kmh N 23.5 mph37.8 kmh 29.94 in1013.9 mb 0.00 in0.0 mm 0.00 in0.0 mm 0.00 in0.0 mm
01:23 PM 68.6°F20.3°C 33.3°F0.7°C 27% 18.0 mph N29.0 kmh N 23.5 mph37.8 kmh 29.94 in1013.9 mb 0.00 in0.0 mm 0.00 in0.0 mm 0.00 in0.0 mm
01:24 PM 68.3°F20.2°C 33.0°F0.6°C 27% 17.8 mph NNW28.6 kmh NNW 23.5 mph37.8 kmh 29.94 in1013.9 mb 0.00 in0.0 mm 0.00 in0.0 mm 0.00 in0.0 mm
01:25 PM 68.3°F20.2°C 33.0°F0.6°C 27% 17.2 mph NNW27.7 kmh NNW 23.5 mph37.8 kmh 29.94 in1013.9 mb 0.00 in0.0 mm 0.00 in0.0 mm 0.00 in0.0 mm
01:26 PM 68.6°F20.3°C 34.2°F1.2°C 28% 15.8 mph N25.4 kmh N 23.5 mph37.8 kmh 29.94 in1013.9 mb 0.00 in0.0 mm 0.00 in0.0 mm 0.00 in0.0 mm
01:27 PM 69.0°F20.6°C 33.6°F0.9°C 27% 15.1 mph N24.3 kmh N 23.5 mph37.8 kmh 29.94 in1013.9 mb 0.00 in0.0 mm 0.00 in0.0 mm 0.00 in0.0 mm
01:28 PM 69.7°F20.9°C 35.2°F1.8°C 28% 14.3 mph N23.0 kmh N 22.1 mph35.6 kmh 29.94 in1013.9 mb 0.00 in0.0 mm 0.00 in0.0 mm 0.00 in0.0 mm
01:29 PM 69.9°F21.1°C 34.4°F1.3°C 27% 12.8 mph N20.6 kmh N 19.7 mph31.7 kmh 29.94 in1013.9 mb 0.00 in0.0 mm 0.00 in0.0 mm 0.00 in0.0 mm
01:30 PM 70.2°F21.2°C 34.7°F1.5°C 27% 12.6 mph N20.3 kmh N 19.7 mph31.7 kmh 29.94 in1013.9 mb 0.00 in0.0 mm 0.00 in0.0 mm 0.00 in0.0 mm
01:31 PM 70.4°F21.3°C 35.8°F2.1°C 28% 12.6 mph N20.3 kmh N 19.7 mph31.7 kmh 29.94 in1013.9 mb 0.00 in0.0 mm 0.00 in0.0 mm 0.00 in0.0 mm
01:32 PM 68.4°F20.2°C 33.2°F0.7°C 27% 12.9 mph N20.8 kmh N 20.6 mph33.2 kmh 29.94 in1013.9 mb 0.00 in0.0 mm 0.00 in0.0 mm 0.00 in0.0 mm
01:33 PM 69.0°F20.6°C 32.7°F0.4°C 26% 12.1 mph N19.5 kmh N 20.6 mph33.2 kmh 29.94 in1013.9 mb 0.00 in0.0 mm 0.00 in0.0 mm 0.00 in0.0 mm
01:34 PM 68.8°F20.4°C 32.5°F0.3°C 26% 12.0 mph N19.3 kmh N 20.6 mph33.2 kmh 29.94 in1013.9 mb 0.00 in0.0 mm 0.00 in0.0 mm 0.00 in0.0 mm
01:35 PM 68.8°F20.4°C 32.5°F0.3°C 26% 12.8 mph NNW20.6 kmh NNW 20.6 mph33.2 kmh 29.94 in1013.9 mb 0.00 in0.0 mm 0.00 in0.0 mm 0.00 in0.0 mm
01:36 PM 68.3°F20.2°C 33.0°F0.6°C 27% 13.4 mph NNW21.6 kmh NNW 20.6 mph33.2 kmh 29.94 in1013.9 mb 0.00 in0.0 mm 0.00 in0.0 mm 0.00 in0.0 mm
01:37 PM 69.0°F20.6°C 33.6°F0.9°C 27% 13.3 mph NNW21.4 kmh NNW 20.6 mph33.2 kmh 29.94 in1013.9 mb 0.00 in0.0 mm 0.00 in0.0 mm 0.00 in0.0 mm
01:38 PM 68.6°F20.3°C 33.3°F0.7°C 27% 13.7 mph NNW22.0 kmh NNW 20.6 mph33.2 kmh 29.94 in1013.9 mb 0.00 in0.0 mm 0.00 in0.0 mm 0.00 in0.0 mm
01:39 PM 68.8°F20.4°C 32.5°F0.3°C 26% 14.5 mph NNW23.3 kmh NNW 20.6 mph33.2 kmh 29.94 in1013.9 mb 0.00 in0.0 mm 0.00 in0.0 mm 0.00 in0.0 mm
01:40 PM 69.0°F20.6°C 32.7°F0.4°C 26% 14.8 mph NNW23.8 kmh NNW 20.6 mph33.2 kmh 29.94 in1013.9 mb 0.00 in0.0 mm 0.00 in0.0 mm 0.00 in0.0 mm
01:41 PM 69.3°F20.7°C 33.0°F0.6°C 26% 14.9 mph NNW24.0 kmh NNW 20.6 mph33.2 kmh 29.94 in1013.9 mb 0.00 in0.0 mm 0.00 in0.0 mm 0.00 in0.0 mm
01:42 PM 69.3°F20.7°C 33.0°F0.6°C 26% 14.3 mph NNW23.0 kmh NNW 17.4 mph28.0 kmh 29.94 in1013.9 mb 0.00 in0.0 mm 0.00 in0.0 mm 0.00 in0.0 mm
01:43 PM 69.2°F20.7°C 32.9°F0.5°C 26% 14.5 mph NNW23.3 kmh NNW 17.4 mph28.0 kmh 29.94 in1013.9 mb 0.00 in0.0 mm 0.00 in0.0 mm 0.00 in0.0 mm
01:44 PM 69.3°F20.7°C 33.0°F0.6°C 26% 14.4 mph NNW23.2 kmh NNW 21.3 mph34.3 kmh 29.94 in1013.9 mb 0.00 in0.0 mm 0.00 in0.0 mm 0.00 in0.0 mm
01:45 PM 68.8°F20.4°C 31.6°F-0.2°C 25% 14.6 mph N23.5 kmh N 21.3 mph34.3 kmh 29.94 in1013.9 mb 0.00 in0.0 mm 0.00 in0.0 mm 0.00 in0.0 mm
01:46 PM 68.4°F20.2°C 33.2°F0.7°C 27% 14.4 mph N23.2 kmh N 21.3 mph34.3 kmh 29.94 in1013.9 mb 0.00 in0.0 mm 0.00 in0.0 mm 0.00 in0.0 mm
01:47 PM 68.3°F20.2°C 33.0°F0.6°C 27% 14.9 mph N24.0 kmh N 21.3 mph34.3 kmh 29.94 in1013.9 mb 0.00 in0.0 mm 0.00 in0.0 mm 0.00 in0.0 mm
01:48 PM 68.1°F20.1°C 32.9°F0.5°C 27% 14.8 mph N23.8 kmh N 21.3 mph34.3 kmh 29.94 in1013.9 mb 0.00 in0.0 mm 0.00 in0.0 mm 0.00 in0.0 mm
01:49 PM 68.1°F20.1°C 32.9°F0.5°C 27% 14.3 mph NNW23.0 kmh NNW 21.3 mph34.3 kmh 29.94 in1013.9 mb 0.00 in0.0 mm 0.00 in0.0 mm 0.00 in0.0 mm
01:50 PM 68.4°F20.2°C 33.2°F0.7°C 27% 13.7 mph NNW22.0 kmh NNW 21.3 mph34.3 kmh 29.94 in1013.9 mb 0.00 in0.0 mm 0.00 in0.0 mm 0.00 in0.0 mm
01:51 PM 68.8°F20.4°C 33.5°F0.8°C 27% 12.9 mph NW20.8 kmh NW 21.3 mph34.3 kmh 29.94 in1013.9 mb 0.00 in0.0 mm 0.00 in0.0 mm 0.00 in0.0 mm
01:52 PM 68.1°F20.1°C 32.9°F0.5°C 27% 13.0 mph NW20.9 kmh NW 21.3 mph34.3 kmh 29.94 in1013.9 mb 0.00 in0.0 mm 0.00 in0.0 mm 0.00 in0.0 mm
01:53 PM 68.6°F20.3°C 33.3°F0.7°C 27% 12.5 mph NNW20.1 kmh NNW 21.3 mph34.3 kmh 29.94 in1013.9 mb 0.00 in0.0 mm 0.00 in0.0 mm 0.00 in0.0 mm
01:54 PM 68.8°F20.4°C 32.5°F0.3°C 26% 12.0 mph NNW19.3 kmh NNW 21.3 mph34.3 kmh 29.94 in1013.9 mb 0.00 in0.0 mm 0.00 in0.0 mm 0.00 in0.0 mm
01:55 PM 69.2°F20.7°C 33.8°F1.0°C 27% 11.3 mph NW18.2 kmh NW 19.0 mph30.6 kmh 29.94 in1013.9 mb 0.00 in0.0 mm 0.00 in0.0 mm 0.00 in0.0 mm
01:56 PM 69.0°F20.6°C 33.6°F0.9°C 27% 11.1 mph NW17.9 kmh NW 19.0 mph30.6 kmh 29.94 in1013.9 mb 0.00 in0.0 mm 0.00 in0.0 mm 0.00 in0.0 mm
01:57 PM 68.4°F20.2°C 32.2°F0.1°C 26% 10.7 mph NW17.2 kmh NW 15.9 mph25.6 kmh 29.94 in1013.9 mb 0.00 in0.0 mm 0.00 in0.0 mm 0.00 in0.0 mm
01:58 PM 69.0°F20.6°C 32.7°F0.4°C 26% 10.9 mph NW17.5 kmh NW 20.6 mph33.2 kmh 29.94 in1013.9 mb 0.00 in0.0 mm 0.00 in0.0 mm 0.00 in0.0 mm
01:59 PM 68.8°F20.4°C 31.6°F-0.2°C 25% 12.0 mph NNW19.3 kmh NNW 22.1 mph35.6 kmh 29.94 in1013.9 mb 0.00 in0.0 mm 0.00 in0.0 mm 0.00 in0.0 mm
02:00 PM 68.8°F20.4°C 31.6°F-0.2°C 25% 13.0 mph NW20.9 kmh NW 22.1 mph35.6 kmh 29.94 in1013.9 mb 0.00 in0.0 mm 0.00 in0.0 mm 0.00 in0.0 mm
02:01 PM 69.2°F20.7°C 31.9°F-0.1°C 25% 13.6 mph NW21.9 kmh NW 22.1 mph35.6 kmh 29.94 in1013.9 mb 0.00 in0.0 mm 0.00 in0.0 mm 0.00 in0.0 mm
02:02 PM 69.9°F21.1°C 33.5°F0.8°C 26% 13.4 mph NNW21.6 kmh NNW 22.1 mph35.6 kmh 29.94 in1013.9 mb 0.00 in0.0 mm 0.00 in0.0 mm 0.00 in0.0 mm
02:03 PM 70.1°F21.2°C 33.6°F0.9°C 26% 13.7 mph NNW22.0 kmh NNW 22.1 mph35.6 kmh 29.94 in1013.9 mb 0.00 in0.0 mm 0.00 in0.0 mm 0.00 in0.0 mm
02:04 PM 70.6°F21.4°C 33.1°F0.6°C 25% 14.1 mph NNW22.7 kmh NNW 22.1 mph35.6 kmh 29.94 in1013.9 mb 0.00 in0.0 mm 0.00 in0.0 mm 0.00 in0.0 mm
02:05 PM 70.8°F21.6°C 33.3°F0.7°C 25% 14.7 mph NNW23.7 kmh NNW 22.1 mph35.6 kmh 29.94 in1013.9 mb 0.00 in0.0 mm 0.00 in0.0 mm 0.00 in0.0 mm
02:06 PM 71.0°F21.7°C 33.4°F0.8°C 25% 15.3 mph NNW24.6 kmh NNW 22.1 mph35.6 kmh 29.94 in1013.9 mb 0.00 in0.0 mm 0.00 in0.0 mm 0.00 in0.0 mm
02:07 PM 71.0°F21.7°C 32.4°F0.2°C 24% 15.7 mph NNW25.3 kmh NNW 22.1 mph35.6 kmh 29.94 in1013.9 mb 0.00 in0.0 mm 0.00 in0.0 mm 0.00 in0.0 mm
02:08 PM 71.5°F21.9°C 32.8°F0.4°C 24% 15.3 mph NNW24.6 kmh NNW 22.1 mph35.6 kmh 29.94 in1013.9 mb 0.00 in0.0 mm 0.00 in0.0 mm 0.00 in0.0 mm
02:09 PM 71.0°F21.7°C 31.3°F-0.4°C 23% 15.2 mph NNW24.5 kmh NNW 22.8 mph36.7 kmh 29.94 in1013.9 mb 0.00 in0.0 mm 0.00 in0.0 mm 0.00 in0.0 mm
02:10 PM 70.2°F21.2°C 30.7°F-0.7°C 23% 15.7 mph NNW25.3 kmh NNW 22.8 mph36.7 kmh 29.94 in1013.9 mb 0.00 in0.0 mm 0.00 in0.0 mm 0.00 in0.0 mm
02:11 PM 69.9°F21.1°C 30.4°F-0.9°C 23% 16.7 mph NNW26.9 kmh NNW 24.4 mph39.3 kmh 29.94 in1013.9 mb 0.00 in0.0 mm 0.00 in0.0 mm 0.00 in0.0 mm
02:12 PM 69.9°F21.1°C 30.4°F-0.9°C 23% 17.7 mph NNW28.5 kmh NNW 24.4 mph39.3 kmh 29.94 in1013.9 mb 0.00 in0.0 mm 0.00 in0.0 mm 0.00 in0.0 mm
02:13 PM 70.1°F21.2°C 29.5°F-1.4°C 22% 18.1 mph NNW29.1 kmh NNW 24.4 mph39.3 kmh 29.94 in1013.9 mb 0.00 in0.0 mm 0.00 in0.0 mm 0.00 in0.0 mm
02:14 PM 70.2°F21.2°C 30.7°F-0.7°C 23% 18.0 mph NNW29.0 kmh NNW 24.4 mph39.3 kmh 29.94 in1013.9 mb 0.00 in0.0 mm 0.00 in0.0 mm 0.00 in0.0 mm
02:15 PM 71.1°F21.7°C 31.5°F-0.3°C 23% 17.9 mph NNW28.8 kmh NNW 24.4 mph39.3 kmh 29.94 in1013.9 mb 0.00 in0.0 mm 0.00 in0.0 mm 0.00 in0.0 mm
02:16 PM 71.0°F21.7°C 30.2°F-1.0°C 22% 18.1 mph NNW29.1 kmh NNW 24.4 mph39.3 kmh 29.94 in1013.9 mb 0.00 in0.0 mm 0.00 in0.0 mm 0.00 in0.0 mm
02:17 PM 70.4°F21.3°C 29.8°F-1.2°C 22% 18.1 mph NNW29.1 kmh NNW 24.4 mph39.3 kmh 29.94 in1013.9 mb 0.00 in0.0 mm 0.00 in0.0 mm 0.00 in0.0 mm
02:18 PM 70.4°F21.3°C 30.9°F-0.6°C 23% 18.3 mph NNW29.5 kmh NNW 24.4 mph39.3 kmh 29.94 in1013.9 mb 0.00 in0.0 mm 0.00 in0.0 mm 0.00 in0.0 mm
02:19 PM 71.5°F21.9°C 30.7°F-0.7°C 22% 17.5 mph NNW28.2 kmh NNW 24.4 mph39.3 kmh 29.94 in1013.9 mb 0.00 in0.0 mm 0.00 in0.0 mm 0.00 in0.0 mm
02:20 PM 72.0°F22.2°C 31.1°F-0.5°C 22% 16.4 mph N26.4 kmh N 24.4 mph39.3 kmh 29.94 in1013.9 mb 0.00 in0.0 mm 0.00 in0.0 mm 0.00 in0.0 mm
02:21 PM 71.7°F22.1°C 30.8°F-0.7°C 22% 15.5 mph NNW24.9 kmh NNW 23.5 mph37.8 kmh 29.94 in1013.9 mb 0.00 in0.0 mm 0.00 in0.0 mm 0.00 in0.0 mm
02:22 PM 71.7°F22.1°C 30.8°F-0.7°C 22% 14.3 mph NNW23.0 kmh NNW 19.0 mph30.6 kmh 29.94 in1013.9 mb 0.00 in0.0 mm 0.00 in0.0 mm 0.00 in0.0 mm
02:23 PM 71.3°F21.8°C 30.5°F-0.8°C 22% 15.0 mph NNW24.1 kmh NNW 28.9 mph46.5 kmh 29.94 in1013.9 mb 0.00 in0.0 mm 0.00 in0.0 mm 0.00 in0.0 mm
02:24 PM 70.4°F21.3°C 30.9°F-0.6°C 23% 16.2 mph N26.1 kmh N 28.9 mph46.5 kmh 29.94 in1013.9 mb 0.00 in0.0 mm 0.00 in0.0 mm 0.00 in0.0 mm
02:25 PM 70.8°F21.6°C 30.1°F-1.1°C 22% 16.1 mph N25.9 kmh N 28.9 mph46.5 kmh 29.94 in1013.9 mb 0.00 in0.0 mm 0.00 in0.0 mm 0.00 in0.0 mm
02:26 PM 71.1°F21.7°C 30.4°F-0.9°C 22% 15.9 mph NNW25.6 kmh NNW 28.9 mph46.5 kmh 29.94 in1013.9 mb 0.00 in0.0 mm 0.00 in0.0 mm 0.00 in0.0 mm
02:27 PM 70.6°F21.4°C 29.9°F-1.2°C 22% 15.9 mph NNW25.6 kmh NNW 28.9 mph46.5 kmh 29.94 in1013.9 mb 0.00 in0.0 mm 0.00 in0.0 mm 0.00 in0.0 mm
02:28 PM 70.6°F21.4°C 31.0°F-0.6°C 23% 15.9 mph N25.6 kmh N 28.9 mph46.5 kmh 29.94 in1013.9 mb 0.00 in0.0 mm 0.00 in0.0 mm 0.00 in0.0 mm
02:29 PM 70.2°F21.2°C 30.7°F-0.7°C 23% 15.6 mph N25.1 kmh N 28.9 mph46.5 kmh 29.94 in1013.9 mb 0.00 in0.0 mm 0.00 in0.0 mm 0.00 in0.0 mm
02:30 PM 70.6°F21.4°C 31.0°F-0.6°C 23% 15.5 mph NNW24.9 kmh NNW 28.9 mph46.5 kmh 29.94 in1013.9 mb 0.00 in0.0 mm 0.00 in0.0 mm 0.00 in0.0 mm
02:31 PM 70.2°F21.2°C 30.7°F-0.7°C 23% 15.1 mph NNW24.3 kmh NNW 28.9 mph46.5 kmh 29.94 in1013.9 mb 0.00 in0.0 mm 0.00 in0.0 mm 0.00 in0.0 mm
02:32 PM 70.8°F21.6°C 31.2°F-0.4°C 23% 15.1 mph NNW24.3 kmh NNW 28.9 mph46.5 kmh 29.94 in1013.9 mb 0.00 in0.0 mm 0.00 in0.0 mm 0.00 in0.0 mm
02:33 PM 71.7°F22.1°C 31.9°F-0.1°C 23% 13.9 mph NNW22.4 kmh NNW 28.9 mph46.5 kmh 29.94 in1013.9 mb 0.00 in0.0 mm 0.00 in0.0 mm 0.00 in0.0 mm
02:34 PM 72.4°F22.4°C 35.6°F2.0°C 26% 12.5 mph NW20.1 kmh NW 17.4 mph28.0 kmh 29.94 in1013.9 mb 0.00 in0.0 mm 0.00 in0.0 mm 0.00 in0.0 mm
02:35 PM 70.8°F21.6°C 30.1°F-1.1°C 22% 12.5 mph NNW20.1 kmh NNW 17.4 mph28.0 kmh 29.94 in1013.9 mb 0.00 in0.0 mm 0.00 in0.0 mm 0.00 in0.0 mm
02:36 PM 70.6°F21.4°C 31.0°F-0.6°C 23% 12.5 mph NNW20.1 kmh NNW 17.4 mph28.0 kmh 29.94 in1013.9 mb 0.00 in0.0 mm 0.00 in0.0 mm 0.00 in0.0 mm
02:37 PM 70.8°F21.6°C 31.2°F-0.4°C 23% 12.4 mph N20.0 kmh N 18.3 mph29.5 kmh 29.94 in1013.9 mb 0.00 in0.0 mm 0.00 in0.0 mm 0.00 in0.0 mm
02:38 PM 70.8°F21.6°C 31.2°F-0.4°C 23% 12.4 mph N20.0 kmh N 18.3 mph29.5 kmh 29.94 in1013.9 mb 0.00 in0.0 mm 0.00 in0.0 mm 0.00 in0.0 mm
02:39 PM 71.7°F22.1°C 31.9°F-0.1°C 23% 12.8 mph N20.6 kmh N 18.3 mph29.5 kmh 29.94 in1013.9 mb 0.00 in0.0 mm 0.00 in0.0 mm 0.00 in0.0 mm
02:40 PM 70.6°F21.4°C 29.9°F-1.2°C 22% 13.5 mph N21.7 kmh N 18.3 mph29.5 kmh 29.94 in1013.9 mb 0.00 in0.0 mm 0.00 in0.0 mm 0.00 in0.0 mm
02:41 PM 70.8°F21.6°C 31.2°F-0.4°C 23% 14.2 mph N22.9 kmh N 18.3 mph29.5 kmh 29.94 in1013.9 mb 0.00 in0.0 mm 0.00 in0.0 mm 0.00 in0.0 mm
02:42 PM 71.0°F21.7°C 30.2°F-1.0°C 22% 15.3 mph NNE24.6 kmh NNE 23.5 mph37.8 kmh 29.94 in1013.9 mb 0.00 in0.0 mm 0.00 in0.0 mm 0.00 in0.0 mm
02:43 PM 70.1°F21.2°C 30.6°F-0.8°C 23% 16.2 mph NNE26.1 kmh NNE 23.5 mph37.8 kmh 29.94 in1013.9 mb 0.00 in0.0 mm 0.00 in0.0 mm 0.00 in0.0 mm
02:44 PM 70.6°F21.4°C 29.9°F-1.2°C 22% 16.3 mph NNE26.2 kmh NNE 23.5 mph37.8 kmh 29.94 in1013.9 mb 0.00 in0.0 mm 0.00 in0.0 mm 0.00 in0.0 mm
02:45 PM 70.6°F21.4°C 29.9°F-1.2°C 22% 17.0 mph NNE27.4 kmh NNE 28.2 mph45.4 kmh 29.94 in1013.9 mb 0.00 in0.0 mm 0.00 in0.0 mm 0.00 in0.0 mm
02:46 PM 69.9°F21.1°C 30.4°F-0.9°C 23% 17.7 mph NE28.5 kmh NE 28.2 mph45.4 kmh 29.94 in1013.9 mb 0.00 in0.0 mm 0.00 in0.0 mm 0.00 in0.0 mm
02:47 PM 70.4°F21.3°C 30.9°F-0.6°C 23% 18.8 mph NE30.3 kmh NE 32.0 mph51.5 kmh 29.94 in1013.9 mb 0.00 in0.0 mm 0.00 in0.0 mm 0.00 in0.0 mm
02:48 PM 70.4°F21.3°C 30.9°F-0.6°C 23% 20.3 mph NNE32.7 kmh NNE 32.0 mph51.5 kmh 29.94 in1013.9 mb 0.00 in0.0 mm 0.00 in0.0 mm 0.00 in0.0 mm
02:49 PM 70.4°F21.3°C 30.9°F-0.6°C 23% 21.9 mph NNE35.2 kmh NNE 32.0 mph51.5 kmh 29.94 in1013.9 mb 0.00 in0.0 mm 0.00 in0.0 mm 0.00 in0.0 mm
02:50 PM 70.4°F21.3°C 30.9°F-0.6°C 23% 23.6 mph NNE38.0 kmh NNE 32.0 mph51.5 kmh 29.94 in1013.9 mb 0.00 in0.0 mm 0.00 in0.0 mm 0.00 in0.0 mm
02:51 PM 70.4°F21.3°C 30.9°F-0.6°C 23% 25.1 mph N40.4 kmh N 32.0 mph51.5 kmh 29.94 in1013.9 mb 0.00 in0.0 mm 0.00 in0.0 mm 0.00 in0.0 mm
02:52 PM 70.4°F21.3°C 30.9°F-0.6°C 23% 26.3 mph N42.3 kmh N 32.0 mph51.5 kmh 29.94 in1013.9 mb 0.00 in0.0 mm 0.00 in0.0 mm 0.00 in0.0 mm
02:53 PM 70.4°F21.3°C 30.9°F-0.6°C 23% 27.1 mph N43.6 kmh N 32.0 mph51.5 kmh 29.94 in1013.9 mb 0.00 in0.0 mm 0.00 in0.0 mm 0.00 in0.0 mm
02:54 PM 71.1°F21.7°C 30.4°F-0.9°C 22% 27.4 mph N44.1 kmh N 32.0 mph51.5 kmh 29.94 in1013.9 mb 0.00 in0.0 mm 0.00 in0.0 mm 0.00 in0.0 mm
02:55 PM 71.0°F21.7°C 30.2°F-1.0°C 22% 26.9 mph N43.3 kmh N 32.0 mph51.5 kmh 29.94 in1013.9 mb 0.00 in0.0 mm 0.00 in0.0 mm 0.00 in0.0 mm
02:56 PM 70.6°F21.4°C 28.8°F-1.8°C 21% 26.7 mph NNW43.0 kmh NNW 32.0 mph51.5 kmh 29.94 in1013.9 mb 0.00 in0.0 mm 0.00 in0.0 mm 0.00 in0.0 mm
02:57 PM 71.1°F21.7°C 30.4°F-0.9°C 22% 25.4 mph NNW40.9 kmh NNW 32.0 mph51.5 kmh 29.94 in1013.9 mb 0.00 in0.0 mm 0.00 in0.0 mm 0.00 in0.0 mm
02:58 PM 71.3°F21.8°C 30.5°F-0.8°C 22% 23.9 mph NNW38.5 kmh NNW 32.0 mph51.5 kmh 29.94 in1013.9 mb 0.00 in0.0 mm 0.00 in0.0 mm 0.00 in0.0 mm
02:59 PM 71.5°F21.9°C 30.7°F-0.7°C 22% 22.2 mph NNW35.7 kmh NNW 32.0 mph51.5 kmh 29.94 in1013.9 mb 0.00 in0.0 mm 0.00 in0.0 mm 0.00 in0.0 mm
03:00 PM 70.1°F21.2°C 29.5°F-1.4°C 22% 21.1 mph NNW34.0 kmh NNW 32.0 mph51.5 kmh 29.94 in1013.9 mb 0.00 in0.0 mm 0.00 in0.0 mm 0.00 in0.0 mm
03:01 PM 71.0°F21.7°C 30.2°F-1.0°C 22% 19.8 mph NNW31.9 kmh NNW 32.0 mph51.5 kmh 29.94 in1013.9 mb 0.00 in0.0 mm 0.00 in0.0 mm 0.00 in0.0 mm
03:02 PM 70.8°F21.6°C 30.1°F-1.1°C 22% 18.5 mph N29.8 kmh N 32.0 mph51.5 kmh 29.94 in1013.9 mb 0.00 in0.0 mm 0.00 in0.0 mm 0.00 in0.0 mm
03:03 PM 70.6°F21.4°C 29.9°F-1.2°C 22% 17.4 mph N28.0 kmh N 23.5 mph37.8 kmh 29.94 in1013.9 mb 0.00 in0.0 mm 0.00 in0.0 mm 0.00 in0.0 mm
03:04 PM 71.9°F22.2°C 32.1°F0.1°C 23% 17.0 mph N27.4 kmh N 23.5 mph37.8 kmh 29.94 in1013.9 mb 0.00 in0.0 mm 0.00 in0.0 mm 0.00 in0.0 mm
03:05 PM 71.1°F21.7°C 31.5°F-0.3°C 23% 17.0 mph N27.4 kmh N 23.5 mph37.8 kmh 29.94 in1013.9 mb 0.00 in0.0 mm 0.00 in0.0 mm 0.00 in0.0 mm
03:06 PM 70.2°F21.2°C 31.8°F-0.1°C 24% 16.5 mph N26.6 kmh N 22.1 mph35.6 kmh 29.94 in1013.9 mb 0.00 in0.0 mm 0.00 in0.0 mm 0.00 in0.0 mm
03:07 PM 70.1°F21.2°C 31.6°F-0.2°C 24% 16.8 mph N27.0 kmh N 22.1 mph35.6 kmh 29.94 in1013.9 mb 0.00 in0.0 mm 0.00 in0.0 mm 0.00 in0.0 mm
03:08 PM 69.5°F20.8°C 31.2°F-0.4°C 24% 16.6 mph N26.7 kmh N 23.5 mph37.8 kmh 29.94 in1013.9 mb 0.00 in0.0 mm 0.00 in0.0 mm 0.00 in0.0 mm
03:09 PM 68.6°F20.3°C 30.4°F-0.9°C 24% 17.1 mph N27.5 kmh N 23.5 mph37.8 kmh 29.94 in1013.9 mb 0.00 in0.0 mm 0.00 in0.0 mm 0.00 in0.0 mm
03:10 PM 68.4°F20.2°C 31.3°F-0.4°C 25% 16.6 mph N26.7 kmh N 23.5 mph37.8 kmh 29.94 in1013.9 mb 0.00 in0.0 mm 0.00 in0.0 mm 0.00 in0.0 mm
03:11 PM 68.3°F20.2°C 31.1°F-0.5°C 25% 15.9 mph N25.6 kmh N 23.5 mph37.8 kmh 29.94 in1013.9 mb 0.00 in0.0 mm 0.00 in0.0 mm 0.00 in0.0 mm
03:12 PM 69.5°F20.8°C 32.2°F0.1°C 25% 15.4 mph N24.8 kmh N 23.5 mph37.8 kmh 29.94 in1013.9 mb 0.00 in0.0 mm 0.00 in0.0 mm 0.00 in0.0 mm
03:13 PM 70.1°F21.2°C 32.6°F0.3°C 25% 14.9 mph N24.0 kmh N 23.5 mph37.8 kmh 29.94 in1013.9 mb 0.00 in0.0 mm 0.00 in0.0 mm 0.00 in0.0 mm
03:14 PM 70.1°F21.2°C 32.6°F0.3°C 25% 14.8 mph N23.8 kmh N 23.5 mph37.8 kmh 29.94 in1013.9 mb 0.00 in0.0 mm 0.00 in0.0 mm 0.00 in0.0 mm
03:15 PM 70.8°F21.6°C 32.2°F0.1°C 24% 13.9 mph N22.4 kmh N 23.5 mph37.8 kmh 29.94 in1013.9 mb 0.00 in0.0 mm 0.00 in0.0 mm 0.00 in0.0 mm
03:16 PM 70.4°F21.3°C 31.9°F-0.1°C 24% 14.1 mph N22.7 kmh N 23.5 mph37.8 kmh 29.94 in1013.9 mb 0.00 in0.0 mm 0.00 in0.0 mm 0.00 in0.0 mm
03:17 PM 70.1°F21.2°C 31.6°F-0.2°C 24% 13.7 mph NNW22.0 kmh NNW 23.5 mph37.8 kmh 29.94 in1013.9 mb 0.00 in0.0 mm 0.00 in0.0 mm 0.00 in0.0 mm
03:18 PM 69.7°F20.9°C 31.3°F-0.4°C 24% 13.6 mph NNW21.9 kmh NNW 23.5 mph37.8 kmh 29.94 in1013.9 mb 0.00 in0.0 mm 0.00 in0.0 mm 0.00 in0.0 mm
03:19 PM 69.0°F20.6°C 30.7°F-0.7°C 24% 13.3 mph NNW21.4 kmh NNW 19.7 mph31.7 kmh 29.94 in1013.9 mb 0.00 in0.0 mm 0.00 in0.0 mm 0.00 in0.0 mm
03:20 PM 69.7°F20.9°C 31.3°F-0.4°C 24% 13.5 mph N21.7 kmh N 19.7 mph31.7 kmh 29.94 in1013.9 mb 0.00 in0.0 mm 0.00 in0.0 mm 0.00 in0.0 mm
03:21 PM 69.9°F21.1°C 32.5°F0.3°C 25% 13.8 mph N22.2 kmh N 19.7 mph31.7 kmh 29.94 in1013.9 mb 0.00 in0.0 mm 0.00 in0.0 mm 0.00 in0.0 mm
03:22 PM 69.0°F20.6°C 31.7°F-0.2°C 25% 13.8 mph N22.2 kmh N 19.7 mph31.7 kmh 29.94 in1013.9 mb 0.00 in0.0 mm 0.00 in0.0 mm 0.00 in0.0 mm
03:23 PM 69.7°F20.9°C 32.3°F0.2°C 25% 14.7 mph N23.7 kmh N 20.6 mph33.2 kmh 29.94 in1013.9 mb 0.00 in0.0 mm 0.00 in0.0 mm 0.00 in0.0 mm
03:24 PM 70.2°F21.2°C 32.8°F0.4°C 25% 15.4 mph N24.8 kmh N 20.6 mph33.2 kmh 29.94 in1013.9 mb 0.00 in0.0 mm 0.00 in0.0 mm 0.00 in0.0 mm
03:25 PM 70.2°F21.2°C 32.8°F0.4°C 25% 16.2 mph N26.1 kmh N 20.6 mph33.2 kmh 29.94 in1013.9 mb 0.00 in0.0 mm 0.00 in0.0 mm 0.00 in0.0 mm
03:26 PM 69.9°F21.1°C 32.5°F0.3°C 25% 15.8 mph NNW25.4 kmh NNW 20.6 mph33.2 kmh 29.94 in1013.9 mb 0.00 in0.0 mm 0.00 in0.0 mm 0.00 in0.0 mm
03:27 PM 69.7°F20.9°C 31.3°F-0.4°C 24% 15.4 mph NNW24.8 kmh NNW 20.6 mph33.2 kmh 29.94 in1013.9 mb 0.00 in0.0 mm 0.00 in0.0 mm 0.00 in0.0 mm
03:28 PM 69.7°F20.9°C 31.3°F-0.4°C 24% 15.5 mph NNW24.9 kmh NNW 20.6 mph33.2 kmh 29.94 in1013.9 mb 0.00 in0.0 mm 0.00 in0.0 mm 0.00 in0.0 mm
03:29 PM 70.1°F21.2°C 32.6°F0.3°C 25% 15.0 mph NNW24.1 kmh NNW 20.6 mph33.2 kmh 29.94 in1013.9 mb 0.00 in0.0 mm 0.00 in0.0 mm 0.00 in0.0 mm
03:30 PM 70.6°F21.4°C 32.1°F0.1°C 24% 14.6 mph NNW23.5 kmh NNW 20.6 mph33.2 kmh 29.94 in1013.9 mb 0.00 in0.0 mm 0.00 in0.0 mm 0.00 in0.0 mm
03:31 PM 70.4°F21.3°C 32.9°F0.5°C 25% 14.5 mph NNW23.3 kmh NNW 20.6 mph33.2 kmh 29.94 in1013.9 mb 0.00 in0.0 mm 0.00 in0.0 mm 0.00 in0.0 mm
03:32 PM 70.4°F21.3°C 32.9°F0.5°C 25% 14.2 mph NNW22.9 kmh NNW 20.6 mph33.2 kmh 29.94 in1013.9 mb 0.00 in0.0 mm 0.00 in0.0 mm 0.00 in0.0 mm
03:33 PM 70.8°F21.6°C 32.2°F0.1°C 24% 13.4 mph N21.6 kmh N 18.3 mph29.5 kmh 29.94 in1013.9 mb 0.00 in0.0 mm 0.00 in0.0 mm 0.00 in0.0 mm
03:34 PM 71.9°F22.2°C 34.2°F1.2°C 25% 12.4 mph NNW20.0 kmh NNW 16.8 mph27.0 kmh 29.94 in1013.9 mb 0.00 in0.0 mm 0.00 in0.0 mm 0.00 in0.0 mm
03:35 PM 71.3°F21.8°C 32.7°F0.4°C 24% 12.0 mph NNW19.3 kmh NNW 16.8 mph27.0 kmh 29.94 in1013.9 mb 0.00 in0.0 mm 0.00 in0.0 mm 0.00 in0.0 mm
03:36 PM 70.4°F21.3°C 31.9°F-0.1°C 24% 11.5 mph N18.5 kmh N 15.2 mph24.5 kmh 29.94 in1013.9 mb 0.00 in0.0 mm 0.00 in0.0 mm 0.00 in0.0 mm
03:37 PM 70.2°F21.2°C 31.8°F-0.1°C 24% 11.7 mph N18.8 kmh N 18.3 mph29.5 kmh 29.94 in1013.9 mb 0.00 in0.0 mm 0.00 in0.0 mm 0.00 in0.0 mm
03:38 PM 69.5°F20.8°C 31.2°F-0.4°C 24% 11.5 mph N18.5 kmh N 18.3 mph29.5 kmh 29.94 in1013.9 mb 0.00 in0.0 mm 0.00 in0.0 mm 0.00 in0.0 mm
03:39 PM 70.1°F21.2°C 32.6°F0.3°C 25% 11.4 mph N18.3 kmh N 18.3 mph29.5 kmh 29.94 in1013.9 mb 0.00 in0.0 mm 0.00 in0.0 mm 0.00 in0.0 mm
03:40 PM 69.9°F21.1°C 32.5°F0.3°C 25% 11.0 mph N17.7 kmh N 18.3 mph29.5 kmh 29.94 in1013.9 mb 0.00 in0.0 mm 0.00 in0.0 mm 0.00 in0.0 mm
03:41 PM 69.7°F20.9°C 32.3°F0.2°C 25% 11.1 mph N17.9 kmh N 18.3 mph29.5 kmh 29.94 in1013.9 mb 0.00 in0.0 mm 0.00 in0.0 mm 0.00 in0.0 mm
03:42 PM 69.3°F20.7°C 31.0°F-0.6°C 24% 11.2 mph N18.0 kmh N 18.3 mph29.5 kmh 29.94 in1013.9 mb 0.00 in0.0 mm 0.00 in0.0 mm 0.00 in0.0 mm
03:43 PM 69.0°F20.6°C 30.7°F-0.7°C 24% 11.3 mph NNW18.2 kmh NNW 18.3 mph29.5 kmh 29.94 in1013.9 mb 0.00 in0.0 mm 0.00 in0.0 mm 0.00 in0.0 mm
03:44 PM 69.0°F20.6°C 31.7°F-0.2°C 25% 11.9 mph NNW19.2 kmh NNW 18.3 mph29.5 kmh 29.94 in1013.9 mb 0.00 in0.0 mm 0.00 in0.0 mm 0.00 in0.0 mm
03:45 PM 69.0°F20.6°C 31.7°F-0.2°C 25% 12.4 mph N20.0 kmh N 22.1 mph35.6 kmh 29.94 in1013.9 mb 0.00 in0.0 mm 0.00 in0.0 mm 0.00 in0.0 mm
03:46 PM 69.0°F20.6°C 31.7°F-0.2°C 25% 13.5 mph NNW21.7 kmh NNW 22.1 mph35.6 kmh 29.94 in1013.9 mb 0.00 in0.0 mm 0.00 in0.0 mm 0.00 in0.0 mm
03:47 PM 69.3°F20.7°C 32.0°F0.0°C 25% 13.4 mph N21.6 kmh N 22.1 mph35.6 kmh 29.94 in1013.9 mb 0.00 in0.0 mm 0.00 in0.0 mm 0.00 in0.0 mm
03:48 PM 70.8°F21.6°C 32.2°F0.1°C 24% 13.2 mph N21.2 kmh N 22.1 mph35.6 kmh 29.94 in1013.9 mb 0.00 in0.0 mm 0.00 in0.0 mm 0.00 in0.0 mm
03:49 PM 71.3°F21.8°C 32.7°F0.4°C 24% 13.3 mph NNW21.4 kmh NNW 22.1 mph35.6 kmh 29.94 in1013.9 mb 0.00 in0.0 mm 0.00 in0.0 mm 0.00 in0.0 mm
03:50 PM 71.7°F22.1°C 33.0°F0.6°C 24% 13.8 mph NNW22.2 kmh NNW 22.1 mph35.6 kmh 29.94 in1013.9 mb 0.00 in0.0 mm 0.00 in0.0 mm 0.00 in0.0 mm
03:51 PM 70.8°F21.6°C 31.2°F-0.4°C 23% 13.9 mph NNW22.4 kmh NNW 22.1 mph35.6 kmh 29.94 in1013.9 mb 0.00 in0.0 mm 0.00 in0.0 mm 0.00 in0.0 mm
03:52 PM 70.2°F21.2°C 31.8°F-0.1°C 24% 13.8 mph NNW22.2 kmh NNW 22.1 mph35.6 kmh 29.94 in1013.9 mb 0.00 in0.0 mm 0.00 in0.0 mm 0.00 in0.0 mm
03:53 PM 70.6°F21.4°C 31.0°F-0.6°C 23% 13.7 mph N22.0 kmh N 22.1 mph35.6 kmh 29.94 in1013.9 mb 0.00 in0.0 mm 0.00 in0.0 mm 0.00 in0.0 mm
03:54 PM 70.8°F21.6°C 30.1°F-1.1°C 22% 13.7 mph NNW22.0 kmh NNW 22.1 mph35.6 kmh 29.94 in1013.9 mb 0.00 in0.0 mm 0.00 in0.0 mm 0.00 in0.0 mm
03:55 PM 71.0°F21.7°C 30.2°F-1.0°C 22% 13.8 mph NNW22.2 kmh NNW 22.1 mph35.6 kmh 29.94 in1013.9 mb 0.00 in0.0 mm 0.00 in0.0 mm 0.00 in0.0 mm
03:56 PM 71.1°F21.7°C 30.4°F-0.9°C 22% 12.8 mph NNW20.6 kmh NNW 21.3 mph34.3 kmh 29.94 in1013.9 mb 0.00 in0.0 mm 0.00 in0.0 mm 0.00 in0.0 mm
03:57 PM 71.3°F21.8°C 31.6°F-0.2°C 23% 12.7 mph NW20.4 kmh NW 16.8 mph27.0 kmh 29.94 in1013.9 mb 0.00 in0.0 mm 0.00 in0.0 mm 0.00 in0.0 mm
03:58 PM 71.0°F21.7°C 31.3°F-0.4°C 23% 12.8 mph NW20.6 kmh NW 16.8 mph27.0 kmh 29.94 in1013.9 mb 0.00 in0.0 mm 0.00 in0.0 mm 0.00 in0.0 mm
03:59 PM 70.6°F21.4°C 31.0°F-0.6°C 23% 13.3 mph NNW21.4 kmh NNW 17.4 mph28.0 kmh 29.94 in1013.9 mb 0.00 in0.0 mm 0.00 in0.0 mm 0.00 in0.0 mm
04:00 PM 69.9°F21.1°C 30.4°F-0.9°C 23% 13.5 mph NNW21.7 kmh NNW 17.4 mph28.0 kmh 29.94 in1013.9 mb 0.00 in0.0 mm 0.00 in0.0 mm 0.00 in0.0 mm
04:01 PM 69.7°F20.9°C 30.3°F-0.9°C 23% 13.3 mph NNW21.4 kmh NNW 17.4 mph28.0 kmh 29.94 in1013.9 mb 0.00 in0.0 mm 0.00 in0.0 mm 0.00 in0.0 mm
04:02 PM 69.5°F20.8°C 30.1°F-1.1°C 23% 13.5 mph NW21.7 kmh NW 17.4 mph28.0 kmh 29.94 in1013.9 mb 0.00 in0.0 mm 0.00 in0.0 mm 0.00 in0.0 mm
04:03 PM 69.5°F20.8°C 30.1°F-1.1°C 23% 13.6 mph NW21.9 kmh NW 17.4 mph28.0 kmh 29.94 in1013.9 mb 0.00 in0.0 mm 0.00 in0.0 mm 0.00 in0.0 mm
04:04 PM 70.2°F21.2°C 31.8°F-0.1°C 24% 13.6 mph NNW21.9 kmh NNW 17.4 mph28.0 kmh 29.94 in1013.9 mb 0.00 in0.0 mm 0.00 in0.0 mm 0.00 in0.0 mm
04:05 PM 70.4°F21.3°C 31.9°F-0.1°C 24% 13.7 mph N22.0 kmh N 22.1 mph35.6 kmh 29.94 in1013.9 mb 0.00 in0.0 mm 0.00 in0.0 mm 0.00 in0.0 mm
04:06 PM 70.1°F21.2°C 30.6°F-0.8°C 23% 14.3 mph N23.0 kmh N 22.1 mph35.6 kmh 29.94 in1013.9 mb 0.00 in0.0 mm 0.00 in0.0 mm 0.00 in0.0 mm
04:07 PM 70.1°F21.2°C 30.6°F-0.8°C 23% 14.3 mph N23.0 kmh N 22.1 mph35.6 kmh 29.94 in1013.9 mb 0.00 in0.0 mm 0.00 in0.0 mm 0.00 in0.0 mm
04:08 PM 70.4°F21.3°C 30.9°F-0.6°C 23% 14.7 mph N23.7 kmh N 22.1 mph35.6 kmh 29.94 in1013.9 mb 0.00 in0.0 mm 0.00 in0.0 mm 0.00 in0.0 mm
04:09 PM 70.8°F21.6°C 30.1°F-1.1°C 22% 14.6 mph NNW23.5 kmh NNW 22.1 mph35.6 kmh 29.94 in1013.9 mb 0.00 in0.0 mm 0.00 in0.0 mm 0.00 in0.0 mm
04:10 PM 71.0°F21.7°C 30.2°F-1.0°C 22% 14.3 mph N23.0 kmh N 22.1 mph35.6 kmh 29.94 in1013.9 mb 0.00 in0.0 mm 0.00 in0.0 mm 0.00 in0.0 mm
04:11 PM 71.5°F21.9°C 29.5°F-1.4°C 21% 14.3 mph N23.0 kmh N 22.1 mph35.6 kmh 29.94 in1013.9 mb 0.00 in0.0 mm 0.00 in0.0 mm 0.00 in0.0 mm
04:12 PM 71.1°F21.7°C 29.2°F-1.6°C 21% 14.1 mph N22.7 kmh N 22.1 mph35.6 kmh 29.94 in1013.9 mb 0.00 in0.0 mm 0.00 in0.0 mm 0.00 in0.0 mm
04:13 PM 71.1°F21.7°C 28.1°F-2.2°C 20% 14.6 mph NNE23.5 kmh NNE 22.1 mph35.6 kmh 29.94 in1013.9 mb 0.00 in0.0 mm 0.00 in0.0 mm 0.00 in0.0 mm
04:14 PM 70.8°F21.6°C 27.8°F-2.3°C 20% 14.7 mph NNE23.7 kmh NNE 22.1 mph35.6 kmh 29.94 in1013.9 mb 0.00 in0.0 mm 0.00 in0.0 mm 0.00 in0.0 mm
04:15 PM 70.6°F21.4°C 28.8°F-1.8°C 21% 14.1 mph N22.7 kmh N 22.1 mph35.6 kmh 29.94 in1013.9 mb 0.00 in0.0 mm 0.00 in0.0 mm 0.00 in0.0 mm
04:16 PM 69.9°F21.1°C 29.3°F-1.5°C 22% 13.7 mph N22.0 kmh N 19.0 mph30.6 kmh 29.94 in1013.9 mb 0.00 in0.0 mm 0.00 in0.0 mm 0.00 in0.0 mm
04:17 PM 69.7°F20.9°C 29.2°F-1.6°C 22% 14.6 mph NNE23.5 kmh NNE 19.0 mph30.6 kmh 29.94 in1013.9 mb 0.00 in0.0 mm 0.00 in0.0 mm 0.00 in0.0 mm
04:18 PM 69.3°F20.7°C 28.9°F-1.7°C 22% 14.3 mph NE23.0 kmh NE 19.0 mph30.6 kmh 29.94 in1013.9 mb 0.00 in0.0 mm 0.00 in0.0 mm 0.00 in0.0 mm
04:19 PM 70.1°F21.2°C 29.5°F-1.4°C 22% 13.9 mph NE22.4 kmh NE 19.0 mph30.6 kmh 29.94 in1013.9 mb 0.00 in0.0 mm 0.00 in0.0 mm 0.00 in0.0 mm
04:20 PM 70.6°F21.4°C 28.8°F-1.8°C 21% 13.9 mph NE22.4 kmh NE 19.0 mph30.6 kmh 29.94 in1013.9 mb 0.00 in0.0 mm 0.00 in0.0 mm 0.00 in0.0 mm
04:21 PM 70.2°F21.2°C 29.6°F-1.3°C 22% 14.2 mph NE22.9 kmh NE 19.0 mph30.6 kmh 29.94 in1013.9 mb 0.00 in0.0 mm 0.00 in0.0 mm 0.00 in0.0 mm
04:22 PM 70.6°F21.4°C 28.8°F-1.8°C 21% 14.8 mph NE23.8 kmh NE 19.7 mph31.7 kmh 29.94 in1013.9 mb 0.00 in0.0 mm 0.00 in0.0 mm 0.00 in0.0 mm
04:23 PM 70.4°F21.3°C 29.8°F-1.2°C 22% 15.1 mph NE24.3 kmh NE 19.7 mph31.7 kmh 29.94 in1013.9 mb 0.00 in0.0 mm 0.00 in0.0 mm 0.00 in0.0 mm
04:24 PM 70.6°F21.4°C 28.8°F-1.8°C 21% 15.6 mph NE25.1 kmh NE 23.5 mph37.8 kmh 29.94 in1013.9 mb 0.00 in0.0 mm 0.00 in0.0 mm 0.00 in0.0 mm
04:25 PM 70.8°F21.6°C 28.9°F-1.7°C 21% 15.9 mph NNE25.6 kmh NNE 23.5 mph37.8 kmh 29.94 in1013.9 mb 0.00 in0.0 mm 0.00 in0.0 mm 0.00 in0.0 mm
04:26 PM 71.3°F21.8°C 29.4°F-1.4°C 21% 16.1 mph NNE25.9 kmh NNE 23.5 mph37.8 kmh 29.94 in1013.9 mb 0.00 in0.0 mm 0.00 in0.0 mm 0.00 in0.0 mm
04:27 PM 71.3°F21.8°C 29.4°F-1.4°C 21% 15.7 mph N25.3 kmh N 23.5 mph37.8 kmh 29.94 in1013.9 mb 0.00 in0.0 mm 0.00 in0.0 mm 0.00 in0.0 mm
04:28 PM 71.3°F21.8°C 29.4°F-1.4°C 21% 15.7 mph N25.3 kmh N 23.5 mph37.8 kmh 29.94 in1013.9 mb 0.00 in0.0 mm 0.00 in0.0 mm 0.00 in0.0 mm
04:29 PM 71.5°F21.9°C 29.5°F-1.4°C 21% 16.4 mph N26.4 kmh N 23.5 mph37.8 kmh 29.94 in1013.9 mb 0.00 in0.0 mm 0.00 in0.0 mm 0.00 in0.0 mm
04:30 PM 70.8°F21.6°C 28.9°F-1.7°C 21% 16.7 mph NNW26.9 kmh NNW 23.5 mph37.8 kmh 29.94 in1013.9 mb 0.00 in0.0 mm 0.00 in0.0 mm 0.00 in0.0 mm
04:31 PM 71.1°F21.7°C 29.2°F-1.6°C 21% 16.1 mph NNW25.9 kmh NNW 23.5 mph37.8 kmh 29.94 in1013.9 mb 0.00 in0.0 mm 0.00 in0.0 mm 0.00 in0.0 mm
04:32 PM 71.0°F21.7°C 29.1°F-1.6°C 21% 16.1 mph NW25.9 kmh NW 23.5 mph37.8 kmh 29.94 in1013.9 mb 0.00 in0.0 mm 0.00 in0.0 mm 0.00 in0.0 mm
04:36 PM 70.2°F21.2°C 24.8°F-4.0°C 18% 16.5 mph NNW26.6 kmh NNW 22.1 mph35.6 kmh 29.94 in1013.9 mb 0.00 in0.0 mm 0.00 in0.0 mm 0.00 in0.0 mm
04:37 PM 70.4°F21.3°C 24.9°F-3.9°C 18% 16.8 mph NW27.0 kmh NW 22.1 mph35.6 kmh 29.94 in1013.9 mb 0.00 in0.0 mm 0.00 in0.0 mm 0.00 in0.0 mm
04:38 PM 70.6°F21.4°C 25.1°F-3.8°C 18% 17.1 mph NW27.5 kmh NW 22.1 mph35.6 kmh 29.94 in1013.9 mb 0.00 in0.0 mm 0.00 in0.0 mm 0.00 in0.0 mm
04:39 PM 70.8°F21.6°C 26.5°F-3.1°C 19% 16.6 mph NW26.7 kmh NW 22.1 mph35.6 kmh 29.94 in1013.9 mb 0.00 in0.0 mm 0.00 in0.0 mm 0.00 in0.0 mm
04:40 PM 71.0°F21.7°C 27.9°F-2.3°C 20% 17.2 mph NNW27.7 kmh NNW 22.1 mph35.6 kmh 29.94 in1013.9 mb 0.00 in0.0 mm 0.00 in0.0 mm 0.00 in0.0 mm
04:41 PM 71.0°F21.7°C 29.1°F-1.6°C 21% 17.8 mph NNW28.6 kmh NNW 22.1 mph35.6 kmh 29.94 in1013.9 mb 0.00 in0.0 mm 0.00 in0.0 mm 0.00 in0.0 mm
04:42 PM 71.0°F21.7°C 29.1°F-1.6°C 21% 17.6 mph N28.3 kmh N 22.1 mph35.6 kmh 29.94 in1013.9 mb 0.00 in0.0 mm 0.00 in0.0 mm 0.00 in0.0 mm
04:43 PM 71.1°F21.7°C 28.1°F-2.2°C 20% 17.2 mph N27.7 kmh N 22.1 mph35.6 kmh 29.94 in1013.9 mb 0.00 in0.0 mm 0.00 in0.0 mm 0.00 in0.0 mm
04:44 PM 71.1°F21.7°C 26.8°F-2.9°C 19% 16.9 mph N27.2 kmh N 22.1 mph35.6 kmh 29.94 in1013.9 mb 0.00 in0.0 mm 0.00 in0.0 mm 0.00 in0.0 mm
04:45 PM 71.1°F21.7°C 26.8°F-2.9°C 19% 17.1 mph N27.5 kmh N 22.1 mph35.6 kmh 29.94 in1013.9 mb 0.00 in0.0 mm 0.00 in0.0 mm 0.00 in0.0 mm
04:46 PM 71.1°F21.7°C 25.5°F-3.6°C 18% 17.5 mph N28.2 kmh N 22.1 mph35.6 kmh 29.94 in1013.9 mb 0.00 in0.0 mm 0.00 in0.0 mm 0.00 in0.0 mm
04:47 PM 71.1°F21.7°C 26.8°F-2.9°C 19% 17.4 mph N28.0 kmh N 22.1 mph35.6 kmh 29.94 in1013.9 mb 0.00 in0.0 mm 0.00 in0.0 mm 0.00 in0.0 mm
04:48 PM 71.1°F21.7°C 26.8°F-2.9°C 19% 17.2 mph N27.7 kmh N 22.1 mph35.6 kmh 29.94 in1013.9 mb 0.00 in0.0 mm 0.00 in0.0 mm 0.00 in0.0 mm
04:49 PM 71.1°F21.7°C 26.8°F-2.9°C 19% 17.1 mph N27.5 kmh N 22.1 mph35.6 kmh 29.94 in1013.9 mb 0.00 in0.0 mm 0.00 in0.0 mm 0.00 in0.0 mm
04:50 PM 71.1°F21.7°C 26.8°F-2.9°C 19% 16.3 mph N26.2 kmh N 21.3 mph34.3 kmh 29.94 in1013.9 mb 0.00 in0.0 mm 0.00 in0.0 mm 0.00 in0.0 mm
04:51 PM 71.1°F21.7°C 26.8°F-2.9°C 19% 15.9 mph N25.6 kmh N 21.3 mph34.3 kmh 29.94 in1013.9 mb 0.00 in0.0 mm 0.00 in0.0 mm 0.00 in0.0 mm
04:52 PM 71.9°F22.2°C 29.8°F-1.2°C 21% 15.4 mph N24.8 kmh N 21.3 mph34.3 kmh 29.94 in1013.9 mb 0.00 in0.0 mm 0.00 in0.0 mm 0.00 in0.0 mm
04:53 PM 72.0°F22.2°C 30.0°F-1.1°C 21% 15.4 mph N24.8 kmh N 21.3 mph34.3 kmh 29.94 in1013.9 mb 0.00 in0.0 mm 0.00 in0.0 mm 0.00 in0.0 mm
04:54 PM 71.3°F21.8°C 28.2°F-2.1°C 20% 15.2 mph N24.5 kmh N 21.3 mph34.3 kmh 29.94 in1013.9 mb 0.00 in0.0 mm 0.00 in0.0 mm 0.00 in0.0 mm
04:55 PM 71.3°F21.8°C 28.2°F-2.1°C 20% 14.7 mph NNW23.7 kmh NNW 21.3 mph34.3 kmh 29.94 in1013.9 mb 0.00 in0.0 mm 0.00 in0.0 mm 0.00 in0.0 mm
04:56 PM 71.5°F21.9°C 28.4°F-2.0°C 20% 13.8 mph NNW22.2 kmh NNW 21.3 mph34.3 kmh 29.94 in1013.9 mb 0.00 in0.0 mm 0.00 in0.0 mm 0.00 in0.0 mm
04:57 PM 71.5°F21.9°C 28.4°F-2.0°C 20% 13.6 mph NNW21.9 kmh NNW 19.7 mph31.7 kmh 29.94 in1013.9 mb 0.00 in0.0 mm 0.00 in0.0 mm 0.00 in0.0 mm
04:58 PM 71.1°F21.7°C 26.8°F-2.9°C 19% 14.2 mph N22.9 kmh N 20.6 mph33.2 kmh 29.94 in1013.9 mb 0.00 in0.0 mm 0.00 in0.0 mm 0.00 in0.0 mm
04:59 PM 71.3°F21.8°C 27.0°F-2.8°C 19% 15.0 mph NNW24.1 kmh NNW 21.3 mph34.3 kmh 29.94 in1013.9 mb 0.00 in0.0 mm 0.00 in0.0 mm 0.00 in0.0 mm
05:00 PM 71.0°F21.7°C 26.7°F-2.9°C 19% 15.2 mph NNW24.5 kmh NNW 21.3 mph34.3 kmh 29.94 in1013.9 mb 0.00 in0.0 mm 0.00 in0.0 mm 0.00 in0.0 mm
05:01 PM 71.1°F21.7°C 28.1°F-2.2°C 20% 15.0 mph N24.1 kmh N 21.3 mph34.3 kmh 29.94 in1013.9 mb 0.00 in0.0 mm 0.00 in0.0 mm 0.00 in0.0 mm
05:02 PM 71.7°F22.1°C 29.7°F-1.3°C 21% 15.1 mph N24.3 kmh N 21.3 mph34.3 kmh 29.94 in1013.9 mb 0.00 in0.0 mm 0.00 in0.0 mm 0.00 in0.0 mm
05:03 PM 71.7°F22.1°C 29.7°F-1.3°C 21% 15.9 mph N25.6 kmh N 25.9 mph41.7 kmh 29.94 in1013.9 mb 0.00 in0.0 mm 0.00 in0.0 mm 0.00 in0.0 mm
05:04 PM 71.1°F21.7°C 29.2°F-1.6°C 21% 15.9 mph N25.6 kmh N 25.9 mph41.7 kmh 29.94 in1013.9 mb 0.00 in0.0 mm 0.00 in0.0 mm 0.00 in0.0 mm
05:05 PM 70.8°F21.6°C 27.8°F-2.3°C 20% 16.3 mph N26.2 kmh N 25.9 mph41.7 kmh 29.94 in1013.9 mb 0.00 in0.0 mm 0.00 in0.0 mm 0.00 in0.0 mm
05:06 PM 70.8°F21.6°C 27.8°F-2.3°C 20% 16.7 mph N26.9 kmh N 25.9 mph41.7 kmh 29.94 in1013.9 mb 0.00 in0.0 mm 0.00 in0.0 mm 0.00 in0.0 mm
05:07 PM 71.0°F21.7°C 29.1°F-1.6°C 21% 17.2 mph NNE27.7 kmh NNE 25.9 mph41.7 kmh 29.94 in1013.9 mb 0.00 in0.0 mm 0.00 in0.0 mm 0.00 in0.0 mm
05:08 PM 70.2°F21.2°C 28.5°F-1.9°C 21% 17.1 mph NNE27.5 kmh NNE 25.9 mph41.7 kmh 29.94 in1013.9 mb 0.00 in0.0 mm 0.00 in0.0 mm 0.00 in0.0 mm
05:09 PM 70.4°F21.3°C 28.7°F-1.8°C 21% 17.0 mph NNE27.4 kmh NNE 25.9 mph41.7 kmh 29.94 in1013.9 mb 0.00 in0.0 mm 0.00 in0.0 mm 0.00 in0.0 mm
05:10 PM 70.6°F21.4°C 28.8°F-1.8°C 21% 17.3 mph N27.8 kmh N 25.9 mph41.7 kmh 29.94 in1013.9 mb 0.00 in0.0 mm 0.00 in0.0 mm 0.00 in0.0 mm
05:11 PM 71.0°F21.7°C 29.1°F-1.6°C 21% 17.9 mph N28.8 kmh N 25.9 mph41.7 kmh 29.94 in1013.9 mb 0.00 in0.0 mm 0.00 in0.0 mm 0.00 in0.0 mm
05:12 PM 70.4°F21.3°C 29.8°F-1.2°C 22% 18.5 mph N29.8 kmh N 25.9 mph41.7 kmh 29.94 in1013.9 mb 0.00 in0.0 mm 0.00 in0.0 mm 0.00 in0.0 mm
05:13 PM 70.4°F21.3°C 29.8°F-1.2°C 22% 18.2 mph N29.3 kmh N 22.8 mph36.7 kmh 29.94 in1013.9 mb 0.00 in0.0 mm 0.00 in0.0 mm 0.00 in0.0 mm
05:14 PM 70.4°F21.3°C 29.8°F-1.2°C 22% 18.1 mph N29.1 kmh N 22.8 mph36.7 kmh 29.94 in1013.9 mb 0.00 in0.0 mm 0.00 in0.0 mm 0.00 in0.0 mm
05:15 PM 70.6°F21.4°C 28.8°F-1.8°C 21% 18.7 mph N30.1 kmh N 26.6 mph42.8 kmh 29.94 in1013.9 mb 0.00 in0.0 mm 0.00 in0.0 mm 0.00 in0.0 mm
05:16 PM 70.6°F21.4°C 28.8°F-1.8°C 21% 18.9 mph N30.4 kmh N 26.6 mph42.8 kmh 29.94 in1013.9 mb 0.00 in0.0 mm 0.00 in0.0 mm 0.00 in0.0 mm
05:17 PM 70.6°F21.4°C 27.6°F-2.4°C 20% 19.0 mph N30.6 kmh N 26.6 mph42.8 kmh 29.94 in1013.9 mb 0.00 in0.0 mm 0.00 in0.0 mm 0.00 in0.0 mm
05:18 PM 70.4°F21.3°C 28.7°F-1.8°C 21% 18.7 mph NNW30.1 kmh NNW 26.6 mph42.8 kmh 29.94 in1013.9 mb 0.00 in0.0 mm 0.00 in0.0 mm 0.00 in0.0 mm
05:19 PM 70.8°F21.6°C 27.8°F-2.3°C 20% 18.0 mph NNW29.0 kmh NNW 26.6 mph42.8 kmh 29.94 in1013.9 mb 0.00 in0.0 mm 0.00 in0.0 mm 0.00 in0.0 mm
05:20 PM 70.4°F21.3°C 29.8°F-1.2°C 22% 17.7 mph NNW28.5 kmh NNW 26.6 mph42.8 kmh 29.94 in1013.9 mb 0.00 in0.0 mm 0.00 in0.0 mm 0.00 in0.0 mm
05:21 PM 70.6°F21.4°C 28.8°F-1.8°C 21% 17.5 mph NNW28.2 kmh NNW 26.6 mph42.8 kmh 29.94 in1013.9 mb 0.00 in0.0 mm 0.00 in0.0 mm 0.00 in0.0 mm
05:22 PM 70.4°F21.3°C 28.7°F-1.8°C 21% 17.5 mph NNW28.2 kmh NNW 26.6 mph42.8 kmh 29.94 in1013.9 mb 0.00 in0.0 mm 0.00 in0.0 mm 0.00 in0.0 mm
05:23 PM 70.2°F21.2°C 28.5°F-1.9°C 21% 17.0 mph NNW27.4 kmh NNW 26.6 mph42.8 kmh 29.94 in1013.9 mb 0.00 in0.0 mm 0.00 in0.0 mm 0.00 in0.0 mm
05:24 PM 70.8°F21.6°C 28.9°F-1.7°C 21% 16.4 mph NNW26.4 kmh NNW 26.6 mph42.8 kmh 29.94 in1013.9 mb 0.00 in0.0 mm 0.00 in0.0 mm 0.00 in0.0 mm
05:25 PM 71.1°F21.7°C 29.2°F-1.6°C 21% 15.2 mph NNW24.5 kmh NNW 22.1 mph35.6 kmh 29.94 in1013.9 mb 0.00 in0.0 mm 0.00 in0.0 mm 0.00 in0.0 mm
05:26 PM 71.0°F21.7°C 29.1°F-1.6°C 21% 15.2 mph NNW24.5 kmh NNW 22.1 mph35.6 kmh 29.94 in1013.9 mb 0.00 in0.0 mm 0.00 in0.0 mm 0.00 in0.0 mm
05:27 PM 70.8°F21.6°C 28.9°F-1.7°C 21% 14.5 mph NNW23.3 kmh NNW 22.1 mph35.6 kmh 29.94 in1013.9 mb 0.00 in0.0 mm 0.00 in0.0 mm 0.00 in0.0 mm
05:28 PM 71.3°F21.8°C 29.4°F-1.4°C 21% 14.2 mph N22.9 kmh N 22.1 mph35.6 kmh 29.94 in1013.9 mb 0.00 in0.0 mm 0.00 in0.0 mm 0.00 in0.0 mm
05:29 PM 71.1°F21.7°C 29.2°F-1.6°C 21% 14.2 mph N22.9 kmh N 22.1 mph35.6 kmh 29.94 in1013.9 mb 0.00 in0.0 mm 0.00 in0.0 mm 0.00 in0.0 mm
05:30 PM 71.3°F21.8°C 29.4°F-1.4°C 21% 13.8 mph NNW22.2 kmh NNW 22.1 mph35.6 kmh 29.94 in1013.9 mb 0.00 in0.0 mm 0.00 in0.0 mm 0.00 in0.0 mm
05:31 PM 71.3°F21.8°C 29.4°F-1.4°C 21% 13.4 mph N21.6 kmh N 22.1 mph35.6 kmh 29.94 in1013.9 mb 0.00 in0.0 mm 0.00 in0.0 mm 0.00 in0.0 mm
05:32 PM 71.3°F21.8°C 29.4°F-1.4°C 21% 12.7 mph NNW20.4 kmh NNW 18.3 mph29.5 kmh 29.94 in1013.9 mb 0.00 in0.0 mm 0.00 in0.0 mm 0.00 in0.0 mm
05:33 PM 71.1°F21.7°C 29.2°F-1.6°C 21% 12.3 mph N19.8 kmh N 18.3 mph29.5 kmh 29.94 in1013.9 mb 0.00 in0.0 mm 0.00 in0.0 mm 0.00 in0.0 mm
05:34 PM 71.1°F21.7°C 29.2°F-1.6°C 21% 12.9 mph NNW20.8 kmh NNW 18.3 mph29.5 kmh 29.94 in1013.9 mb 0.00 in0.0 mm 0.00 in0.0 mm 0.00 in0.0 mm
05:35 PM 70.6°F21.4°C 28.8°F-1.8°C 21% 13.2 mph NNW21.2 kmh NNW 18.3 mph29.5 kmh 29.94 in1013.9 mb 0.00 in0.0 mm 0.00 in0.0 mm 0.00 in0.0 mm
05:36 PM 70.4°F21.3°C 29.8°F-1.2°C 22% 12.8 mph NNW20.6 kmh NNW 18.3 mph29.5 kmh 29.94 in1013.9 mb 0.00 in0.0 mm 0.00 in0.0 mm 0.00 in0.0 mm
05:37 PM 70.1°F21.2°C 29.5°F-1.4°C 22% 12.7 mph NNW20.4 kmh NNW 17.4 mph28.0 kmh 29.94 in1013.9 mb 0.00 in0.0 mm 0.00 in0.0 mm 0.00 in0.0 mm
05:38 PM 70.2°F21.2°C 29.6°F-1.3°C 22% 12.7 mph NW20.4 kmh NW 17.4 mph28.0 kmh 29.94 in1013.9 mb 0.00 in0.0 mm 0.00 in0.0 mm 0.00 in0.0 mm
05:39 PM 70.2°F21.2°C 29.6°F-1.3°C 22% 12.8 mph NNW20.6 kmh NNW 17.4 mph28.0 kmh 29.94 in1013.9 mb 0.00 in0.0 mm 0.00 in0.0 mm 0.00 in0.0 mm
05:40 PM 70.2°F21.2°C 29.6°F-1.3°C 22% 13.0 mph NW20.9 kmh NW 17.4 mph28.0 kmh 29.94 in1013.9 mb 0.00 in0.0 mm 0.00 in0.0 mm 0.00 in0.0 mm
05:41 PM 70.6°F21.4°C 28.8°F-1.8°C 21% 12.9 mph NW20.8 kmh NW 17.4 mph28.0 kmh 29.94 in1013.9 mb 0.00 in0.0 mm 0.00 in0.0 mm 0.00 in0.0 mm
05:42 PM 70.8°F21.6°C 28.9°F-1.7°C 21% 13.1 mph NW21.1 kmh NW 17.4 mph28.0 kmh 29.94 in1013.9 mb 0.00 in0.0 mm 0.00 in0.0 mm 0.00 in0.0 mm
05:43 PM 71.1°F21.7°C 29.2°F-1.6°C 21% 13.5 mph NW21.7 kmh NW 18.3 mph29.5 kmh 29.94 in1013.9 mb 0.00 in0.0 mm 0.00 in0.0 mm 0.00 in0.0 mm
05:44 PM 71.0°F21.7°C 29.1°F-1.6°C 21% 13.5 mph WNW21.7 kmh WNW 18.3 mph29.5 kmh 29.94 in1013.9 mb 0.00 in0.0 mm 0.00 in0.0 mm 0.00 in0.0 mm
05:45 PM 71.0°F21.7°C 29.1°F-1.6°C 21% 12.9 mph WNW20.8 kmh WNW 18.3 mph29.5 kmh 29.94 in1013.9 mb 0.00 in0.0 mm 0.00 in0.0 mm 0.00 in0.0 mm
05:46 PM 71.1°F21.7°C 29.2°F-1.6°C 21% 12.8 mph WNW20.6 kmh WNW 18.3 mph29.5 kmh 29.94 in1013.9 mb 0.00 in0.0 mm 0.00 in0.0 mm 0.00 in0.0 mm
05:47 PM 71.1°F21.7°C 29.2°F-1.6°C 21% 12.6 mph WNW20.3 kmh WNW 18.3 mph29.5 kmh 29.94 in1013.9 mb 0.00 in0.0 mm 0.00 in0.0 mm 0.00 in0.0 mm
05:48 PM 71.0°F21.7°C 27.9°F-2.3°C 20% 12.8 mph NW20.6 kmh NW 18.3 mph29.5 kmh 29.94 in1013.9 mb 0.00 in0.0 mm 0.00 in0.0 mm 0.00 in0.0 mm
05:49 PM 71.1°F21.7°C 28.1°F-2.2°C 20% 12.6 mph NW20.3 kmh NW 18.3 mph29.5 kmh 29.94 in1013.9 mb 0.00 in0.0 mm 0.00 in0.0 mm 0.00 in0.0 mm
05:50 PM 71.0°F21.7°C 29.1°F-1.6°C 21% 12.7 mph NW20.4 kmh NW 18.3 mph29.5 kmh 29.94 in1013.9 mb 0.00 in0.0 mm 0.00 in0.0 mm 0.00 in0.0 mm
05:51 PM 71.1°F21.7°C 29.2°F-1.6°C 21% 12.9 mph NW20.8 kmh NW 18.3 mph29.5 kmh 29.94 in1013.9 mb 0.00 in0.0 mm 0.00 in0.0 mm 0.00 in0.0 mm
05:52 PM 70.4°F21.3°C 28.7°F-1.8°C 21% 13.1 mph NNW21.1 kmh NNW 19.7 mph31.7 kmh 29.94 in1013.9 mb 0.00 in0.0 mm 0.00 in0.0 mm 0.00 in0.0 mm
05:53 PM 69.7°F20.9°C 26.9°F-2.8°C 20% 13.3 mph N21.4 kmh N 19.7 mph31.7 kmh 29.94 in1013.9 mb 0.00 in0.0 mm 0.00 in0.0 mm 0.00 in0.0 mm
05:54 PM 69.9°F21.1°C 28.2°F-2.1°C 21% 13.3 mph N21.4 kmh N 19.7 mph31.7 kmh 29.94 in1013.9 mb 0.00 in0.0 mm 0.00 in0.0 mm 0.00 in0.0 mm
05:55 PM 70.2°F21.2°C 29.6°F-1.3°C 22% 13.6 mph N21.9 kmh N 19.7 mph31.7 kmh 29.94 in1013.9 mb 0.00 in0.0 mm 0.00 in0.0 mm 0.00 in0.0 mm
05:56 PM 70.4°F21.3°C 29.8°F-1.2°C 22% 13.8 mph N22.2 kmh N 19.7 mph31.7 kmh 29.94 in1013.9 mb 0.00 in0.0 mm 0.00 in0.0 mm 0.00 in0.0 mm
05:57 PM 70.4°F21.3°C 29.8°F-1.2°C 22% 14.3 mph N23.0 kmh N 19.7 mph31.7 kmh 29.94 in1013.9 mb 0.00 in0.0 mm 0.00 in0.0 mm 0.00 in0.0 mm
05:58 PM 70.1°F21.2°C 29.5°F-1.4°C 22% 14.7 mph N23.7 kmh N 19.7 mph31.7 kmh 29.94 in1013.9 mb 0.00 in0.0 mm 0.00 in0.0 mm 0.00 in0.0 mm
05:59 PM 70.1°F21.2°C 29.5°F-1.4°C 22% 14.8 mph N23.8 kmh N 19.7 mph31.7 kmh 29.94 in1013.9 mb 0.00 in0.0 mm 0.00 in0.0 mm 0.00 in0.0 mm
06:00 PM 70.4°F21.3°C 29.8°F-1.2°C 22% 15.2 mph N24.5 kmh N 19.7 mph31.7 kmh 29.94 in1013.9 mb 0.00 in0.0 mm 0.00 in0.0 mm 0.00 in0.0 mm
06:01 PM 70.4°F21.3°C 29.8°F-1.2°C 22% 15.5 mph N24.9 kmh N 19.7 mph31.7 kmh 29.94 in1013.9 mb 0.00 in0.0 mm 0.00 in0.0 mm 0.00 in0.0 mm
06:02 PM 70.2°F21.2°C 29.6°F-1.3°C 22% 15.4 mph N24.8 kmh N 19.7 mph31.7 kmh 29.94 in1013.9 mb 0.00 in0.0 mm 0.00 in0.0 mm 0.00 in0.0 mm
06:03 PM 70.2°F21.2°C 29.6°F-1.3°C 22% 14.9 mph N24.0 kmh N 19.7 mph31.7 kmh 29.94 in1013.9 mb 0.00 in0.0 mm 0.00 in0.0 mm 0.00 in0.0 mm
06:07 PM 70.2°F21.2°C 29.6°F-1.3°C 22% 14.1 mph N22.7 kmh N 19.7 mph31.7 kmh 29.94 in1013.9 mb 0.00 in0.0 mm 0.00 in0.0 mm 0.00 in0.0 mm
06:08 PM 70.1°F21.2°C 29.5°F-1.4°C 22% 13.9 mph N22.4 kmh N 19.7 mph31.7 kmh 29.94 in1013.9 mb 0.00 in0.0 mm 0.00 in0.0 mm 0.00 in0.0 mm
06:11 PM 70.4°F21.3°C 29.8°F-1.2°C 22% 12.8 mph N20.6 kmh N 15.2 mph24.5 kmh 29.94 in1013.9 mb 0.00 in0.0 mm 0.00 in0.0 mm 0.00 in0.0 mm
06:12 PM 70.2°F21.2°C 29.6°F-1.3°C 22% 12.5 mph N20.1 kmh N 15.2 mph24.5 kmh 29.94 in1013.9 mb 0.00 in0.0 mm 0.00 in0.0 mm 0.00 in0.0 mm
06:13 PM 70.1°F21.2°C 29.5°F-1.4°C 22% 12.4 mph N20.0 kmh N 15.2 mph24.5 kmh 29.94 in1013.9 mb 0.00 in0.0 mm 0.00 in0.0 mm 0.00 in0.0 mm
06:15 PM 69.9°F21.1°C 29.3°F-1.5°C 22% 12.3 mph N19.8 kmh N 16.8 mph27.0 kmh 29.94 in1013.9 mb 0.00 in0.0 mm 0.00 in0.0 mm 0.00 in0.0 mm
06:16 PM 69.9°F21.1°C 29.3°F-1.5°C 22% 12.5 mph N20.1 kmh N 16.8 mph27.0 kmh 29.94 in1013.9 mb 0.00 in0.0 mm 0.00 in0.0 mm 0.00 in0.0 mm
06:17 PM 70.1°F21.2°C 30.6°F-0.8°C 23% 12.9 mph N20.8 kmh N 16.8 mph27.0 kmh 29.94 in1013.9 mb 0.00 in0.0 mm 0.00 in0.0 mm 0.00 in0.0 mm
07:11 PM 68.8°F20.4°C 29.5°F-1.4°C 23% 9.3 mph N15.0 kmh N 12.1 mph19.5 kmh 29.94 in1013.9 mb 0.00 in0.0 mm 0.00 in0.0 mm 0.00 in0.0 mm
07:12 PM 68.8°F20.4°C 29.5°F-1.4°C 23% 9.0 mph N14.5 kmh N 12.1 mph19.5 kmh 29.94 in1013.9 mb 0.00 in0.0 mm 0.00 in0.0 mm 0.00 in0.0 mm
07:14 PM 68.6°F20.3°C 30.4°F-0.9°C 24% 8.2 mph N13.2 kmh N 11.4 mph18.3 kmh 29.94 in1013.9 mb 0.00 in0.0 mm 0.00 in0.0 mm 0.00 in0.0 mm
07:15 PM 69.0°F20.6°C 29.7°F-1.3°C 23% 8.2 mph NNW13.2 kmh NNW 11.4 mph18.3 kmh 29.94 in1013.9 mb 0.00 in0.0 mm 0.00 in0.0 mm 0.00 in0.0 mm
07:16 PM 68.8°F20.4°C 29.5°F-1.4°C 23% 8.2 mph N13.2 kmh N 11.4 mph18.3 kmh 29.94 in1013.9 mb 0.00 in0.0 mm 0.00 in0.0 mm 0.00 in0.0 mm
07:17 PM 68.8°F20.4°C 29.5°F-1.4°C 23% 8.0 mph N12.9 kmh N 11.4 mph18.3 kmh 29.94 in1013.9 mb 0.00 in0.0 mm 0.00 in0.0 mm 0.00 in0.0 mm
07:18 PM 68.8°F20.4°C 29.5°F-1.4°C 23% 7.5 mph N12.1 kmh N 9.8 mph15.8 kmh 29.94 in1013.9 mb 0.00 in0.0 mm 0.00 in0.0 mm 0.00 in0.0 mm
07:19 PM 68.8°F20.4°C 29.5°F-1.4°C 23% 6.9 mph N11.1 kmh N 9.8 mph15.8 kmh 29.94 in1013.9 mb 0.00 in0.0 mm 0.00 in0.0 mm 0.00 in0.0 mm
07:20 PM 69.0°F20.6°C 30.7°F-0.7°C 24% 6.4 mph NNW10.3 kmh NNW 9.8 mph15.8 kmh 29.94 in1013.9 mb 0.00 in0.0 mm 0.00 in0.0 mm 0.00 in0.0 mm
07:21 PM 69.0°F20.6°C 29.7°F-1.3°C 23% 6.3 mph NNW10.1 kmh NNW 9.8 mph15.8 kmh 29.94 in1013.9 mb 0.00 in0.0 mm 0.00 in0.0 mm 0.00 in0.0 mm
07:22 PM 69.0°F20.6°C 30.7°F-0.7°C 24% 5.9 mph NW9.5 kmh NW 9.8 mph15.8 kmh 29.94 in1013.9 mb 0.00 in0.0 mm 0.00 in0.0 mm 0.00 in0.0 mm
07:23 PM 68.8°F20.4°C 29.5°F-1.4°C 23% 6.1 mph NNW9.8 kmh NNW 9.8 mph15.8 kmh 29.94 in1013.9 mb 0.00 in0.0 mm 0.00 in0.0 mm 0.00 in0.0 mm
07:24 PM 68.6°F20.3°C 30.4°F-0.9°C 24% 6.3 mph NNW10.1 kmh NNW 9.8 mph15.8 kmh 29.94 in1013.9 mb 0.00 in0.0 mm 0.00 in0.0 mm 0.00 in0.0 mm
07:25 PM 68.4°F20.2°C 30.3°F-0.9°C 24% 6.2 mph N10.0 kmh N 9.8 mph15.8 kmh 29.94 in1013.9 mb 0.00 in0.0 mm 0.00 in0.0 mm 0.00 in0.0 mm
07:26 PM 68.3°F20.2°C 30.1°F-1.1°C 24% 6.0 mph N9.7 kmh N 9.8 mph15.8 kmh 29.94 in1013.9 mb 0.00 in0.0 mm 0.00 in0.0 mm 0.00 in0.0 mm
07:27 PM 68.3°F20.2°C 30.1°F-1.1°C 24% 6.6 mph N10.6 kmh N 12.1 mph19.5 kmh 29.94 in1013.9 mb 0.00 in0.0 mm 0.00 in0.0 mm 0.00 in0.0 mm
07:28 PM 68.3°F20.2°C 29.1°F-1.6°C 23% 7.0 mph N11.3 kmh N 12.1 mph19.5 kmh 29.94 in1013.9 mb 0.00 in0.0 mm 0.00 in0.0 mm 0.00 in0.0 mm
07:29 PM 68.3°F20.2°C 29.1°F-1.6°C 23% 7.7 mph N12.4 kmh N 15.2 mph24.5 kmh 29.94 in1013.9 mb 0.00 in0.0 mm 0.00 in0.0 mm 0.00 in0.0 mm
07:30 PM 68.1°F20.1°C 25.5°F-3.6°C 20% 8.7 mph N14.0 kmh N 15.2 mph24.5 kmh 29.94 in1013.9 mb 0.00 in0.0 mm 0.00 in0.0 mm 0.00 in0.0 mm
07:32 PM 68.1°F20.1°C 20.2°F-6.6°C 16% 10.5 mph N16.9 kmh N 17.4 mph28.0 kmh 29.94 in1013.9 mb 0.00 in0.0 mm 0.00 in0.0 mm 0.00 in0.0 mm
07:33 PM 67.9°F19.9°C 20.1°F-6.6°C 16% 11.0 mph N17.7 kmh N 17.4 mph28.0 kmh 29.94 in1013.9 mb 0.00 in0.0 mm 0.00 in0.0 mm 0.00 in0.0 mm
07:34 PM 67.9°F19.9°C 18.6°F-7.4°C 15% 11.3 mph N18.2 kmh N 17.4 mph28.0 kmh 29.94 in1013.9 mb 0.00 in0.0 mm 0.00 in0.0 mm 0.00 in0.0 mm
07:35 PM 67.9°F19.9°C 18.6°F-7.4°C 15% 12.1 mph NNE19.5 kmh NNE 17.4 mph28.0 kmh 29.94 in1013.9 mb 0.00 in0.0 mm 0.00 in0.0 mm 0.00 in0.0 mm
07:36 PM 67.9°F19.9°C 17.0°F-8.3°C 14% 12.9 mph NNE20.8 kmh NNE 17.4 mph28.0 kmh 29.94 in1013.9 mb 0.00 in0.0 mm 0.00 in0.0 mm 0.00 in0.0 mm
07:37 PM 67.9°F19.9°C 17.0°F-8.3°C 14% 13.4 mph NNE21.6 kmh NNE 17.4 mph28.0 kmh 29.94 in1013.9 mb 0.00 in0.0 mm 0.00 in0.0 mm 0.00 in0.0 mm
07:38 PM 67.7°F19.8°C 16.8°F-8.4°C 14% 13.8 mph NNE22.2 kmh NNE 17.4 mph28.0 kmh 29.94 in1013.9 mb 0.00 in0.0 mm 0.00 in0.0 mm 0.00 in0.0 mm
07:39 PM 67.7°F19.8°C 16.8°F-8.4°C 14% 14.2 mph NNE22.9 kmh NNE 17.4 mph28.0 kmh 29.94 in1013.9 mb 0.00 in0.0 mm 0.00 in0.0 mm 0.00 in0.0 mm
07:40 PM 67.7°F19.8°C 15.1°F-9.4°C 13% 14.3 mph NNE23.0 kmh NNE 17.4 mph28.0 kmh 29.94 in1013.9 mb 0.00 in0.0 mm 0.00 in0.0 mm 0.00 in0.0 mm
07:41 PM 67.7°F19.8°C 15.1°F-9.4°C 13% 14.1 mph NNE22.7 kmh NNE 17.4 mph28.0 kmh 29.94 in1013.9 mb 0.00 in0.0 mm 0.00 in0.0 mm 0.00 in0.0 mm
07:42 PM 67.7°F19.8°C 15.1°F-9.4°C 13% 13.4 mph NNE21.6 kmh NNE 17.4 mph28.0 kmh 29.94 in1013.9 mb 0.00 in0.0 mm 0.00 in0.0 mm 0.00 in0.0 mm
07:43 PM 67.5°F19.7°C 15.0°F-9.4°C 13% 13.0 mph NNE20.9 kmh NNE 17.4 mph28.0 kmh 29.94 in1013.9 mb 0.00 in0.0 mm 0.00 in0.0 mm 0.00 in0.0 mm
07:44 PM 67.5°F19.7°C 15.0°F-9.4°C 13% 12.5 mph NNE20.1 kmh NNE 17.4 mph28.0 kmh 29.94 in1013.9 mb 0.00 in0.0 mm 0.00 in0.0 mm 0.00 in0.0 mm
07:45 PM 67.5°F19.7°C 15.0°F-9.4°C 13% 12.3 mph N19.8 kmh N 17.4 mph28.0 kmh 29.94 in1013.9 mb 0.00 in0.0 mm 0.00 in0.0 mm 0.00 in0.0 mm
07:46 PM 67.4°F19.7°C 14.9°F-9.5°C 13% 12.6 mph NNE20.3 kmh NNE 18.3 mph29.5 kmh 29.94 in1013.9 mb 0.00 in0.0 mm 0.00 in0.0 mm 0.00 in0.0 mm
07:47 PM 67.5°F19.7°C 13.2°F-10.4°C 12% 12.5 mph NNE20.1 kmh NNE 18.3 mph29.5 kmh 29.94 in1013.9 mb 0.00 in0.0 mm 0.00 in0.0 mm 0.00 in0.0 mm
07:48 PM 67.7°F19.8°C 9.2°F-12.7°C 10% 13.0 mph NNE20.9 kmh NNE 20.6 mph33.2 kmh 29.94 in1013.9 mb 0.00 in0.0 mm 0.00 in0.0 mm 0.00 in0.0 mm
07:49 PM 67.5°F19.7°C 6.8°F-14.0°C 9% 13.0 mph N20.9 kmh N 20.6 mph33.2 kmh 29.94 in1013.9 mb 0.00 in0.0 mm 0.00 in0.0 mm 0.00 in0.0 mm
07:50 PM 67.5°F19.7°C 6.8°F-14.0°C 9% 12.7 mph NNE20.4 kmh NNE 20.6 mph33.2 kmh 29.94 in1013.9 mb 0.00 in0.0 mm 0.00 in0.0 mm 0.00 in0.0 mm
07:51 PM 67.4°F19.7°C 6.6°F-14.1°C 9% 13.1 mph N21.1 kmh N 20.6 mph33.2 kmh 29.94 in1013.9 mb 0.00 in0.0 mm 0.00 in0.0 mm 0.00 in0.0 mm
07:52 PM 67.4°F19.7°C 6.6°F-14.1°C 9% 13.5 mph N21.7 kmh N 20.6 mph33.2 kmh 29.94 in1013.9 mb 0.00 in0.0 mm 0.00 in0.0 mm 0.00 in0.0 mm
07:53 PM 67.4°F19.7°C 6.6°F-14.1°C 9% 13.7 mph N22.0 kmh N 20.6 mph33.2 kmh 29.94 in1013.9 mb 0.00 in0.0 mm 0.00 in0.0 mm 0.00 in0.0 mm
07:54 PM 67.2°F19.6°C 6.5°F-14.2°C 9% 14.2 mph N22.9 kmh N 20.6 mph33.2 kmh 29.94 in1013.9 mb 0.00 in0.0 mm 0.00 in0.0 mm 0.00 in0.0 mm
07:55 PM 67.2°F19.6°C 6.5°F-14.2°C 9% 14.0 mph N22.5 kmh N 20.6 mph33.2 kmh 29.94 in1013.9 mb 0.00 in0.0 mm 0.00 in0.0 mm 0.00 in0.0 mm
07:56 PM 67.2°F19.6°C 6.5°F-14.2°C 9% 13.0 mph N20.9 kmh N 20.6 mph33.2 kmh 29.94 in1013.9 mb 0.00 in0.0 mm 0.00 in0.0 mm 0.00 in0.0 mm
07:57 PM 67.0°F19.4°C 6.4°F-14.2°C 9% 12.5 mph N20.1 kmh N 20.6 mph33.2 kmh 29.94 in1013.9 mb 0.00 in0.0 mm 0.00 in0.0 mm 0.00 in0.0 mm
07:58 PM 67.0°F19.4°C 8.7°F-12.9°C 10% 11.4 mph N18.3 kmh N 18.3 mph29.5 kmh 29.94 in1013.9 mb 0.00 in0.0 mm 0.00 in0.0 mm 0.00 in0.0 mm
07:59 PM 67.0°F19.4°C 8.7°F-12.9°C 10% 10.9 mph N17.5 kmh N 15.9 mph25.6 kmh 29.94 in1013.9 mb 0.00 in0.0 mm 0.00 in0.0 mm 0.00 in0.0 mm
08:00 PM 66.8°F19.3°C 10.7°F-11.8°C 11% 10.9 mph N17.5 kmh N 15.9 mph25.6 kmh 29.94 in1013.9 mb 0.00 in0.0 mm 0.00 in0.0 mm 0.00 in0.0 mm
08:02 PM 66.6°F19.2°C 12.5°F-10.8°C 12% 10.9 mph NNW17.5 kmh NNW 18.3 mph29.5 kmh 29.94 in1013.9 mb 0.00 in0.0 mm 0.00 in0.0 mm 0.00 in0.0 mm
08:03 PM 66.6°F19.2°C 10.5°F-11.9°C 11% 11.1 mph N17.9 kmh N 18.3 mph29.5 kmh 29.94 in1013.9 mb 0.00 in0.0 mm 0.00 in0.0 mm 0.00 in0.0 mm
08:04 PM 66.5°F19.2°C 10.4°F-12.0°C 11% 11.0 mph N17.7 kmh N 18.3 mph29.5 kmh 29.94 in1013.9 mb 0.00 in0.0 mm 0.00 in0.0 mm 0.00 in0.0 mm
08:05 PM 66.5°F19.2°C 12.3°F-10.9°C 12% 11.4 mph N18.3 kmh N 19.0 mph30.6 kmh 29.94 in1013.9 mb 0.00 in0.0 mm 0.00 in0.0 mm 0.00 in0.0 mm
08:08 PM 66.5°F19.2°C 10.4°F-12.0°C 11% 12.2 mph N19.6 kmh N 19.0 mph30.6 kmh 29.94 in1013.9 mb 0.00 in0.0 mm 0.00 in0.0 mm 0.00 in0.0 mm
08:09 PM 66.1°F18.9°C 12.1°F-11.1°C 12% 12.3 mph N19.8 kmh N 19.0 mph30.6 kmh 29.94 in1013.9 mb 0.00 in0.0 mm 0.00 in0.0 mm 0.00 in0.0 mm
08:10 PM 66.1°F18.9°C 12.1°F-11.1°C 12% 12.3 mph N19.8 kmh N 19.0 mph30.6 kmh 29.94 in1013.9 mb 0.00 in0.0 mm 0.00 in0.0 mm 0.00 in0.0 mm
08:12 PM 65.9°F18.8°C 11.9°F-11.2°C 12% 11.3 mph NNE18.2 kmh NNE 19.0 mph30.6 kmh 29.94 in1013.9 mb 0.00 in0.0 mm 0.00 in0.0 mm 0.00 in0.0 mm
08:13 PM 65.9°F18.8°C 10.0°F-12.2°C 11% 10.8 mph NNE17.4 kmh NNE 19.0 mph30.6 kmh 29.94 in1013.9 mb 0.00 in0.0 mm 0.00 in0.0 mm 0.00 in0.0 mm
08:14 PM 65.9°F18.8°C 10.0°F-12.2°C 11% 10.5 mph NE16.9 kmh NE 19.0 mph30.6 kmh 29.94 in1013.9 mb 0.00 in0.0 mm 0.00 in0.0 mm 0.00 in0.0 mm
08:15 PM 65.9°F18.8°C 10.0°F-12.2°C 11% 9.8 mph NE15.8 kmh NE 19.0 mph30.6 kmh 29.94 in1013.9 mb 0.00 in0.0 mm 0.00 in0.0 mm 0.00 in0.0 mm
08:16 PM 65.7°F18.7°C 9.8°F-12.3°C 11% 9.6 mph NE15.4 kmh NE 15.9 mph25.6 kmh 29.94 in1013.9 mb 0.00 in0.0 mm 0.00 in0.0 mm 0.00 in0.0 mm
08:17 PM 65.6°F18.7°C 9.7°F-12.4°C 11% 9.7 mph NE15.6 kmh NE 15.9 mph25.6 kmh 29.94 in1013.9 mb 0.00 in0.0 mm 0.00 in0.0 mm 0.00 in0.0 mm
08:18 PM 65.6°F18.7°C 9.7°F-12.4°C 11% 9.4 mph N15.1 kmh N 13.6 mph21.9 kmh 29.94 in1013.9 mb 0.00 in0.0 mm 0.00 in0.0 mm 0.00 in0.0 mm
08:19 PM 65.7°F18.7°C 7.7°F-13.5°C 10% 9.8 mph N15.8 kmh N 15.2 mph24.5 kmh 29.94 in1013.9 mb 0.00 in0.0 mm 0.00 in0.0 mm 0.00 in0.0 mm
08:21 PM 65.6°F18.7°C 7.6°F-13.6°C 10% 9.3 mph N15.0 kmh N 15.2 mph24.5 kmh 29.94 in1013.9 mb 0.00 in0.0 mm 0.00 in0.0 mm 0.00 in0.0 mm
08:25 PM 65.9°F18.8°C 3.0°F-16.1°C 8% 11.3 mph NNW18.2 kmh NNW 17.4 mph28.0 kmh 29.94 in1013.9 mb 0.00 in0.0 mm 0.00 in0.0 mm 0.00 in0.0 mm
08:27 PM 65.7°F18.7°C 2.9°F-16.2°C 8% 11.5 mph NNW18.5 kmh NNW 17.4 mph28.0 kmh 29.94 in1013.9 mb 0.00 in0.0 mm 0.00 in0.0 mm 0.00 in0.0 mm
08:28 PM 65.4°F18.6°C -0.3°F-17.9°C 7% 10.8 mph NNW17.4 kmh NNW 17.4 mph28.0 kmh 29.94 in1013.9 mb 0.00 in0.0 mm 0.00 in0.0 mm 0.00 in0.0 mm
08:29 PM 65.4°F18.6°C 2.6°F-16.3°C 8% 10.2 mph N16.4 kmh N 17.4 mph28.0 kmh 29.94 in1013.9 mb 0.00 in0.0 mm 0.00 in0.0 mm 0.00 in0.0 mm
08:30 PM 65.2°F18.4°C 2.5°F-16.4°C 8% 10.7 mph N17.2 kmh N 17.4 mph28.0 kmh 29.94 in1013.9 mb 0.00 in0.0 mm 0.00 in0.0 mm 0.00 in0.0 mm
08:31 PM 65.2°F18.4°C 2.5°F-16.4°C 8% 10.9 mph NNE17.5 kmh NNE 17.4 mph28.0 kmh 29.94 in1013.9 mb 0.00 in0.0 mm 0.00 in0.0 mm 0.00 in0.0 mm
08:32 PM 65.2°F18.4°C 2.5°F-16.4°C 8% 10.5 mph NNE16.9 kmh NNE 17.4 mph28.0 kmh 29.94 in1013.9 mb 0.00 in0.0 mm 0.00 in0.0 mm 0.00 in0.0 mm
08:33 PM 65.2°F18.4°C 2.5°F-16.4°C 8% 9.8 mph N15.8 kmh N 13.6 mph21.9 kmh 29.94 in1013.9 mb 0.00 in0.0 mm 0.00 in0.0 mm 0.00 in0.0 mm
08:34 PM 65.2°F18.4°C 2.5°F-16.4°C 8% 9.4 mph N15.1 kmh N 13.6 mph21.9 kmh 29.94 in1013.9 mb 0.00 in0.0 mm 0.00 in0.0 mm 0.00 in0.0 mm
08:35 PM 65.0°F18.3°C 4.9°F-15.1°C 9% 9.0 mph NNE14.5 kmh NNE 12.1 mph19.5 kmh 29.94 in1013.9 mb 0.00 in0.0 mm 0.00 in0.0 mm 0.00 in0.0 mm
08:36 PM 65.0°F18.3°C 4.9°F-15.1°C 9% 8.9 mph NE14.3 kmh NE 15.9 mph25.6 kmh 29.94 in1013.9 mb 0.00 in0.0 mm 0.00 in0.0 mm 0.00 in0.0 mm
08:37 PM 65.0°F18.3°C 4.9°F-15.1°C 9% 9.3 mph NE15.0 kmh NE 15.9 mph25.6 kmh 29.94 in1013.9 mb 0.00 in0.0 mm 0.00 in0.0 mm 0.00 in0.0 mm
08:38 PM 65.0°F18.3°C 4.9°F-15.1°C 9% 9.7 mph NE15.6 kmh NE 15.9 mph25.6 kmh 29.94 in1013.9 mb 0.00 in0.0 mm 0.00 in0.0 mm 0.00 in0.0 mm
08:39 PM 64.8°F18.2°C 4.7°F-15.2°C 9% 9.4 mph NNE15.1 kmh NNE 15.9 mph25.6 kmh 29.94 in1013.9 mb 0.00 in0.0 mm 0.00 in0.0 mm 0.00 in0.0 mm
08:40 PM 64.8°F18.2°C 4.7°F-15.2°C 9% 9.3 mph NNE15.0 kmh NNE 15.9 mph25.6 kmh 29.94 in1013.9 mb 0.00 in0.0 mm 0.00 in0.0 mm 0.00 in0.0 mm
08:41 PM 64.8°F18.2°C 4.7°F-15.2°C 9% 9.3 mph N15.0 kmh N 15.9 mph25.6 kmh 29.94 in1013.9 mb 0.00 in0.0 mm 0.00 in0.0 mm 0.00 in0.0 mm
08:42 PM 64.7°F18.2°C 4.6°F-15.2°C 9% 9.6 mph N15.4 kmh N 15.9 mph25.6 kmh 29.94 in1013.9 mb 0.00 in0.0 mm 0.00 in0.0 mm 0.00 in0.0 mm
08:43 PM 64.7°F18.2°C 4.6°F-15.2°C 9% 9.3 mph N15.0 kmh N 15.9 mph25.6 kmh 29.94 in1013.9 mb 0.00 in0.0 mm 0.00 in0.0 mm 0.00 in0.0 mm
08:44 PM 64.8°F18.2°C 4.7°F-15.2°C 9% 9.6 mph N15.4 kmh N 15.9 mph25.6 kmh 29.94 in1013.9 mb 0.00 in0.0 mm 0.00 in0.0 mm 0.00 in0.0 mm
08:45 PM 64.8°F18.2°C 4.7°F-15.2°C 9% 10.0 mph N16.1 kmh N 15.9 mph25.6 kmh 29.94 in1013.9 mb 0.00 in0.0 mm 0.00 in0.0 mm 0.00 in0.0 mm
08:46 PM 64.8°F18.2°C 4.7°F-15.2°C 9% 10.0 mph N16.1 kmh N 15.9 mph25.6 kmh 29.94 in1013.9 mb 0.00 in0.0 mm 0.00 in0.0 mm 0.00 in0.0 mm
08:47 PM 64.7°F18.2°C 4.6°F-15.2°C 9% 9.5 mph N15.3 kmh N 13.0 mph20.9 kmh 29.94 in1013.9 mb 0.00 in0.0 mm 0.00 in0.0 mm 0.00 in0.0 mm
08:48 PM 64.5°F18.1°C 4.5°F-15.3°C 9% 9.5 mph N15.3 kmh N 13.0 mph20.9 kmh 29.94 in1013.9 mb 0.00 in0.0 mm 0.00 in0.0 mm 0.00 in0.0 mm
08:49 PM 64.5°F18.1°C 4.5°F-15.3°C 9% 10.0 mph N16.1 kmh N 15.2 mph24.5 kmh 29.94 in1013.9 mb 0.00 in0.0 mm 0.00 in0.0 mm 0.00 in0.0 mm
08:50 PM 64.8°F18.2°C 4.7°F-15.2°C 9% 10.2 mph N16.4 kmh N 15.2 mph24.5 kmh 29.94 in1013.9 mb 0.00 in0.0 mm 0.00 in0.0 mm 0.00 in0.0 mm
08:53 PM 64.1°F17.8°C 4.2°F-15.4°C 9% 9.7 mph N15.6 kmh N 15.2 mph24.5 kmh 29.94 in1013.9 mb 0.00 in0.0 mm 0.00 in0.0 mm 0.00 in0.0 mm
08:54 PM 64.3°F17.9°C 6.6°F-14.1°C 10% 9.1 mph N14.6 kmh N 15.2 mph24.5 kmh 29.94 in1013.9 mb 0.00 in0.0 mm 0.00 in0.0 mm 0.00 in0.0 mm
08:55 PM 64.1°F17.8°C 6.5°F-14.2°C 10% 8.4 mph N13.5 kmh N 15.2 mph24.5 kmh 29.94 in1013.9 mb 0.00 in0.0 mm 0.00 in0.0 mm 0.00 in0.0 mm
08:56 PM 63.9°F17.7°C 6.3°F-14.3°C 10% 8.2 mph N13.2 kmh N 15.2 mph24.5 kmh 29.94 in1013.9 mb 0.00 in0.0 mm 0.00 in0.0 mm 0.00 in0.0 mm
08:57 PM 64.1°F17.8°C 6.5°F-14.2°C 10% 8.4 mph N13.5 kmh N 15.2 mph24.5 kmh 29.94 in1013.9 mb 0.00 in0.0 mm 0.00 in0.0 mm 0.00 in0.0 mm
08:58 PM 63.9°F17.7°C 6.3°F-14.3°C 10% 8.2 mph NNW13.2 kmh NNW 15.2 mph24.5 kmh 29.94 in1013.9 mb 0.00 in0.0 mm 0.00 in0.0 mm 0.00 in0.0 mm
08:59 PM 63.8°F17.7°C 6.2°F-14.3°C 10% 7.7 mph NNW12.4 kmh NNW 15.2 mph24.5 kmh 29.94 in1013.9 mb 0.00 in0.0 mm 0.00 in0.0 mm 0.00 in0.0 mm
09:00 PM 63.8°F17.7°C 6.2°F-14.3°C 10% 7.4 mph NW11.9 kmh NW 13.6 mph21.9 kmh 29.94 in1013.9 mb 0.00 in0.0 mm 0.00 in0.0 mm 0.00 in0.0 mm
09:01 PM 63.8°F17.7°C 6.2°F-14.3°C 10% 7.1 mph NW11.4 kmh NW 13.6 mph21.9 kmh 29.94 in1013.9 mb 0.00 in0.0 mm 0.00 in0.0 mm 0.00 in0.0 mm
09:02 PM 63.6°F17.6°C 6.1°F-14.4°C 10% 7.0 mph NW11.3 kmh NW 13.6 mph21.9 kmh 29.94 in1013.9 mb 0.00 in0.0 mm 0.00 in0.0 mm 0.00 in0.0 mm
09:03 PM 63.6°F17.6°C 8.2°F-13.2°C 11% 7.0 mph NW11.3 kmh NW 13.6 mph21.9 kmh 29.94 in1013.9 mb 0.00 in0.0 mm 0.00 in0.0 mm 0.00 in0.0 mm
09:04 PM 63.4°F17.4°C